<?xml version="1.0" encoding="UTF-8"?>
<gpx creator="Garmin Connect" version="1.1"
  xsi:schemaLocation="http://www.topografix.com/GPX/1/1 http://www.topografix.com/GPX/11.xsd"
  xmlns:ns3="http://www.garmin.com/xmlschemas/TrackPointExtension/v1"
  xmlns="http://www.topografix.com/GPX/1/1"
  xmlns:xsi="http://www.w3.org/2001/XMLSchema-instance" xmlns:ns2="http://www.garmin.com/xmlschemas/GpxExtensions/v3">
  <metadata>
    <name>Anelli Piceni - Percorso Giallo</name>
    <link href="connect.garmin.com">
      <text>Garmin Connect</text>
    </link>
    <time>2019-03-26T18:57:00.000Z</time>
  </metadata>
  <trk>
    <name>Anelli Piceni - Percorso Giallo</name>
    <trkseg>
      <trkpt lat="43.02747909910977" lon="13.860465791076422">
        <ele>2.200000047683716</ele>
        <time>2019-03-26T18:57:00.000Z</time>
      </trkpt>
      <trkpt lat="43.027479350566864" lon="13.86046621017158">
        <ele>2.200000047683716</ele>
        <time>2019-03-26T18:57:00.000Z</time>
      </trkpt>
      <trkpt lat="43.02747909910977" lon="13.860435783863068">
        <ele>2.4000000953674316</ele>
        <time>2019-03-26T18:57:00.001Z</time>
      </trkpt>
      <trkpt lat="43.027465185150504" lon="13.860374428331852">
        <ele>2.5999999046325684</ele>
        <time>2019-03-26T18:57:00.003Z</time>
      </trkpt>
      <trkpt lat="43.02740232087672" lon="13.860184494405985">
        <ele>3.4000000953674316</ele>
        <time>2019-03-26T18:57:00.008Z</time>
      </trkpt>
      <trkpt lat="43.02733367308974" lon="13.859990453347564">
        <ele>3.799999952316284</ele>
        <time>2019-03-26T18:57:00.017Z</time>
      </trkpt>
      <trkpt lat="43.02721984684467" lon="13.859754586592317">
        <ele>5.0</ele>
        <time>2019-03-26T18:57:00.031Z</time>
      </trkpt>
      <trkpt lat="43.027187744155526" lon="13.85961058549583">
        <ele>5.800000190734863</ele>
        <time>2019-03-26T18:57:00.047Z</time>
      </trkpt>
      <trkpt lat="43.02708774805069" lon="13.859305819496512">
        <ele>7.0</ele>
        <time>2019-03-26T18:57:00.069Z</time>
      </trkpt>
      <trkpt lat="43.026916505768895" lon="13.858967022970319">
        <ele>7.400000095367432</ele>
        <time>2019-03-26T18:57:00.098Z</time>
      </trkpt>
      <trkpt lat="43.0267883464694" lon="13.858613641932607">
        <ele>8.0</ele>
        <time>2019-03-26T18:57:00.134Z</time>
      </trkpt>
      <trkpt lat="43.026651721447706" lon="13.858261266723275">
        <ele>9.199999809265137</ele>
        <time>2019-03-26T18:57:00.177Z</time>
      </trkpt>
      <trkpt lat="43.026568070054054" lon="13.858177196234465">
        <ele>9.600000381469727</ele>
        <time>2019-03-26T18:57:00.222Z</time>
      </trkpt>
      <trkpt lat="43.02647989243269" lon="13.857983658090234">
        <ele>10.399999618530273</ele>
        <time>2019-03-26T18:57:00.271Z</time>
      </trkpt>
      <trkpt lat="43.026264645159245" lon="13.857614938169718">
        <ele>11.600000381469727</ele>
        <time>2019-03-26T18:57:00.328Z</time>
      </trkpt>
      <trkpt lat="43.026043362915516" lon="13.857258707284927">
        <ele>11.800000190734863</ele>
        <time>2019-03-26T18:57:00.393Z</time>
      </trkpt>
      <trkpt lat="43.02585535682738" lon="13.85696324519813">
        <ele>12.199999809265137</ele>
        <time>2019-03-26T18:57:00.465Z</time>
      </trkpt>
      <trkpt lat="43.02573507651687" lon="13.856732826679945">
        <ele>12.399999618530273</ele>
        <time>2019-03-26T18:57:00.542Z</time>
      </trkpt>
      <trkpt lat="43.025664081797004" lon="13.856635428965092">
        <ele>12.600000381469727</ele>
        <time>2019-03-26T18:57:00.621Z</time>
      </trkpt>
      <trkpt lat="43.025562576949596" lon="13.856514478102326">
        <ele>13.0</ele>
        <time>2019-03-26T18:57:00.703Z</time>
      </trkpt>
      <trkpt lat="43.025474064052105" lon="13.85638078674674">
        <ele>13.399999618530273</ele>
        <time>2019-03-26T18:57:00.788Z</time>
      </trkpt>
      <trkpt lat="43.025378761813045" lon="13.856234941631556">
        <ele>13.800000190734863</ele>
        <time>2019-03-26T18:57:00.877Z</time>
      </trkpt>
      <trkpt lat="43.02526719868183" lon="13.856038302183151">
        <ele>14.399999618530273</ele>
        <time>2019-03-26T18:57:00.970Z</time>
      </trkpt>
      <trkpt lat="43.025086568668485" lon="13.855749126523733">
        <ele>15.399999618530273</ele>
        <time>2019-03-26T18:57:01.069Z</time>
      </trkpt>
      <trkpt lat="43.024918511509895" lon="13.855499848723412">
        <ele>16.200000762939453</ele>
        <time>2019-03-26T18:57:01.174Z</time>
      </trkpt>
      <trkpt lat="43.02475607022643" lon="13.855235232040286">
        <ele>17.200000762939453</ele>
        <time>2019-03-26T18:57:01.285Z</time>
      </trkpt>
      <trkpt lat="43.02465347573161" lon="13.855045046657324">
        <ele>17.600000381469727</ele>
        <time>2019-03-26T18:57:01.400Z</time>
      </trkpt>
      <trkpt lat="43.024484664201744" lon="13.854744555428624">
        <ele>18.200000762939453</ele>
        <time>2019-03-26T18:57:01.522Z</time>
      </trkpt>
      <trkpt lat="43.024302860721946" lon="13.854471053928137">
        <ele>18.799999237060547</ele>
        <time>2019-03-26T18:57:01.650Z</time>
      </trkpt>
      <trkpt lat="43.024085350334644" lon="13.85411255992949">
        <ele>20.399999618530273</ele>
        <time>2019-03-26T18:57:01.786Z</time>
      </trkpt>
      <trkpt lat="43.02393673919141" lon="13.853845512494445">
        <ele>21.600000381469727</ele>
        <time>2019-03-26T18:57:01.928Z</time>
      </trkpt>
      <trkpt lat="43.02383397705853" lon="13.853659015148878">
        <ele>22.399999618530273</ele>
        <time>2019-03-26T18:57:02.074Z</time>
      </trkpt>
      <trkpt lat="43.023759461939335" lon="13.853524401783943">
        <ele>23.0</ele>
        <time>2019-03-26T18:57:02.223Z</time>
      </trkpt>
      <trkpt lat="43.02362392656505" lon="13.853235393762589">
        <ele>23.399999618530273</ele>
        <time>2019-03-26T18:57:02.377Z</time>
      </trkpt>
      <trkpt lat="43.023555194959044" lon="13.853053003549576">
        <ele>23.600000381469727</ele>
        <time>2019-03-26T18:57:02.535Z</time>
      </trkpt>
      <trkpt lat="43.023465257138014" lon="13.852679589763284">
        <ele>24.0</ele>
        <time>2019-03-26T18:57:02.700Z</time>
      </trkpt>
      <trkpt lat="43.023391077294946" lon="13.85225328616798">
        <ele>24.799999237060547</ele>
        <time>2019-03-26T18:57:02.872Z</time>
      </trkpt>
      <trkpt lat="43.02333751693368" lon="13.85203242301941">
        <ele>25.399999618530273</ele>
        <time>2019-03-26T18:57:03.048Z</time>
      </trkpt>
      <trkpt lat="43.02325981669128" lon="13.851727657020092">
        <ele>25.799999237060547</ele>
        <time>2019-03-26T18:57:03.230Z</time>
      </trkpt>
      <trkpt lat="43.02321824245155" lon="13.851456167176366">
        <ele>26.200000762939453</ele>
        <time>2019-03-26T18:57:03.417Z</time>
      </trkpt>
      <trkpt lat="43.02317482419312" lon="13.851127177476883">
        <ele>26.799999237060547</ele>
        <time>2019-03-26T18:57:03.609Z</time>
      </trkpt>
      <trkpt lat="43.023171639069915" lon="13.850918216630816">
        <ele>26.799999237060547</ele>
        <time>2019-03-26T18:57:03.805Z</time>
      </trkpt>
      <trkpt lat="43.02312738262117" lon="13.850737335160375">
        <ele>27.200000762939453</ele>
        <time>2019-03-26T18:57:04.004Z</time>
      </trkpt>
      <trkpt lat="43.02296368405223" lon="13.850385211408138">
        <ele>28.399999618530273</ele>
        <time>2019-03-26T18:57:04.210Z</time>
      </trkpt>
      <trkpt lat="43.02271591499448" lon="13.850011713802814">
        <ele>29.600000381469727</ele>
        <time>2019-03-26T18:57:04.425Z</time>
      </trkpt>
      <trkpt lat="43.022467559203506" lon="13.849707618355751">
        <ele>30.200000762939453</ele>
        <time>2019-03-26T18:57:04.648Z</time>
      </trkpt>
      <trkpt lat="43.02217612043023" lon="13.84939145296812">
        <ele>31.0</ele>
        <time>2019-03-26T18:57:04.879Z</time>
      </trkpt>
      <trkpt lat="43.021963220089674" lon="13.849172685295343">
        <ele>31.0</ele>
        <time>2019-03-26T18:57:05.117Z</time>
      </trkpt>
      <trkpt lat="43.0216580349952" lon="13.848837995901704">
        <ele>32.0</ele>
        <time>2019-03-26T18:57:05.364Z</time>
      </trkpt>
      <trkpt lat="43.0213815998286" lon="13.848471706733108">
        <ele>34.400001525878906</ele>
        <time>2019-03-26T18:57:05.620Z</time>
      </trkpt>
      <trkpt lat="43.02113911136985" lon="13.848115056753159">
        <ele>35.0</ele>
        <time>2019-03-26T18:57:05.884Z</time>
      </trkpt>
      <trkpt lat="43.020869717001915" lon="13.847734853625298">
        <ele>35.400001525878906</ele>
        <time>2019-03-26T18:57:06.157Z</time>
      </trkpt>
      <trkpt lat="43.02065874449909" lon="13.847373928874731">
        <ele>35.79999923706055</ele>
        <time>2019-03-26T18:57:06.438Z</time>
      </trkpt>
      <trkpt lat="43.02040192298591" lon="13.846918288618326">
        <ele>37.0</ele>
        <time>2019-03-26T18:57:06.729Z</time>
      </trkpt>
      <trkpt lat="43.02025565877557" lon="13.846650486811996">
        <ele>37.20000076293945</ele>
        <time>2019-03-26T18:57:07.026Z</time>
      </trkpt>
      <trkpt lat="43.02000755444169" lon="13.846233990043402">
        <ele>38.0</ele>
        <time>2019-03-26T18:57:07.332Z</time>
      </trkpt>
      <trkpt lat="43.0197134334594" lon="13.845813889056444">
        <ele>38.79999923706055</ele>
        <time>2019-03-26T18:57:07.648Z</time>
      </trkpt>
      <trkpt lat="43.019399866461754" lon="13.845447599887848">
        <ele>39.599998474121094</ele>
        <time>2019-03-26T18:57:07.974Z</time>
      </trkpt>
      <trkpt lat="43.01910465583205" lon="13.845074605196714">
        <ele>40.400001525878906</ele>
        <time>2019-03-26T18:57:08.309Z</time>
      </trkpt>
      <trkpt lat="43.01880952902138" lon="13.844657354056835">
        <ele>41.20000076293945</ele>
        <time>2019-03-26T18:57:08.654Z</time>
      </trkpt>
      <trkpt lat="43.01856553182006" lon="13.844260722398758">
        <ele>42.20000076293945</ele>
        <time>2019-03-26T18:57:09.008Z</time>
      </trkpt>
      <trkpt lat="43.01829278469086" lon="13.843749174848199">
        <ele>45.0</ele>
        <time>2019-03-26T18:57:09.373Z</time>
      </trkpt>
      <trkpt lat="43.018114333972335" lon="13.84322497062385">
        <ele>46.599998474121094</ele>
        <time>2019-03-26T18:57:09.747Z</time>
      </trkpt>
      <trkpt lat="43.01796513609588" lon="13.842552490532398">
        <ele>48.400001525878906</ele>
        <time>2019-03-26T18:57:10.134Z</time>
      </trkpt>
      <trkpt lat="43.01787511445582" lon="13.841952346265316">
        <ele>48.599998474121094</ele>
        <time>2019-03-26T18:57:10.531Z</time>
      </trkpt>
      <trkpt lat="43.01776212640107" lon="13.841233095154166">
        <ele>50.0</ele>
        <time>2019-03-26T18:57:10.941Z</time>
      </trkpt>
      <trkpt lat="43.01771502010524" lon="13.840682152658701">
        <ele>51.599998474121094</ele>
        <time>2019-03-26T18:57:11.360Z</time>
      </trkpt>
      <trkpt lat="43.017716528847814" lon="13.84005518630147">
        <ele>53.20000076293945</ele>
        <time>2019-03-26T18:57:11.790Z</time>
      </trkpt>
      <trkpt lat="43.01773480139673" lon="13.839491754770279">
        <ele>55.20000076293945</ele>
        <time>2019-03-26T18:57:12.230Z</time>
      </trkpt>
      <trkpt lat="43.017760533839464" lon="13.838988253846765">
        <ele>55.599998474121094</ele>
        <time>2019-03-26T18:57:12.678Z</time>
      </trkpt>
      <trkpt lat="43.017778219655156" lon="13.838462205603719">
        <ele>56.79999923706055</ele>
        <time>2019-03-26T18:57:13.135Z</time>
      </trkpt>
      <trkpt lat="43.017815267667174" lon="13.837793413549662">
        <ele>59.400001525878906</ele>
        <time>2019-03-26T18:57:13.604Z</time>
      </trkpt>
      <trkpt lat="43.0178362224251" lon="13.83710877969861">
        <ele>60.79999923706055</ele>
        <time>2019-03-26T18:57:14.085Z</time>
      </trkpt>
      <trkpt lat="43.017824571579695" lon="13.836552891880274">
        <ele>62.20000076293945</ele>
        <time>2019-03-26T18:57:14.575Z</time>
      </trkpt>
      <trkpt lat="43.01778383553028" lon="13.835831377655268">
        <ele>65.19999694824219</ele>
        <time>2019-03-26T18:57:15.078Z</time>
      </trkpt>
      <trkpt lat="43.01772675476968" lon="13.835365762934089">
        <ele>65.5999984741211</ele>
        <time>2019-03-26T18:57:15.589Z</time>
      </trkpt>
      <trkpt lat="43.017636397853494" lon="13.83490995503962">
        <ele>66.5999984741211</ele>
        <time>2019-03-26T18:57:16.108Z</time>
      </trkpt>
      <trkpt lat="43.01751553080976" lon="13.834281312301755">
        <ele>69.5999984741211</ele>
        <time>2019-03-26T18:57:16.638Z</time>
      </trkpt>
      <trkpt lat="43.01744604483247" lon="13.833814859390259">
        <ele>71.0</ele>
        <time>2019-03-26T18:57:17.176Z</time>
      </trkpt>
      <trkpt lat="43.017398435622454" lon="13.833331810310483">
        <ele>72.80000305175781</ele>
        <time>2019-03-26T18:57:17.722Z</time>
      </trkpt>
      <trkpt lat="43.017398938536644" lon="13.833283865824342">
        <ele>73.0</ele>
        <time>2019-03-26T18:57:18.269Z</time>
      </trkpt>
      <trkpt lat="43.01739349029958" lon="13.83303752169013">
        <ele>73.5999984741211</ele>
        <time>2019-03-26T18:57:18.820Z</time>
      </trkpt>
      <trkpt lat="43.017413103953004" lon="13.832585904747248">
        <ele>74.0</ele>
        <time>2019-03-26T18:57:19.379Z</time>
      </trkpt>
      <trkpt lat="43.01742911338806" lon="13.832284659147263">
        <ele>75.19999694824219</ele>
        <time>2019-03-26T18:57:19.943Z</time>
      </trkpt>
      <trkpt lat="43.017439004033804" lon="13.831859361380339">
        <ele>77.19999694824219</ele>
        <time>2019-03-26T18:57:20.515Z</time>
      </trkpt>
      <trkpt lat="43.01744369789958" lon="13.83130137808621">
        <ele>78.19999694824219</ele>
        <time>2019-03-26T18:57:21.096Z</time>
      </trkpt>
      <trkpt lat="43.01744034513831" lon="13.830750016495585">
        <ele>80.19999694824219</ele>
        <time>2019-03-26T18:57:21.687Z</time>
      </trkpt>
      <trkpt lat="43.01740053109825" lon="13.830279624089599">
        <ele>82.19999694824219</ele>
        <time>2019-03-26T18:57:22.286Z</time>
      </trkpt>
      <trkpt lat="43.01729307509959" lon="13.830020539462566">
        <ele>83.5999984741211</ele>
        <time>2019-03-26T18:57:22.890Z</time>
      </trkpt>
      <trkpt lat="43.01714236848056" lon="13.829580824822187">
        <ele>85.80000305175781</ele>
        <time>2019-03-26T18:57:23.502Z</time>
      </trkpt>
      <trkpt lat="43.017020830884576" lon="13.829141780734062">
        <ele>87.0</ele>
        <time>2019-03-26T18:57:24.122Z</time>
      </trkpt>
      <trkpt lat="43.016895186156034" lon="13.828681949526072">
        <ele>87.19999694824219</ele>
        <time>2019-03-26T18:57:24.751Z</time>
      </trkpt>
      <trkpt lat="43.016850175336" lon="13.82834524847567">
        <ele>87.80000305175781</ele>
        <time>2019-03-26T18:57:25.386Z</time>
      </trkpt>
      <trkpt lat="43.01687741652131" lon="13.827894050627947">
        <ele>88.5999984741211</ele>
        <time>2019-03-26T18:57:26.028Z</time>
      </trkpt>
      <trkpt lat="43.016892839223146" lon="13.827469674870372">
        <ele>89.5999984741211</ele>
        <time>2019-03-26T18:57:26.678Z</time>
      </trkpt>
      <trkpt lat="43.01691203378141" lon="13.826924348250031">
        <ele>90.80000305175781</ele>
        <time>2019-03-26T18:57:27.337Z</time>
      </trkpt>
      <trkpt lat="43.01693810150027" lon="13.826424703001976">
        <ele>92.4000015258789</ele>
        <time>2019-03-26T18:57:28.005Z</time>
      </trkpt>
      <trkpt lat="43.016898622736335" lon="13.825953137129545">
        <ele>93.4000015258789</ele>
        <time>2019-03-26T18:57:28.681Z</time>
      </trkpt>
      <trkpt lat="43.01682754419744" lon="13.82555122487247">
        <ele>93.80000305175781</ele>
        <time>2019-03-26T18:57:29.364Z</time>
      </trkpt>
      <trkpt lat="43.01679376512766" lon="13.825148055329919">
        <ele>95.0</ele>
        <time>2019-03-26T18:57:30.054Z</time>
      </trkpt>
      <trkpt lat="43.01681916229427" lon="13.824776150286198">
        <ele>98.0</ele>
        <time>2019-03-26T18:57:30.750Z</time>
      </trkpt>
      <trkpt lat="43.01687255501747" lon="13.824410615488887">
        <ele>100.5999984741211</ele>
        <time>2019-03-26T18:57:31.453Z</time>
      </trkpt>
      <trkpt lat="43.01689267158508" lon="13.824031921103597">
        <ele>103.5999984741211</ele>
        <time>2019-03-26T18:57:32.162Z</time>
      </trkpt>
      <trkpt lat="43.016848331317306" lon="13.823626404628158">
        <ele>106.5999984741211</ele>
        <time>2019-03-26T18:57:32.878Z</time>
      </trkpt>
      <trkpt lat="43.01683349534869" lon="13.823251482099295">
        <ele>107.80000305175781</ele>
        <time>2019-03-26T18:57:33.601Z</time>
      </trkpt>
      <trkpt lat="43.01688043400645" lon="13.823000192642212">
        <ele>108.5999984741211</ele>
        <time>2019-03-26T18:57:34.328Z</time>
      </trkpt>
      <trkpt lat="43.0169987026602" lon="13.822750244289637">
        <ele>108.4000015258789</ele>
        <time>2019-03-26T18:57:35.060Z</time>
      </trkpt>
      <trkpt lat="43.017124431207776" lon="13.822516053915024">
        <ele>106.80000305175781</ele>
        <time>2019-03-26T18:57:35.797Z</time>
      </trkpt>
      <trkpt lat="43.017314448952675" lon="13.822235930711031">
        <ele>106.0</ele>
        <time>2019-03-26T18:57:36.541Z</time>
      </trkpt>
      <trkpt lat="43.01750035956502" lon="13.822097377851605">
        <ele>107.0</ele>
        <time>2019-03-26T18:57:37.290Z</time>
      </trkpt>
      <trkpt lat="43.01769238896668" lon="13.822001405060291">
        <ele>109.4000015258789</ele>
        <time>2019-03-26T18:57:38.043Z</time>
      </trkpt>
      <trkpt lat="43.01786933094263" lon="13.821895960718393">
        <ele>111.0</ele>
        <time>2019-03-26T18:57:38.801Z</time>
      </trkpt>
      <trkpt lat="43.01806781440973" lon="13.821646934375167">
        <ele>115.0</ele>
        <time>2019-03-26T18:57:39.565Z</time>
      </trkpt>
      <trkpt lat="43.01813889294863" lon="13.821397069841623">
        <ele>115.19999694824219</ele>
        <time>2019-03-26T18:57:40.334Z</time>
      </trkpt>
      <trkpt lat="43.01817778497934" lon="13.821062883362174">
        <ele>114.0</ele>
        <time>2019-03-26T18:57:41.109Z</time>
      </trkpt>
      <trkpt lat="43.01822933368385" lon="13.820617301389575">
        <ele>118.4000015258789</ele>
        <time>2019-03-26T18:57:41.891Z</time>
      </trkpt>
      <trkpt lat="43.01827987655997" lon="13.820270458236337">
        <ele>118.80000305175781</ele>
        <time>2019-03-26T18:57:42.679Z</time>
      </trkpt>
      <trkpt lat="43.018340645357966" lon="13.819872569292784">
        <ele>120.80000305175781</ele>
        <time>2019-03-26T18:57:43.474Z</time>
      </trkpt>
      <trkpt lat="43.018328910693526" lon="13.819503849372268">
        <ele>122.80000305175781</ele>
        <time>2019-03-26T18:57:44.276Z</time>
      </trkpt>
      <trkpt lat="43.01833938807249" lon="13.81914091296494">
        <ele>124.80000305175781</ele>
        <time>2019-03-26T18:57:45.084Z</time>
      </trkpt>
      <trkpt lat="43.01835003308952" lon="13.818844696506858">
        <ele>125.5999984741211</ele>
        <time>2019-03-26T18:57:45.897Z</time>
      </trkpt>
      <trkpt lat="43.018351793289185" lon="13.818490393459797">
        <ele>127.0</ele>
        <time>2019-03-26T18:57:46.716Z</time>
      </trkpt>
      <trkpt lat="43.01833880133927" lon="13.81817925721407">
        <ele>129.0</ele>
        <time>2019-03-26T18:57:47.540Z</time>
      </trkpt>
      <trkpt lat="43.01832606084645" lon="13.817885806784034">
        <ele>131.0</ele>
        <time>2019-03-26T18:57:48.369Z</time>
      </trkpt>
      <trkpt lat="43.01832287572324" lon="13.817610125988722">
        <ele>131.0</ele>
        <time>2019-03-26T18:57:49.203Z</time>
      </trkpt>
      <trkpt lat="43.01831239834428" lon="13.817337462678552">
        <ele>133.60000610351562</ele>
        <time>2019-03-26T18:57:50.042Z</time>
      </trkpt>
      <trkpt lat="43.01830518990755" lon="13.817093968391418">
        <ele>135.8000030517578</ele>
        <time>2019-03-26T18:57:50.885Z</time>
      </trkpt>
      <trkpt lat="43.018310302868485" lon="13.816904034465551">
        <ele>137.1999969482422</ele>
        <time>2019-03-26T18:57:51.731Z</time>
      </trkpt>
      <trkpt lat="43.01831390708685" lon="13.816773444414139">
        <ele>136.1999969482422</ele>
        <time>2019-03-26T18:57:52.580Z</time>
      </trkpt>
      <trkpt lat="43.018340561538935" lon="13.816564064472914">
        <ele>137.60000610351562</ele>
        <time>2019-03-26T18:57:53.432Z</time>
      </trkpt>
      <trkpt lat="43.01838590763509" lon="13.816293748095632">
        <ele>139.39999389648438</ele>
        <time>2019-03-26T18:57:54.289Z</time>
      </trkpt>
      <trkpt lat="43.018402168527246" lon="13.816079590469599">
        <ele>140.8000030517578</ele>
        <time>2019-03-26T18:57:55.150Z</time>
      </trkpt>
      <trkpt lat="43.01843594759703" lon="13.81578647531569">
        <ele>143.60000610351562</ele>
        <time>2019-03-26T18:57:56.016Z</time>
      </trkpt>
      <trkpt lat="43.018464948982" lon="13.815540131181479">
        <ele>146.1999969482422</ele>
        <time>2019-03-26T18:57:56.886Z</time>
      </trkpt>
      <trkpt lat="43.01850157789886" lon="13.8152558170259">
        <ele>149.60000610351562</ele>
        <time>2019-03-26T18:57:57.761Z</time>
      </trkpt>
      <trkpt lat="43.0185410566628" lon="13.814973514527082">
        <ele>152.39999389648438</ele>
        <time>2019-03-26T18:57:58.641Z</time>
      </trkpt>
      <trkpt lat="43.018569806590676" lon="13.814752232283354">
        <ele>154.39999389648438</ele>
        <time>2019-03-26T18:57:59.525Z</time>
      </trkpt>
      <trkpt lat="43.01859495230019" lon="13.814543941989541">
        <ele>156.39999389648438</ele>
        <time>2019-03-26T18:58:00.412Z</time>
      </trkpt>
      <trkpt lat="43.01861800253391" lon="13.814365239813924">
        <ele>158.60000610351562</ele>
        <time>2019-03-26T18:58:01.302Z</time>
      </trkpt>
      <trkpt lat="43.01864775829017" lon="13.814186537638307">
        <ele>161.0</ele>
        <time>2019-03-26T18:58:02.196Z</time>
      </trkpt>
      <trkpt lat="43.01866720430553" lon="13.813999956473708">
        <ele>163.0</ele>
        <time>2019-03-26T18:58:03.093Z</time>
      </trkpt>
      <trkpt lat="43.01869100891054" lon="13.8137948513031">
        <ele>165.60000610351562</ele>
        <time>2019-03-26T18:58:03.993Z</time>
      </trkpt>
      <trkpt lat="43.018714897334576" lon="13.813615897670388">
        <ele>168.39999389648438</ele>
        <time>2019-03-26T18:58:04.897Z</time>
      </trkpt>
      <trkpt lat="43.01873476244509" lon="13.813439961522818">
        <ele>171.1999969482422</ele>
        <time>2019-03-26T18:58:05.804Z</time>
      </trkpt>
      <trkpt lat="43.018753454089165" lon="13.813241310417652">
        <ele>174.1999969482422</ele>
        <time>2019-03-26T18:58:06.714Z</time>
      </trkpt>
      <trkpt lat="43.01877717487514" lon="13.81305850110948">
        <ele>177.0</ele>
        <time>2019-03-26T18:58:07.627Z</time>
      </trkpt>
      <trkpt lat="43.01879083737731" lon="13.812874853610992">
        <ele>180.0</ele>
        <time>2019-03-26T18:58:08.543Z</time>
      </trkpt>
      <trkpt lat="43.01881137304008" lon="13.812687853351235">
        <ele>183.0</ele>
        <time>2019-03-26T18:58:09.463Z</time>
      </trkpt>
      <trkpt lat="43.018786730244756" lon="13.812495488673449">
        <ele>184.0</ele>
        <time>2019-03-26T18:58:10.386Z</time>
      </trkpt>
      <trkpt lat="43.018769547343254" lon="13.812262555584311">
        <ele>185.8000030517578</ele>
        <time>2019-03-26T18:58:11.313Z</time>
      </trkpt>
      <trkpt lat="43.018731996417046" lon="13.812003219500184">
        <ele>187.0</ele>
        <time>2019-03-26T18:58:12.244Z</time>
      </trkpt>
      <trkpt lat="43.018643567338586" lon="13.81172795780003">
        <ele>187.8000030517578</ele>
        <time>2019-03-26T18:58:13.181Z</time>
      </trkpt>
      <trkpt lat="43.018480874598026" lon="13.811509776860476">
        <ele>186.1999969482422</ele>
        <time>2019-03-26T18:58:14.123Z</time>
      </trkpt>
      <trkpt lat="43.018325893208385" lon="13.811327051371336">
        <ele>185.39999389648438</ele>
        <time>2019-03-26T18:58:15.070Z</time>
      </trkpt>
      <trkpt lat="43.018148532137275" lon="13.811090933158994">
        <ele>185.39999389648438</ele>
        <time>2019-03-26T18:58:16.023Z</time>
      </trkpt>
      <trkpt lat="43.018002016469836" lon="13.810839392244816">
        <ele>186.0</ele>
        <time>2019-03-26T18:58:16.981Z</time>
      </trkpt>
      <trkpt lat="43.017857093364" lon="13.81053764373064">
        <ele>187.1999969482422</ele>
        <time>2019-03-26T18:58:17.945Z</time>
      </trkpt>
      <trkpt lat="43.01773329265416" lon="13.810227932408452">
        <ele>190.1999969482422</ele>
        <time>2019-03-26T18:58:18.915Z</time>
      </trkpt>
      <trkpt lat="43.017640337347984" lon="13.809966836124659">
        <ele>191.0</ele>
        <time>2019-03-26T18:58:19.890Z</time>
      </trkpt>
      <trkpt lat="43.017554841935635" lon="13.809671709313989">
        <ele>192.39999389648438</ele>
        <time>2019-03-26T18:58:20.871Z</time>
      </trkpt>
      <trkpt lat="43.01744512282312" lon="13.809343557804823">
        <ele>193.60000610351562</ele>
        <time>2019-03-26T18:58:21.858Z</time>
      </trkpt>
      <trkpt lat="43.01729994826019" lon="13.808991769328713">
        <ele>195.0</ele>
        <time>2019-03-26T18:58:22.852Z</time>
      </trkpt>
      <trkpt lat="43.017137087881565" lon="13.808594550937414">
        <ele>197.39999389648438</ele>
        <time>2019-03-26T18:58:23.854Z</time>
      </trkpt>
      <trkpt lat="43.01701555028558" lon="13.80828115157783">
        <ele>197.8000030517578</ele>
        <time>2019-03-26T18:58:24.862Z</time>
      </trkpt>
      <trkpt lat="43.01689920946956" lon="13.807981247082353">
        <ele>197.60000610351562</ele>
        <time>2019-03-26T18:58:25.876Z</time>
      </trkpt>
      <trkpt lat="43.01678613759577" lon="13.80765862762928">
        <ele>198.1999969482422</ele>
        <time>2019-03-26T18:58:26.896Z</time>
      </trkpt>
      <trkpt lat="43.01671707071364" lon="13.807371966540813">
        <ele>199.39999389648438</ele>
        <time>2019-03-26T18:58:27.921Z</time>
      </trkpt>
      <trkpt lat="43.01666535437107" lon="13.807050688192248">
        <ele>202.1999969482422</ele>
        <time>2019-03-26T18:58:28.951Z</time>
      </trkpt>
      <trkpt lat="43.01663585007191" lon="13.806764781475067">
        <ele>204.0</ele>
        <time>2019-03-26T18:58:29.986Z</time>
      </trkpt>
      <trkpt lat="43.01663853228092" lon="13.806497231125832">
        <ele>206.39999389648438</ele>
        <time>2019-03-26T18:58:31.026Z</time>
      </trkpt>
      <trkpt lat="43.016661582514644" lon="13.806262370198965">
        <ele>209.1999969482422</ele>
        <time>2019-03-26T18:58:32.070Z</time>
      </trkpt>
      <trkpt lat="43.01659679040313" lon="13.806041423231363">
        <ele>208.8000030517578</ele>
        <time>2019-03-26T18:58:33.118Z</time>
      </trkpt>
      <trkpt lat="43.01647190004587" lon="13.805770352482796">
        <ele>207.60000610351562</ele>
        <time>2019-03-26T18:58:34.172Z</time>
      </trkpt>
      <trkpt lat="43.01630333997309" lon="13.805300295352936">
        <ele>208.39999389648438</ele>
        <time>2019-03-26T18:58:35.235Z</time>
      </trkpt>
      <trkpt lat="43.01618012599647" lon="13.804914811626077">
        <ele>208.1999969482422</ele>
        <time>2019-03-26T18:58:36.305Z</time>
      </trkpt>
      <trkpt lat="43.01606420427561" lon="13.804583307355642">
        <ele>207.39999389648438</ele>
        <time>2019-03-26T18:58:37.381Z</time>
      </trkpt>
      <trkpt lat="43.0159574188292" lon="13.804337801411748">
        <ele>206.1999969482422</ele>
        <time>2019-03-26T18:58:38.462Z</time>
      </trkpt>
      <trkpt lat="43.015782572329044" lon="13.803939744830132">
        <ele>206.39999389648438</ele>
        <time>2019-03-26T18:58:39.551Z</time>
      </trkpt>
      <trkpt lat="43.015655502676964" lon="13.803567504510283">
        <ele>208.1999969482422</ele>
        <time>2019-03-26T18:58:40.647Z</time>
      </trkpt>
      <trkpt lat="43.015641840174794" lon="13.803501622751355">
        <ele>208.39999389648438</ele>
        <time>2019-03-26T18:58:41.744Z</time>
      </trkpt>
      <trkpt lat="43.0155398324132" lon="13.802950261160731">
        <ele>212.60000610351562</ele>
        <time>2019-03-26T18:58:42.851Z</time>
      </trkpt>
      <trkpt lat="43.01548979245126" lon="13.802651697769761">
        <ele>215.39999389648438</ele>
        <time>2019-03-26T18:58:43.963Z</time>
      </trkpt>
      <trkpt lat="43.01548048853874" lon="13.802605178207159">
        <ele>215.60000610351562</ele>
        <time>2019-03-26T18:58:45.076Z</time>
      </trkpt>
      <trkpt lat="43.01537496037781" lon="13.802159344777465">
        <ele>217.0</ele>
        <time>2019-03-26T18:58:46.197Z</time>
      </trkpt>
      <trkpt lat="43.015278317034245" lon="13.801898835226893">
        <ele>217.1999969482422</ele>
        <time>2019-03-26T18:58:47.323Z</time>
      </trkpt>
      <trkpt lat="43.01514529623091" lon="13.801543107256293">
        <ele>218.39999389648438</ele>
        <time>2019-03-26T18:58:48.456Z</time>
      </trkpt>
      <trkpt lat="43.015061812475324" lon="13.801313359290361">
        <ele>219.39999389648438</ele>
        <time>2019-03-26T18:58:49.593Z</time>
      </trkpt>
      <trkpt lat="43.01498922519386" lon="13.801068272441626">
        <ele>221.8000030517578</ele>
        <time>2019-03-26T18:58:50.735Z</time>
      </trkpt>
      <trkpt lat="43.01494823768735" lon="13.800891330465674">
        <ele>223.0</ele>
        <time>2019-03-26T18:58:51.880Z</time>
      </trkpt>
      <trkpt lat="43.01488478668034" lon="13.80062336102128">
        <ele>226.1999969482422</ele>
        <time>2019-03-26T18:58:53.030Z</time>
      </trkpt>
      <trkpt lat="43.01482225768268" lon="13.800407527014613">
        <ele>228.1999969482422</ele>
        <time>2019-03-26T18:58:54.184Z</time>
      </trkpt>
      <trkpt lat="43.01478051580489" lon="13.800239050760865">
        <ele>230.1999969482422</ele>
        <time>2019-03-26T18:58:55.341Z</time>
      </trkpt>
      <trkpt lat="43.01475637592375" lon="13.800136456266046">
        <ele>231.60000610351562</ele>
        <time>2019-03-26T18:58:56.500Z</time>
      </trkpt>
      <trkpt lat="43.014713041484356" lon="13.800009470432997">
        <ele>233.1999969482422</ele>
        <time>2019-03-26T18:58:57.661Z</time>
      </trkpt>
      <trkpt lat="43.01466283388436" lon="13.799871671944857">
        <ele>234.8000030517578</ele>
        <time>2019-03-26T18:58:58.825Z</time>
      </trkpt>
      <trkpt lat="43.01458521746099" lon="13.799726497381926">
        <ele>235.8000030517578</ele>
        <time>2019-03-26T18:58:59.992Z</time>
      </trkpt>
      <trkpt lat="43.01448446698487" lon="13.799553997814655">
        <ele>237.1999969482422</ele>
        <time>2019-03-26T18:59:01.163Z</time>
      </trkpt>
      <trkpt lat="43.01439670845866" lon="13.799418965354562">
        <ele>238.0</ele>
        <time>2019-03-26T18:59:02.337Z</time>
      </trkpt>
      <trkpt lat="43.014301070943475" lon="13.79929038695991">
        <ele>238.8000030517578</ele>
        <time>2019-03-26T18:59:03.514Z</time>
      </trkpt>
      <trkpt lat="43.01419336348772" lon="13.799120737239718">
        <ele>240.60000610351562</ele>
        <time>2019-03-26T18:59:04.695Z</time>
      </trkpt>
      <trkpt lat="43.01409571431577" lon="13.798992410302162">
        <ele>241.60000610351562</ele>
        <time>2019-03-26T18:59:05.879Z</time>
      </trkpt>
      <trkpt lat="43.014029916375875" lon="13.798904651775956">
        <ele>242.1999969482422</ele>
        <time>2019-03-26T18:59:07.065Z</time>
      </trkpt>
      <trkpt lat="43.01401114091277" lon="13.798887049779296">
        <ele>242.1999969482422</ele>
        <time>2019-03-26T18:59:08.252Z</time>
      </trkpt>
      <trkpt lat="43.01391541957855" lon="13.7987953517586">
        <ele>242.1999969482422</ele>
        <time>2019-03-26T18:59:09.441Z</time>
      </trkpt>
      <trkpt lat="43.013823218643665" lon="13.798677837476134">
        <ele>243.0</ele>
        <time>2019-03-26T18:59:10.633Z</time>
      </trkpt>
      <trkpt lat="43.01369195804" lon="13.79847432486713">
        <ele>245.1999969482422</ele>
        <time>2019-03-26T18:59:11.830Z</time>
      </trkpt>
      <trkpt lat="43.01358793862164" lon="13.798288917168975">
        <ele>248.0</ele>
        <time>2019-03-26T18:59:13.031Z</time>
      </trkpt>
      <trkpt lat="43.01354359835386" lon="13.798177605494857">
        <ele>250.0</ele>
        <time>2019-03-26T18:59:14.234Z</time>
      </trkpt>
      <trkpt lat="43.01346539519727" lon="13.798027988523245">
        <ele>252.39999389648438</ele>
        <time>2019-03-26T18:59:15.440Z</time>
      </trkpt>
      <trkpt lat="43.01336087286472" lon="13.797859847545624">
        <ele>254.8000030517578</ele>
        <time>2019-03-26T18:59:16.650Z</time>
      </trkpt>
      <trkpt lat="43.013290045782924" lon="13.797737723216414">
        <ele>257.0</ele>
        <time>2019-03-26T18:59:17.863Z</time>
      </trkpt>
      <trkpt lat="43.01327873021364" lon="13.797714672982693">
        <ele>257.3999938964844</ele>
        <time>2019-03-26T18:59:19.076Z</time>
      </trkpt>
      <trkpt lat="43.013213602826" lon="13.797623729333282">
        <ele>258.79998779296875</ele>
        <time>2019-03-26T18:59:20.291Z</time>
      </trkpt>
      <trkpt lat="43.01315736025572" lon="13.797554997727275">
        <ele>259.79998779296875</ele>
        <time>2019-03-26T18:59:21.508Z</time>
      </trkpt>
      <trkpt lat="43.01306130364537" lon="13.797468328848481">
        <ele>260.20001220703125</ele>
        <time>2019-03-26T18:59:22.728Z</time>
      </trkpt>
      <trkpt lat="43.012960301712155" lon="13.797351820394397">
        <ele>261.6000061035156</ele>
        <time>2019-03-26T18:59:23.951Z</time>
      </trkpt>
      <trkpt lat="43.012845972552896" lon="13.7972117587924">
        <ele>263.3999938964844</ele>
        <time>2019-03-26T18:59:25.178Z</time>
      </trkpt>
      <trkpt lat="43.012782437726855" lon="13.79714235663414">
        <ele>264.20001220703125</ele>
        <time>2019-03-26T18:59:26.406Z</time>
      </trkpt>
      <trkpt lat="43.01277740858495" lon="13.797124586999416">
        <ele>264.6000061035156</ele>
        <time>2019-03-26T18:59:27.635Z</time>
      </trkpt>
      <trkpt lat="43.012704737484455" lon="13.797069266438484">
        <ele>264.6000061035156</ele>
        <time>2019-03-26T18:59:28.866Z</time>
      </trkpt>
      <trkpt lat="43.012653356418014" lon="13.797015538439155">
        <ele>265.20001220703125</ele>
        <time>2019-03-26T18:59:30.098Z</time>
      </trkpt>
      <trkpt lat="43.01263181492686" lon="13.79698888398707">
        <ele>265.6000061035156</ele>
        <time>2019-03-26T18:59:31.331Z</time>
      </trkpt>
      <trkpt lat="43.01255830563605" lon="13.796891905367374">
        <ele>267.20001220703125</ele>
        <time>2019-03-26T18:59:32.566Z</time>
      </trkpt>
      <trkpt lat="43.01245571114123" lon="13.796766847372055">
        <ele>269.0</ele>
        <time>2019-03-26T18:59:33.804Z</time>
      </trkpt>
      <trkpt lat="43.01236351020634" lon="13.796662157401443">
        <ele>270.3999938964844</ele>
        <time>2019-03-26T18:59:35.045Z</time>
      </trkpt>
      <trkpt lat="43.01227650605142" lon="13.796597700566053">
        <ele>270.6000061035156</ele>
        <time>2019-03-26T18:59:36.289Z</time>
      </trkpt>
      <trkpt lat="43.01212018355727" lon="13.79648320376873">
        <ele>271.0</ele>
        <time>2019-03-26T18:59:37.537Z</time>
      </trkpt>
      <trkpt lat="43.01190225407481" lon="13.796330569311976">
        <ele>271.20001220703125</ele>
        <time>2019-03-26T18:59:38.790Z</time>
      </trkpt>
      <trkpt lat="43.011776357889175" lon="13.796230824664235">
        <ele>271.6000061035156</ele>
        <time>2019-03-26T18:59:40.047Z</time>
      </trkpt>
      <trkpt lat="43.01159715279937" lon="13.796110795810819">
        <ele>271.3999938964844</ele>
        <time>2019-03-26T18:59:41.309Z</time>
      </trkpt>
      <trkpt lat="43.01140604540706" lon="13.79597400315106">
        <ele>271.20001220703125</ele>
        <time>2019-03-26T18:59:42.576Z</time>
      </trkpt>
      <trkpt lat="43.011317532509565" lon="13.795889178290963">
        <ele>271.79998779296875</ele>
        <time>2019-03-26T18:59:43.845Z</time>
      </trkpt>
      <trkpt lat="43.01122114062309" lon="13.795766802504659">
        <ele>273.0</ele>
        <time>2019-03-26T18:59:45.117Z</time>
      </trkpt>
      <trkpt lat="43.01108233630657" lon="13.795572761446238">
        <ele>275.3999938964844</ele>
        <time>2019-03-26T18:59:46.394Z</time>
      </trkpt>
      <trkpt lat="43.010962223634124" lon="13.795368494465947">
        <ele>278.6000061035156</ele>
        <time>2019-03-26T18:59:47.675Z</time>
      </trkpt>
      <trkpt lat="43.01091126166284" lon="13.795151319354773">
        <ele>283.0</ele>
        <time>2019-03-26T18:59:48.960Z</time>
      </trkpt>
      <trkpt lat="43.01084630191326" lon="13.794881254434586">
        <ele>286.3999938964844</ele>
        <time>2019-03-26T18:59:50.250Z</time>
      </trkpt>
      <trkpt lat="43.01076717674732" lon="13.794764829799533">
        <ele>286.20001220703125</ele>
        <time>2019-03-26T18:59:51.543Z</time>
      </trkpt>
      <trkpt lat="43.01064589060843" lon="13.794660558924079">
        <ele>284.79998779296875</ele>
        <time>2019-03-26T18:59:52.839Z</time>
      </trkpt>
      <trkpt lat="43.01054832525551" lon="13.794520078226924">
        <ele>284.6000061035156</ele>
        <time>2019-03-26T18:59:54.139Z</time>
      </trkpt>
      <trkpt lat="43.01051236689091" lon="13.794327965006232">
        <ele>288.0</ele>
        <time>2019-03-26T18:59:55.442Z</time>
      </trkpt>
      <trkpt lat="43.01055444404483" lon="13.794142054393888">
        <ele>294.79998779296875</ele>
        <time>2019-03-26T18:59:56.748Z</time>
      </trkpt>
      <trkpt lat="43.01057062111795" lon="13.793889675289392">
        <ele>300.6000061035156</ele>
        <time>2019-03-26T18:59:58.059Z</time>
      </trkpt>
      <trkpt lat="43.01049409434199" lon="13.793733939528465">
        <ele>302.0</ele>
        <time>2019-03-26T18:59:59.373Z</time>
      </trkpt>
      <trkpt lat="43.01038638688624" lon="13.793657748028636">
        <ele>301.6000061035156</ele>
        <time>2019-03-26T19:00:00.690Z</time>
      </trkpt>
      <trkpt lat="43.010263005271554" lon="13.793623298406601">
        <ele>300.3999938964844</ele>
        <time>2019-03-26T19:00:02.010Z</time>
      </trkpt>
      <trkpt lat="43.01008681766689" lon="13.79354459233582">
        <ele>299.20001220703125</ele>
        <time>2019-03-26T19:00:03.334Z</time>
      </trkpt>
      <trkpt lat="43.009919598698616" lon="13.793410984799266">
        <ele>299.3999938964844</ele>
        <time>2019-03-26T19:00:04.662Z</time>
      </trkpt>
      <trkpt lat="43.00976570695639" lon="13.793271677568555">
        <ele>300.0</ele>
        <time>2019-03-26T19:00:05.995Z</time>
      </trkpt>
      <trkpt lat="43.009594129398465" lon="13.793109068647027">
        <ele>300.79998779296875</ele>
        <time>2019-03-26T19:00:07.333Z</time>
      </trkpt>
      <trkpt lat="43.0093730147928" lon="13.792847553268075">
        <ele>303.79998779296875</ele>
        <time>2019-03-26T19:00:08.678Z</time>
      </trkpt>
      <trkpt lat="43.00920009613037" lon="13.792649321258068">
        <ele>305.20001220703125</ele>
        <time>2019-03-26T19:00:10.028Z</time>
      </trkpt>
      <trkpt lat="43.009065398946404" lon="13.792468439787626">
        <ele>305.6000061035156</ele>
        <time>2019-03-26T19:00:11.382Z</time>
      </trkpt>
      <trkpt lat="43.008952494710684" lon="13.792279595509171">
        <ele>306.0</ele>
        <time>2019-03-26T19:00:12.740Z</time>
      </trkpt>
      <trkpt lat="43.008827939629555" lon="13.792030233889818">
        <ele>306.6000061035156</ele>
        <time>2019-03-26T19:00:14.104Z</time>
      </trkpt>
      <trkpt lat="43.00864839926362" lon="13.791758911684155">
        <ele>306.6000061035156</ele>
        <time>2019-03-26T19:00:15.474Z</time>
      </trkpt>
      <trkpt lat="43.008555360138416" lon="13.791622119024396">
        <ele>306.0</ele>
        <time>2019-03-26T19:00:16.847Z</time>
      </trkpt>
      <trkpt lat="43.00850238651037" lon="13.791464790701866">
        <ele>305.3999938964844</ele>
        <time>2019-03-26T19:00:18.223Z</time>
      </trkpt>
      <trkpt lat="43.008492747321725" lon="13.791385414078832">
        <ele>305.20001220703125</ele>
        <time>2019-03-26T19:00:19.600Z</time>
      </trkpt>
      <trkpt lat="43.00849149003625" lon="13.791362028568983">
        <ele>305.20001220703125</ele>
        <time>2019-03-26T19:00:20.978Z</time>
      </trkpt>
      <trkpt lat="43.00846701487899" lon="13.791224313899875">
        <ele>304.6000061035156</ele>
        <time>2019-03-26T19:00:22.358Z</time>
      </trkpt>
      <trkpt lat="43.00841965712607" lon="13.791153319180012">
        <ele>304.3999938964844</ele>
        <time>2019-03-26T19:00:23.740Z</time>
      </trkpt>
      <trkpt lat="43.00838839262724" lon="13.791125491261482">
        <ele>304.6000061035156</ele>
        <time>2019-03-26T19:00:25.123Z</time>
      </trkpt>
      <trkpt lat="43.0082453135401" lon="13.79108726978302">
        <ele>305.79998779296875</ele>
        <time>2019-03-26T19:00:26.509Z</time>
      </trkpt>
      <trkpt lat="43.008064683526754" lon="13.791130604222417">
        <ele>307.6000061035156</ele>
        <time>2019-03-26T19:00:27.899Z</time>
      </trkpt>
      <trkpt lat="43.007935686036944" lon="13.791041420772672">
        <ele>308.6000061035156</ele>
        <time>2019-03-26T19:00:29.293Z</time>
      </trkpt>
      <trkpt lat="43.00784742459655" lon="13.790875375270844">
        <ele>308.20001220703125</ele>
        <time>2019-03-26T19:00:30.690Z</time>
      </trkpt>
      <trkpt lat="43.00779663026333" lon="13.790736738592386">
        <ele>307.79998779296875</ele>
        <time>2019-03-26T19:00:32.090Z</time>
      </trkpt>
      <trkpt lat="43.007694790139794" lon="13.790559712797403">
        <ele>307.3999938964844</ele>
        <time>2019-03-26T19:00:33.494Z</time>
      </trkpt>
      <trkpt lat="43.00755883567035" lon="13.7904183100909">
        <ele>308.0</ele>
        <time>2019-03-26T19:00:34.902Z</time>
      </trkpt>
      <trkpt lat="43.007410392165184" lon="13.790291910991073">
        <ele>310.20001220703125</ele>
        <time>2019-03-26T19:00:36.314Z</time>
      </trkpt>
      <trkpt lat="43.00725532695651" lon="13.790164338424802">
        <ele>311.79998779296875</ele>
        <time>2019-03-26T19:00:37.730Z</time>
      </trkpt>
      <trkpt lat="43.00710101611912" lon="13.790116477757692">
        <ele>314.0</ele>
        <time>2019-03-26T19:00:39.150Z</time>
      </trkpt>
      <trkpt lat="43.006937988102436" lon="13.790151262655854">
        <ele>318.0</ele>
        <time>2019-03-26T19:00:40.574Z</time>
      </trkpt>
      <trkpt lat="43.006767835468054" lon="13.79019451327622">
        <ele>322.20001220703125</ele>
        <time>2019-03-26T19:00:42.002Z</time>
      </trkpt>
      <trkpt lat="43.00663389265537" lon="13.790197614580393">
        <ele>321.3999938964844</ele>
        <time>2019-03-26T19:00:43.433Z</time>
      </trkpt>
      <trkpt lat="43.006508918479085" lon="13.790146233513951">
        <ele>320.3999938964844</ele>
        <time>2019-03-26T19:00:44.867Z</time>
      </trkpt>
      <trkpt lat="43.006367683410645" lon="13.789997287094593">
        <ele>320.6000061035156</ele>
        <time>2019-03-26T19:00:46.305Z</time>
      </trkpt>
      <trkpt lat="43.00620096735656" lon="13.789736945182085">
        <ele>322.3999938964844</ele>
        <time>2019-03-26T19:00:47.749Z</time>
      </trkpt>
      <trkpt lat="43.00601757131517" lon="13.78945430740714">
        <ele>323.3999938964844</ele>
        <time>2019-03-26T19:00:49.200Z</time>
      </trkpt>
      <trkpt lat="43.00589494407177" lon="13.789179716259241">
        <ele>321.0</ele>
        <time>2019-03-26T19:00:50.656Z</time>
      </trkpt>
      <trkpt lat="43.00572303123772" lon="13.788774032145739">
        <ele>316.0</ele>
        <time>2019-03-26T19:00:52.120Z</time>
      </trkpt>
      <trkpt lat="43.005436370149255" lon="13.788382597267628">
        <ele>315.20001220703125</ele>
        <time>2019-03-26T19:00:53.594Z</time>
      </trkpt>
      <trkpt lat="43.00528063438833" lon="13.788200039416552">
        <ele>317.20001220703125</ele>
        <time>2019-03-26T19:00:55.072Z</time>
      </trkpt>
      <trkpt lat="43.0050487909466" lon="13.787893848493695">
        <ele>319.79998779296875</ele>
        <time>2019-03-26T19:00:56.558Z</time>
      </trkpt>
      <trkpt lat="43.00502414815128" lon="13.787847496569157">
        <ele>319.79998779296875</ele>
        <time>2019-03-26T19:00:58.045Z</time>
      </trkpt>
      <trkpt lat="43.004921302199364" lon="13.78767466172576">
        <ele>319.79998779296875</ele>
        <time>2019-03-26T19:00:59.536Z</time>
      </trkpt>
      <trkpt lat="43.00489188171923" lon="13.787630656734109">
        <ele>319.79998779296875</ele>
        <time>2019-03-26T19:01:01.028Z</time>
      </trkpt>
      <trkpt lat="43.004656098783016" lon="13.78734340891242">
        <ele>319.6000061035156</ele>
        <time>2019-03-26T19:01:02.527Z</time>
      </trkpt>
      <trkpt lat="43.00437002442777" lon="13.787075774744153">
        <ele>318.79998779296875</ele>
        <time>2019-03-26T19:01:04.034Z</time>
      </trkpt>
      <trkpt lat="43.004315122962" lon="13.787011904641986">
        <ele>318.79998779296875</ele>
        <time>2019-03-26T19:01:05.543Z</time>
      </trkpt>
      <trkpt lat="43.00413868390024" lon="13.786807805299759">
        <ele>318.0</ele>
        <time>2019-03-26T19:01:07.057Z</time>
      </trkpt>
      <trkpt lat="43.00370802171528" lon="13.786345208063722">
        <ele>313.79998779296875</ele>
        <time>2019-03-26T19:01:08.584Z</time>
      </trkpt>
      <trkpt lat="43.00363845191896" lon="13.78628552891314">
        <ele>313.20001220703125</ele>
        <time>2019-03-26T19:01:10.113Z</time>
      </trkpt>
      <trkpt lat="43.00322899594903" lon="13.786012614145875">
        <ele>309.6000061035156</ele>
        <time>2019-03-26T19:01:11.653Z</time>
      </trkpt>
      <trkpt lat="43.00270998850465" lon="13.785693012177944">
        <ele>301.20001220703125</ele>
        <time>2019-03-26T19:01:13.206Z</time>
      </trkpt>
      <trkpt lat="43.00218435935676" lon="13.785406854003668">
        <ele>300.6000061035156</ele>
        <time>2019-03-26T19:01:14.772Z</time>
      </trkpt>
      <trkpt lat="43.002030635252595" lon="13.785327561199665">
        <ele>301.20001220703125</ele>
        <time>2019-03-26T19:01:16.342Z</time>
      </trkpt>
      <trkpt lat="43.00180373713374" lon="13.785211639478803">
        <ele>302.20001220703125</ele>
        <time>2019-03-26T19:01:17.918Z</time>
      </trkpt>
      <trkpt lat="43.0015935190022" lon="13.785128993913531">
        <ele>303.6000061035156</ele>
        <time>2019-03-26T19:01:19.499Z</time>
      </trkpt>
      <trkpt lat="43.00138732418418" lon="13.78502631559968">
        <ele>304.3999938964844</ele>
        <time>2019-03-26T19:01:21.085Z</time>
      </trkpt>
      <trkpt lat="43.001153049990535" lon="13.78489782102406">
        <ele>305.20001220703125</ele>
        <time>2019-03-26T19:01:22.677Z</time>
      </trkpt>
      <trkpt lat="43.0008490383625" lon="13.784692883491516">
        <ele>306.79998779296875</ele>
        <time>2019-03-26T19:01:24.277Z</time>
      </trkpt>
      <trkpt lat="43.00066564232111" lon="13.784572100266814">
        <ele>310.6000061035156</ele>
        <time>2019-03-26T19:01:25.882Z</time>
      </trkpt>
      <trkpt lat="43.000519378110766" lon="13.78447168506682">
        <ele>313.6000061035156</ele>
        <time>2019-03-26T19:01:27.490Z</time>
      </trkpt>
      <trkpt lat="43.00036238506436" lon="13.784371018409729">
        <ele>316.79998779296875</ele>
        <time>2019-03-26T19:01:29.102Z</time>
      </trkpt>
      <trkpt lat="43.00019231624901" lon="13.784261215478182">
        <ele>319.79998779296875</ele>
        <time>2019-03-26T19:01:30.719Z</time>
      </trkpt>
      <trkpt lat="43.000017050653696" lon="13.784119645133615">
        <ele>323.0</ele>
        <time>2019-03-26T19:01:32.341Z</time>
      </trkpt>
      <trkpt lat="42.99981504678726" lon="13.783956365659833">
        <ele>327.20001220703125</ele>
        <time>2019-03-26T19:01:33.968Z</time>
      </trkpt>
      <trkpt lat="42.99966970458627" lon="13.783831978216767">
        <ele>330.0</ele>
        <time>2019-03-26T19:01:35.599Z</time>
      </trkpt>
      <trkpt lat="42.99951824359596" lon="13.783692587167025">
        <ele>332.79998779296875</ele>
        <time>2019-03-26T19:01:37.234Z</time>
      </trkpt>
      <trkpt lat="42.999334428459406" lon="13.78355311229825">
        <ele>336.79998779296875</ele>
        <time>2019-03-26T19:01:38.874Z</time>
      </trkpt>
      <trkpt lat="42.99916444346309" lon="13.783483458682895">
        <ele>341.6000061035156</ele>
        <time>2019-03-26T19:01:40.518Z</time>
      </trkpt>
      <trkpt lat="42.99905941821635" lon="13.783471556380391">
        <ele>343.3999938964844</ele>
        <time>2019-03-26T19:01:42.165Z</time>
      </trkpt>
      <trkpt lat="42.998942071571946" lon="13.783462923020124">
        <ele>345.3999938964844</ele>
        <time>2019-03-26T19:01:43.815Z</time>
      </trkpt>
      <trkpt lat="42.998794466257095" lon="13.783449428156018">
        <ele>347.79998779296875</ele>
        <time>2019-03-26T19:01:45.468Z</time>
      </trkpt>
      <trkpt lat="42.99865775741637" lon="13.78340307623148">
        <ele>350.20001220703125</ele>
        <time>2019-03-26T19:01:47.124Z</time>
      </trkpt>
      <trkpt lat="42.998512079939246" lon="13.783346246927977">
        <ele>352.79998779296875</ele>
        <time>2019-03-26T19:01:48.784Z</time>
      </trkpt>
      <trkpt lat="42.99840521067381" lon="13.783308444544673">
        <ele>354.6000061035156</ele>
        <time>2019-03-26T19:01:50.447Z</time>
      </trkpt>
      <trkpt lat="42.998373694717884" lon="13.783291596919298">
        <ele>355.0</ele>
        <time>2019-03-26T19:01:52.110Z</time>
      </trkpt>
      <trkpt lat="42.9983208887279" lon="13.78326871432364">
        <ele>355.3999938964844</ele>
        <time>2019-03-26T19:01:53.775Z</time>
      </trkpt>
      <trkpt lat="42.998205134645104" lon="13.783225463703275">
        <ele>356.6000061035156</ele>
        <time>2019-03-26T19:01:55.442Z</time>
      </trkpt>
      <trkpt lat="42.99805895425379" lon="13.783151535317302">
        <ele>358.0</ele>
        <time>2019-03-26T19:01:57.113Z</time>
      </trkpt>
      <trkpt lat="42.99804235808551" lon="13.783143740147352">
        <ele>358.20001220703125</ele>
        <time>2019-03-26T19:01:58.785Z</time>
      </trkpt>
      <trkpt lat="42.997892908751965" lon="13.783047515898943">
        <ele>359.0</ele>
        <time>2019-03-26T19:02:00.460Z</time>
      </trkpt>
      <trkpt lat="42.99774656072259" lon="13.782939473167062">
        <ele>359.79998779296875</ele>
        <time>2019-03-26T19:02:02.139Z</time>
      </trkpt>
      <trkpt lat="42.99764212220907" lon="13.782833693549037">
        <ele>361.0</ele>
        <time>2019-03-26T19:02:03.821Z</time>
      </trkpt>
      <trkpt lat="42.997552854940295" lon="13.782681478187442">
        <ele>362.79998779296875</ele>
        <time>2019-03-26T19:02:05.507Z</time>
      </trkpt>
      <trkpt lat="42.99745981581509" lon="13.782464638352394">
        <ele>362.79998779296875</ele>
        <time>2019-03-26T19:02:07.197Z</time>
      </trkpt>
      <trkpt lat="42.9973765835166" lon="13.782267244532704">
        <ele>362.6000061035156</ele>
        <time>2019-03-26T19:02:08.891Z</time>
      </trkpt>
      <trkpt lat="42.99727172590792" lon="13.782055852934718">
        <ele>362.3999938964844</ele>
        <time>2019-03-26T19:02:10.589Z</time>
      </trkpt>
      <trkpt lat="42.997148763388395" lon="13.781808922067285">
        <ele>362.79998779296875</ele>
        <time>2019-03-26T19:02:12.292Z</time>
      </trkpt>
      <trkpt lat="42.997025130316615" lon="13.781567858532071">
        <ele>365.20001220703125</ele>
        <time>2019-03-26T19:02:14.000Z</time>
      </trkpt>
      <trkpt lat="42.996920524165034" lon="13.781350934877992">
        <ele>367.20001220703125</ele>
        <time>2019-03-26T19:02:15.713Z</time>
      </trkpt>
      <trkpt lat="42.99683142453432" lon="13.781179441139102">
        <ele>368.79998779296875</ele>
        <time>2019-03-26T19:02:17.429Z</time>
      </trkpt>
      <trkpt lat="42.99674081616104" lon="13.78098732791841">
        <ele>370.0</ele>
        <time>2019-03-26T19:02:19.149Z</time>
      </trkpt>
      <trkpt lat="42.996619027107954" lon="13.780732182785869">
        <ele>370.6000061035156</ele>
        <time>2019-03-26T19:02:20.875Z</time>
      </trkpt>
      <trkpt lat="42.996554151177406" lon="13.780534286051989">
        <ele>371.0</ele>
        <time>2019-03-26T19:02:22.604Z</time>
      </trkpt>
      <trkpt lat="42.996452394872904" lon="13.7801624648273">
        <ele>372.20001220703125</ele>
        <time>2019-03-26T19:02:24.340Z</time>
      </trkpt>
      <trkpt lat="42.99637561663985" lon="13.779885191470385">
        <ele>374.6000061035156</ele>
        <time>2019-03-26T19:02:26.081Z</time>
      </trkpt>
      <trkpt lat="42.99626505933702" lon="13.779644463211298">
        <ele>374.79998779296875</ele>
        <time>2019-03-26T19:02:27.827Z</time>
      </trkpt>
      <trkpt lat="42.99614050425589" lon="13.779421085491776">
        <ele>374.20001220703125</ele>
        <time>2019-03-26T19:02:29.578Z</time>
      </trkpt>
      <trkpt lat="42.996016535907984" lon="13.779210280627012">
        <ele>376.79998779296875</ele>
        <time>2019-03-26T19:02:31.334Z</time>
      </trkpt>
      <trkpt lat="42.99586826004088" lon="13.778960751369596">
        <ele>379.79998779296875</ele>
        <time>2019-03-26T19:02:33.095Z</time>
      </trkpt>
      <trkpt lat="42.99574035219848" lon="13.778762351721525">
        <ele>381.3999938964844</ele>
        <time>2019-03-26T19:02:34.861Z</time>
      </trkpt>
      <trkpt lat="42.995619820430875" lon="13.778542913496494">
        <ele>383.0</ele>
        <time>2019-03-26T19:02:36.631Z</time>
      </trkpt>
      <trkpt lat="42.9955580458045" lon="13.77837904728949">
        <ele>385.20001220703125</ele>
        <time>2019-03-26T19:02:38.404Z</time>
      </trkpt>
      <trkpt lat="42.99543868750334" lon="13.7781903706491">
        <ele>388.6000061035156</ele>
        <time>2019-03-26T19:02:40.182Z</time>
      </trkpt>
      <trkpt lat="42.99538152292371" lon="13.778088698163629">
        <ele>390.20001220703125</ele>
        <time>2019-03-26T19:02:41.962Z</time>
      </trkpt>
      <trkpt lat="42.99537087790668" lon="13.778066150844097">
        <ele>390.6000061035156</ele>
        <time>2019-03-26T19:02:43.742Z</time>
      </trkpt>
      <trkpt lat="42.99529938027263" lon="13.777969591319561">
        <ele>392.6000061035156</ele>
        <time>2019-03-26T19:02:45.525Z</time>
      </trkpt>
      <trkpt lat="42.99525956623256" lon="13.777889208868146">
        <ele>393.79998779296875</ele>
        <time>2019-03-26T19:02:47.309Z</time>
      </trkpt>
      <trkpt lat="42.99524439498782" lon="13.777869427576661">
        <ele>394.0</ele>
        <time>2019-03-26T19:02:49.094Z</time>
      </trkpt>
      <trkpt lat="42.99519293010235" lon="13.77781167626381">
        <ele>395.0</ele>
        <time>2019-03-26T19:02:50.880Z</time>
      </trkpt>
      <trkpt lat="42.99512864090502" lon="13.777736825868487">
        <ele>396.3999938964844</ele>
        <time>2019-03-26T19:02:52.668Z</time>
      </trkpt>
      <trkpt lat="42.99500341527164" lon="13.77763825468719">
        <ele>399.79998779296875</ele>
        <time>2019-03-26T19:02:54.460Z</time>
      </trkpt>
      <trkpt lat="42.99488699063659" lon="13.777533145621419">
        <ele>402.3999938964844</ele>
        <time>2019-03-26T19:02:56.255Z</time>
      </trkpt>
      <trkpt lat="42.994786659255624" lon="13.777405237779021">
        <ele>405.0</ele>
        <time>2019-03-26T19:02:58.053Z</time>
      </trkpt>
      <trkpt lat="42.994698816910386" lon="13.777251010760665">
        <ele>407.0</ele>
        <time>2019-03-26T19:02:59.855Z</time>
      </trkpt>
      <trkpt lat="42.99466235563159" lon="13.777127210050821">
        <ele>407.6000061035156</ele>
        <time>2019-03-26T19:03:01.659Z</time>
      </trkpt>
      <trkpt lat="42.994619105011225" lon="13.776935348287225">
        <ele>408.3999938964844</ele>
        <time>2019-03-26T19:03:03.466Z</time>
      </trkpt>
      <trkpt lat="42.9945307597518" lon="13.77679537050426">
        <ele>410.0</ele>
        <time>2019-03-26T19:03:05.277Z</time>
      </trkpt>
      <trkpt lat="42.994388015940785" lon="13.776700906455517">
        <ele>413.20001220703125</ele>
        <time>2019-03-26T19:03:07.091Z</time>
      </trkpt>
      <trkpt lat="42.9941887781024" lon="13.77667617984116">
        <ele>418.3999938964844</ele>
        <time>2019-03-26T19:03:08.910Z</time>
      </trkpt>
      <trkpt lat="42.99405651167035" lon="13.77672839909792">
        <ele>421.79998779296875</ele>
        <time>2019-03-26T19:03:10.732Z</time>
      </trkpt>
      <trkpt lat="42.99393178895116" lon="13.776770224794745">
        <ele>422.6000061035156</ele>
        <time>2019-03-26T19:03:12.557Z</time>
      </trkpt>
      <trkpt lat="42.99381134100258" lon="13.776730243116617">
        <ele>424.3999938964844</ele>
        <time>2019-03-26T19:03:14.385Z</time>
      </trkpt>
      <trkpt lat="42.9936533421278" lon="13.776620859280229">
        <ele>427.20001220703125</ele>
        <time>2019-03-26T19:03:16.217Z</time>
      </trkpt>
      <trkpt lat="42.993511436507106" lon="13.77653737552464">
        <ele>429.6000061035156</ele>
        <time>2019-03-26T19:03:18.053Z</time>
      </trkpt>
      <trkpt lat="42.993411188945174" lon="13.776461435481906">
        <ele>431.6000061035156</ele>
        <time>2019-03-26T19:03:19.891Z</time>
      </trkpt>
      <trkpt lat="42.99331915564835" lon="13.776375520974398">
        <ele>433.0</ele>
        <time>2019-03-26T19:03:21.732Z</time>
      </trkpt>
      <trkpt lat="42.993216225877404" lon="13.776254402473569">
        <ele>434.79998779296875</ele>
        <time>2019-03-26T19:03:23.576Z</time>
      </trkpt>
      <trkpt lat="42.993125868961215" lon="13.77612884156406">
        <ele>436.3999938964844</ele>
        <time>2019-03-26T19:03:25.423Z</time>
      </trkpt>
      <trkpt lat="42.99302981235087" lon="13.776002274826169">
        <ele>438.0</ele>
        <time>2019-03-26T19:03:27.273Z</time>
      </trkpt>
      <trkpt lat="42.99290710128844" lon="13.77583522349596">
        <ele>439.3999938964844</ele>
        <time>2019-03-26T19:03:29.127Z</time>
      </trkpt>
      <trkpt lat="42.99280568026006" lon="13.77569935284555">
        <ele>440.6000061035156</ele>
        <time>2019-03-26T19:03:30.985Z</time>
      </trkpt>
      <trkpt lat="42.99258825369179" lon="13.775516962632537">
        <ele>442.6000061035156</ele>
        <time>2019-03-26T19:03:32.849Z</time>
      </trkpt>
      <trkpt lat="42.99240586347878" lon="13.775369692593813">
        <ele>440.3999938964844</ele>
        <time>2019-03-26T19:03:34.718Z</time>
      </trkpt>
      <trkpt lat="42.992230262607336" lon="13.7752546928823">
        <ele>438.3999938964844</ele>
        <time>2019-03-26T19:03:36.591Z</time>
      </trkpt>
      <trkpt lat="42.99200462177396" lon="13.77507297322154">
        <ele>435.0</ele>
        <time>2019-03-26T19:03:38.470Z</time>
      </trkpt>
      <trkpt lat="42.99194720573723" lon="13.774920757859945">
        <ele>434.0</ele>
        <time>2019-03-26T19:03:40.352Z</time>
      </trkpt>
      <trkpt lat="42.991946283727884" lon="13.774857725948095">
        <ele>434.0</ele>
        <time>2019-03-26T19:03:42.235Z</time>
      </trkpt>
      <trkpt lat="42.99199623987079" lon="13.774475175887346">
        <ele>434.3999938964844</ele>
        <time>2019-03-26T19:03:44.125Z</time>
      </trkpt>
      <trkpt lat="42.99201878719032" lon="13.774313488975167">
        <ele>435.79998779296875</ele>
        <time>2019-03-26T19:03:46.018Z</time>
      </trkpt>
      <trkpt lat="42.99198970198631" lon="13.774048201739788">
        <ele>442.20001220703125</ele>
        <time>2019-03-26T19:03:47.915Z</time>
      </trkpt>
      <trkpt lat="42.99181066453457" lon="13.77372826449573">
        <ele>448.20001220703125</ele>
        <time>2019-03-26T19:03:49.819Z</time>
      </trkpt>
      <trkpt lat="42.991755763068795" lon="13.773669674992561">
        <ele>449.0</ele>
        <time>2019-03-26T19:03:51.725Z</time>
      </trkpt>
      <trkpt lat="42.99157219938934" lon="13.773467419669032">
        <ele>443.6000061035156</ele>
        <time>2019-03-26T19:03:53.637Z</time>
      </trkpt>
      <trkpt lat="42.99141654744744" lon="13.773274132981896">
        <ele>438.6000061035156</ele>
        <time>2019-03-26T19:03:55.553Z</time>
      </trkpt>
      <trkpt lat="42.99133365042508" lon="13.773117894306779">
        <ele>436.6000061035156</ele>
        <time>2019-03-26T19:03:57.473Z</time>
      </trkpt>
      <trkpt lat="42.99110574647784" lon="13.772640796378255">
        <ele>429.6000061035156</ele>
        <time>2019-03-26T19:03:59.403Z</time>
      </trkpt>
      <trkpt lat="42.99103676341474" lon="13.772473745048046">
        <ele>429.20001220703125</ele>
        <time>2019-03-26T19:04:01.336Z</time>
      </trkpt>
      <trkpt lat="42.99097289331257" lon="13.772230166941881">
        <ele>430.20001220703125</ele>
        <time>2019-03-26T19:04:03.273Z</time>
      </trkpt>
      <trkpt lat="42.99089695326984" lon="13.77178056165576">
        <ele>432.3999938964844</ele>
        <time>2019-03-26T19:04:05.218Z</time>
      </trkpt>
      <trkpt lat="42.990896282717586" lon="13.771712332963943">
        <ele>432.79998779296875</ele>
        <time>2019-03-26T19:04:07.164Z</time>
      </trkpt>
      <trkpt lat="42.990943640470505" lon="13.771259542554617">
        <ele>435.6000061035156</ele>
        <time>2019-03-26T19:04:09.118Z</time>
      </trkpt>
      <trkpt lat="42.99100206233561" lon="13.770830389112234">
        <ele>437.20001220703125</ele>
        <time>2019-03-26T19:04:11.080Z</time>
      </trkpt>
      <trkpt lat="42.99101145006716" lon="13.770742546766996">
        <ele>437.6000061035156</ele>
        <time>2019-03-26T19:04:13.043Z</time>
      </trkpt>
      <trkpt lat="42.99109141342342" lon="13.770134523510933">
        <ele>437.6000061035156</ele>
        <time>2019-03-26T19:04:15.017Z</time>
      </trkpt>
      <trkpt lat="42.991178752854466" lon="13.769456930458546">
        <ele>432.20001220703125</ele>
        <time>2019-03-26T19:04:17.003Z</time>
      </trkpt>
      <trkpt lat="42.99124455079436" lon="13.76912827603519">
        <ele>425.3999938964844</ele>
        <time>2019-03-26T19:04:18.994Z</time>
      </trkpt>
      <trkpt lat="42.99129291437566" lon="13.76902618445456">
        <ele>422.79998779296875</ele>
        <time>2019-03-26T19:04:20.988Z</time>
      </trkpt>
      <trkpt lat="42.99142660573125" lon="13.768898779526353">
        <ele>422.79998779296875</ele>
        <time>2019-03-26T19:04:22.985Z</time>
      </trkpt>
      <trkpt lat="42.99173095263541" lon="13.7687720451504">
        <ele>429.0</ele>
        <time>2019-03-26T19:04:24.990Z</time>
      </trkpt>
      <trkpt lat="42.991932202130556" lon="13.768732314929366">
        <ele>428.3999938964844</ele>
        <time>2019-03-26T19:04:27.000Z</time>
      </trkpt>
      <trkpt lat="42.99205449409783" lon="13.768740445375443">
        <ele>430.6000061035156</ele>
        <time>2019-03-26T19:04:29.012Z</time>
      </trkpt>
      <trkpt lat="42.992157926782966" lon="13.768768357113004">
        <ele>432.20001220703125</ele>
        <time>2019-03-26T19:04:31.027Z</time>
      </trkpt>
      <trkpt lat="42.992200842127204" lon="13.768786462023854">
        <ele>432.6000061035156</ele>
        <time>2019-03-26T19:04:33.043Z</time>
      </trkpt>
      <trkpt lat="42.99228281714022" lon="13.768830299377441">
        <ele>433.3999938964844</ele>
        <time>2019-03-26T19:04:35.061Z</time>
      </trkpt>
      <trkpt lat="42.99252304248512" lon="13.768951250240207">
        <ele>436.0</ele>
        <time>2019-03-26T19:04:37.085Z</time>
      </trkpt>
      <trkpt lat="42.992746168747544" lon="13.76903255470097">
        <ele>438.0</ele>
        <time>2019-03-26T19:04:39.114Z</time>
      </trkpt>
      <trkpt lat="42.992930486798286" lon="13.76905795186758">
        <ele>440.0</ele>
        <time>2019-03-26T19:04:41.148Z</time>
      </trkpt>
      <trkpt lat="42.99316224642098" lon="13.768995003774762">
        <ele>444.79998779296875</ele>
        <time>2019-03-26T19:04:43.187Z</time>
      </trkpt>
      <trkpt lat="42.99340020865202" lon="13.76890447922051">
        <ele>451.6000061035156</ele>
        <time>2019-03-26T19:04:45.232Z</time>
      </trkpt>
      <trkpt lat="42.993749398738146" lon="13.768738266080618">
        <ele>455.0</ele>
        <time>2019-03-26T19:04:47.286Z</time>
      </trkpt>
      <trkpt lat="42.994001945480704" lon="13.768553948029876">
        <ele>456.3999938964844</ele>
        <time>2019-03-26T19:04:49.346Z</time>
      </trkpt>
      <trkpt lat="42.99421769566834" lon="13.768328139558434">
        <ele>460.3999938964844</ele>
        <time>2019-03-26T19:04:51.413Z</time>
      </trkpt>
      <trkpt lat="42.99433110281825" lon="13.768171481788158">
        <ele>462.20001220703125</ele>
        <time>2019-03-26T19:04:53.483Z</time>
      </trkpt>
      <trkpt lat="42.994350381195545" lon="13.76813879236579">
        <ele>462.6000061035156</ele>
        <time>2019-03-26T19:04:55.554Z</time>
      </trkpt>
      <trkpt lat="42.994496896862984" lon="13.76794190146029">
        <ele>464.20001220703125</ele>
        <time>2019-03-26T19:04:57.630Z</time>
      </trkpt>
      <trkpt lat="42.99464860931039" lon="13.767693545669317">
        <ele>461.6000061035156</ele>
        <time>2019-03-26T19:04:59.712Z</time>
      </trkpt>
      <trkpt lat="42.9947567358613" lon="13.767413757741451">
        <ele>458.3999938964844</ele>
        <time>2019-03-26T19:05:01.799Z</time>
      </trkpt>
      <trkpt lat="42.99476947635412" lon="13.76719431951642">
        <ele>458.20001220703125</ele>
        <time>2019-03-26T19:05:03.890Z</time>
      </trkpt>
      <trkpt lat="42.9947395529598" lon="13.766962559893727">
        <ele>459.3999938964844</ele>
        <time>2019-03-26T19:05:05.985Z</time>
      </trkpt>
      <trkpt lat="42.994665540754795" lon="13.766621081158519">
        <ele>460.20001220703125</ele>
        <time>2019-03-26T19:05:08.086Z</time>
      </trkpt>
      <trkpt lat="42.994583984836936" lon="13.766319416463375">
        <ele>461.79998779296875</ele>
        <time>2019-03-26T19:05:10.192Z</time>
      </trkpt>
      <trkpt lat="42.9945220425725" lon="13.766145827248693">
        <ele>464.6000061035156</ele>
        <time>2019-03-26T19:05:12.302Z</time>
      </trkpt>
      <trkpt lat="42.99444291740656" lon="13.765923455357552">
        <ele>466.0</ele>
        <time>2019-03-26T19:05:14.416Z</time>
      </trkpt>
      <trkpt lat="42.99436178058386" lon="13.76563360914588">
        <ele>464.79998779296875</ele>
        <time>2019-03-26T19:05:16.535Z</time>
      </trkpt>
      <trkpt lat="42.99427879974246" lon="13.765310989692807">
        <ele>463.3999938964844</ele>
        <time>2019-03-26T19:05:18.660Z</time>
      </trkpt>
      <trkpt lat="42.9942268319428" lon="13.765031369403005">
        <ele>459.3999938964844</ele>
        <time>2019-03-26T19:05:20.790Z</time>
      </trkpt>
      <trkpt lat="42.99424753524363" lon="13.764739008620381">
        <ele>456.20001220703125</ele>
        <time>2019-03-26T19:05:22.925Z</time>
      </trkpt>
      <trkpt lat="42.99429204314947" lon="13.764397613704205">
        <ele>452.0</ele>
        <time>2019-03-26T19:05:25.066Z</time>
      </trkpt>
      <trkpt lat="42.99435507506132" lon="13.763996036723256">
        <ele>448.20001220703125</ele>
        <time>2019-03-26T19:05:27.214Z</time>
      </trkpt>
      <trkpt lat="42.99441257491708" lon="13.76371725462377">
        <ele>445.79998779296875</ele>
        <time>2019-03-26T19:05:29.367Z</time>
      </trkpt>
      <trkpt lat="42.99447761848569" lon="13.763409638777375">
        <ele>445.79998779296875</ele>
        <time>2019-03-26T19:05:31.526Z</time>
      </trkpt>
      <trkpt lat="42.9945479426533" lon="13.763050977140665">
        <ele>446.3999938964844</ele>
        <time>2019-03-26T19:05:33.691Z</time>
      </trkpt>
      <trkpt lat="42.99466612748802" lon="13.762744953855872">
        <ele>447.79998779296875</ele>
        <time>2019-03-26T19:05:35.862Z</time>
      </trkpt>
      <trkpt lat="42.994769560173154" lon="13.762684855610132">
        <ele>450.6000061035156</ele>
        <time>2019-03-26T19:05:38.036Z</time>
      </trkpt>
      <trkpt lat="42.994777858257294" lon="13.762685945257545">
        <ele>450.79998779296875</ele>
        <time>2019-03-26T19:05:40.210Z</time>
      </trkpt>
      <trkpt lat="42.9947704821825" lon="13.762663146480918">
        <ele>450.3999938964844</ele>
        <time>2019-03-26T19:05:42.384Z</time>
      </trkpt>
      <trkpt lat="42.99477366730571" lon="13.7626847717911">
        <ele>450.6000061035156</ele>
        <time>2019-03-26T19:05:44.559Z</time>
      </trkpt>
      <trkpt lat="42.994829239323735" lon="13.762824665755033">
        <ele>453.20001220703125</ele>
        <time>2019-03-26T19:05:46.736Z</time>
      </trkpt>
      <trkpt lat="42.99490576609969" lon="13.763012923300266">
        <ele>456.79998779296875</ele>
        <time>2019-03-26T19:05:48.917Z</time>
      </trkpt>
      <trkpt lat="42.9950778465718" lon="13.763339146971703">
        <ele>464.3999938964844</ele>
        <time>2019-03-26T19:05:51.105Z</time>
      </trkpt>
      <trkpt lat="42.995227882638574" lon="13.763618096709251">
        <ele>465.0</ele>
        <time>2019-03-26T19:05:53.299Z</time>
      </trkpt>
      <trkpt lat="42.99528060480952" lon="13.763734102249146">
        <ele>465.6000061035156</ele>
        <time>2019-03-26T19:05:55.495Z</time>
      </trkpt>
      <trkpt lat="42.99536249600351" lon="13.763898387551308">
        <ele>466.20001220703125</ele>
        <time>2019-03-26T19:05:57.695Z</time>
      </trkpt>
      <trkpt lat="42.99559509381652" lon="13.764341287314892">
        <ele>467.79998779296875</ele>
        <time>2019-03-26T19:05:59.904Z</time>
      </trkpt>
      <trkpt lat="42.995785949751735" lon="13.764805728569627">
        <ele>469.3999938964844</ele>
        <time>2019-03-26T19:06:02.122Z</time>
      </trkpt>
      <trkpt lat="42.995799193158746" lon="13.764862390235066">
        <ele>469.6000061035156</ele>
        <time>2019-03-26T19:06:04.341Z</time>
      </trkpt>
      <trkpt lat="42.99582936801016" lon="13.764971941709518">
        <ele>470.20001220703125</ele>
        <time>2019-03-26T19:06:06.562Z</time>
      </trkpt>
      <trkpt lat="42.995857782661915" lon="13.765088869258761">
        <ele>470.6000061035156</ele>
        <time>2019-03-26T19:06:08.785Z</time>
      </trkpt>
      <trkpt lat="42.99595543183386" lon="13.765530679374933">
        <ele>468.6000061035156</ele>
        <time>2019-03-26T19:06:11.016Z</time>
      </trkpt>
      <trkpt lat="42.99609071575105" lon="13.766063181683421">
        <ele>464.3999938964844</ele>
        <time>2019-03-26T19:06:13.257Z</time>
      </trkpt>
      <trkpt lat="42.99624050036073" lon="13.766481019556522">
        <ele>463.20001220703125</ele>
        <time>2019-03-26T19:06:15.506Z</time>
      </trkpt>
      <trkpt lat="42.99640126526356" lon="13.767009414732456">
        <ele>458.3999938964844</ele>
        <time>2019-03-26T19:06:17.765Z</time>
      </trkpt>
      <trkpt lat="42.99655666574836" lon="13.767563877627254">
        <ele>455.79998779296875</ele>
        <time>2019-03-26T19:06:20.034Z</time>
      </trkpt>
      <trkpt lat="42.99677526578307" lon="13.76822730526328">
        <ele>450.20001220703125</ele>
        <time>2019-03-26T19:06:22.315Z</time>
      </trkpt>
      <trkpt lat="42.99692421220243" lon="13.768721669912338">
        <ele>444.0</ele>
        <time>2019-03-26T19:06:24.605Z</time>
      </trkpt>
      <trkpt lat="42.997132586315274" lon="13.768932055681944">
        <ele>442.6000061035156</ele>
        <time>2019-03-26T19:06:26.901Z</time>
      </trkpt>
      <trkpt lat="42.99741572700441" lon="13.768960386514664">
        <ele>444.0</ele>
        <time>2019-03-26T19:06:29.204Z</time>
      </trkpt>
      <trkpt lat="42.99771269783378" lon="13.768996512517333">
        <ele>442.20001220703125</ele>
        <time>2019-03-26T19:06:31.514Z</time>
      </trkpt>
      <trkpt lat="42.997852340340614" lon="13.769019730389118">
        <ele>439.3999938964844</ele>
        <time>2019-03-26T19:06:33.827Z</time>
      </trkpt>
      <trkpt lat="42.997879246249795" lon="13.769005229696631">
        <ele>439.20001220703125</ele>
        <time>2019-03-26T19:06:36.141Z</time>
      </trkpt>
      <trkpt lat="42.99797949381173" lon="13.768820744007826">
        <ele>436.6000061035156</ele>
        <time>2019-03-26T19:06:38.459Z</time>
      </trkpt>
      <trkpt lat="42.99802425317466" lon="13.768523605540395">
        <ele>431.6000061035156</ele>
        <time>2019-03-26T19:06:40.782Z</time>
      </trkpt>
      <trkpt lat="42.99802266061306" lon="13.768448838964105">
        <ele>432.0</ele>
        <time>2019-03-26T19:06:43.106Z</time>
      </trkpt>
      <trkpt lat="42.99801486544311" lon="13.768164021894336">
        <ele>433.6000061035156</ele>
        <time>2019-03-26T19:06:45.435Z</time>
      </trkpt>
      <trkpt lat="42.99801427870989" lon="13.767907787114382">
        <ele>431.6000061035156</ele>
        <time>2019-03-26T19:06:47.769Z</time>
      </trkpt>
      <trkpt lat="42.998019475489855" lon="13.767735287547112">
        <ele>429.6000061035156</ele>
        <time>2019-03-26T19:06:50.106Z</time>
      </trkpt>
      <trkpt lat="42.99802500754595" lon="13.7674630433321">
        <ele>427.0</ele>
        <time>2019-03-26T19:06:52.447Z</time>
      </trkpt>
      <trkpt lat="42.99801763147116" lon="13.767373356968164">
        <ele>426.6000061035156</ele>
        <time>2019-03-26T19:06:54.790Z</time>
      </trkpt>
      <trkpt lat="42.99802375026047" lon="13.767280066385865">
        <ele>425.3999938964844</ele>
        <time>2019-03-26T19:06:57.134Z</time>
      </trkpt>
      <trkpt lat="42.998035149648786" lon="13.767031040042639">
        <ele>422.3999938964844</ele>
        <time>2019-03-26T19:06:59.483Z</time>
      </trkpt>
      <trkpt lat="42.99803137779236" lon="13.766868012025952">
        <ele>421.0</ele>
        <time>2019-03-26T19:07:01.835Z</time>
      </trkpt>
      <trkpt lat="42.99798200838268" lon="13.766593169420958">
        <ele>418.6000061035156</ele>
        <time>2019-03-26T19:07:04.191Z</time>
      </trkpt>
      <trkpt lat="42.99789601005614" lon="13.766210032626987">
        <ele>419.20001220703125</ele>
        <time>2019-03-26T19:07:06.554Z</time>
      </trkpt>
      <trkpt lat="42.99788477830589" lon="13.766109365969896">
        <ele>419.79998779296875</ele>
        <time>2019-03-26T19:07:08.919Z</time>
      </trkpt>
      <trkpt lat="42.997859716415405" lon="13.765878276899457">
        <ele>417.3999938964844</ele>
        <time>2019-03-26T19:07:11.288Z</time>
      </trkpt>
      <trkpt lat="42.997837504372" lon="13.765827734023333">
        <ele>417.20001220703125</ele>
        <time>2019-03-26T19:07:13.658Z</time>
      </trkpt>
      <trkpt lat="42.997794169932604" lon="13.765759756788611">
        <ele>417.3999938964844</ele>
        <time>2019-03-26T19:07:16.030Z</time>
      </trkpt>
      <trkpt lat="42.99770565703511" lon="13.765700748190284">
        <ele>419.3999938964844</ele>
        <time>2019-03-26T19:07:18.404Z</time>
      </trkpt>
      <trkpt lat="42.99761605449021" lon="13.765634279698133">
        <ele>421.3999938964844</ele>
        <time>2019-03-26T19:07:20.780Z</time>
      </trkpt>
      <trkpt lat="42.99755738116801" lon="13.765571499243379">
        <ele>422.3999938964844</ele>
        <time>2019-03-26T19:07:23.158Z</time>
      </trkpt>
      <trkpt lat="42.99753877334297" lon="13.765557166188955">
        <ele>422.79998779296875</ele>
        <time>2019-03-26T19:07:25.537Z</time>
      </trkpt>
      <trkpt lat="42.99744464457035" lon="13.76546940766275">
        <ele>424.79998779296875</ele>
        <time>2019-03-26T19:07:27.918Z</time>
      </trkpt>
      <trkpt lat="42.99737582914531" lon="13.76533655449748">
        <ele>424.79998779296875</ele>
        <time>2019-03-26T19:07:30.302Z</time>
      </trkpt>
      <trkpt lat="42.99735680222511" lon="13.765319203957915">
        <ele>425.20001220703125</ele>
        <time>2019-03-26T19:07:32.687Z</time>
      </trkpt>
      <trkpt lat="42.99727658741176" lon="13.765218202024698">
        <ele>426.20001220703125</ele>
        <time>2019-03-26T19:07:35.074Z</time>
      </trkpt>
      <trkpt lat="42.99723635427654" lon="13.765160031616688">
        <ele>427.20001220703125</ele>
        <time>2019-03-26T19:07:37.462Z</time>
      </trkpt>
      <trkpt lat="42.99718262627721" lon="13.765117870643735">
        <ele>428.79998779296875</ele>
        <time>2019-03-26T19:07:39.852Z</time>
      </trkpt>
      <trkpt lat="42.99716695211828" lon="13.76510152593255">
        <ele>429.20001220703125</ele>
        <time>2019-03-26T19:07:42.242Z</time>
      </trkpt>
      <trkpt lat="42.99705622717738" lon="13.765023071318865">
        <ele>432.79998779296875</ele>
        <time>2019-03-26T19:07:44.635Z</time>
      </trkpt>
      <trkpt lat="42.99703326076269" lon="13.765014186501503">
        <ele>433.6000061035156</ele>
        <time>2019-03-26T19:07:47.029Z</time>
      </trkpt>
      <trkpt lat="42.996992440894246" lon="13.764967750757933">
        <ele>434.79998779296875</ele>
        <time>2019-03-26T19:07:49.424Z</time>
      </trkpt>
      <trkpt lat="42.99694684334099" lon="13.76485618762672">
        <ele>435.3999938964844</ele>
        <time>2019-03-26T19:07:51.821Z</time>
      </trkpt>
      <trkpt lat="42.99694575369358" lon="13.764832047745585">
        <ele>435.20001220703125</ele>
        <time>2019-03-26T19:07:54.219Z</time>
      </trkpt>
      <trkpt lat="42.99691800959408" lon="13.764760550111532">
        <ele>435.3999938964844</ele>
        <time>2019-03-26T19:07:56.618Z</time>
      </trkpt>
      <trkpt lat="42.99690904095769" lon="13.764745378866792">
        <ele>435.6000061035156</ele>
        <time>2019-03-26T19:07:59.017Z</time>
      </trkpt>
      <trkpt lat="42.99686034210026" lon="13.764647310599685">
        <ele>436.6000061035156</ele>
        <time>2019-03-26T19:08:01.418Z</time>
      </trkpt>
      <trkpt lat="42.996792113408446" lon="13.764582518488169">
        <ele>438.6000061035156</ele>
        <time>2019-03-26T19:08:03.821Z</time>
      </trkpt>
      <trkpt lat="42.996778367087245" lon="13.764571538195014">
        <ele>439.0</ele>
        <time>2019-03-26T19:08:06.225Z</time>
      </trkpt>
      <trkpt lat="42.99673084169626" lon="13.764526778832078">
        <ele>440.20001220703125</ele>
        <time>2019-03-26T19:08:08.630Z</time>
      </trkpt>
      <trkpt lat="42.99670276232064" lon="13.764511607587337">
        <ele>441.0</ele>
        <time>2019-03-26T19:08:11.036Z</time>
      </trkpt>
      <trkpt lat="42.99669303931296" lon="13.76449660398066">
        <ele>441.20001220703125</ele>
        <time>2019-03-26T19:08:13.442Z</time>
      </trkpt>
      <trkpt lat="42.996669402346015" lon="13.764457795768976">
        <ele>441.3999938964844</ele>
        <time>2019-03-26T19:08:15.849Z</time>
      </trkpt>
      <trkpt lat="42.9966305103153" lon="13.764409348368645">
        <ele>442.20001220703125</ele>
        <time>2019-03-26T19:08:18.257Z</time>
      </trkpt>
      <trkpt lat="42.99662372097373" lon="13.764394093304873">
        <ele>442.20001220703125</ele>
        <time>2019-03-26T19:08:20.666Z</time>
      </trkpt>
      <trkpt lat="42.99661575816572" lon="13.7643788382411">
        <ele>442.3999938964844</ele>
        <time>2019-03-26T19:08:23.075Z</time>
      </trkpt>
      <trkpt lat="42.99657770432532" lon="13.764328211545944">
        <ele>443.0</ele>
        <time>2019-03-26T19:08:25.485Z</time>
      </trkpt>
      <trkpt lat="42.996562868356705" lon="13.76432066783309">
        <ele>443.3999938964844</ele>
        <time>2019-03-26T19:08:27.895Z</time>
      </trkpt>
      <trkpt lat="42.99649807624519" lon="13.764273226261139">
        <ele>444.79998779296875</ele>
        <time>2019-03-26T19:08:30.307Z</time>
      </trkpt>
      <trkpt lat="42.99643227830529" lon="13.764241123571992">
        <ele>446.6000061035156</ele>
        <time>2019-03-26T19:08:32.721Z</time>
      </trkpt>
      <trkpt lat="42.99641668796539" lon="13.764218492433429">
        <ele>446.79998779296875</ele>
        <time>2019-03-26T19:08:35.135Z</time>
      </trkpt>
      <trkpt lat="42.996397661045194" lon="13.764182534068823">
        <ele>447.0</ele>
        <time>2019-03-26T19:08:37.550Z</time>
      </trkpt>
      <trkpt lat="42.99638961441815" lon="13.76415747217834">
        <ele>447.0</ele>
        <time>2019-03-26T19:08:39.966Z</time>
      </trkpt>
      <trkpt lat="42.99636857584119" lon="13.764096200466156">
        <ele>447.0</ele>
        <time>2019-03-26T19:08:42.383Z</time>
      </trkpt>
      <trkpt lat="42.996340580284595" lon="13.764046160504222">
        <ele>447.20001220703125</ele>
        <time>2019-03-26T19:08:44.801Z</time>
      </trkpt>
      <trkpt lat="42.99632121808827" lon="13.763998551294208">
        <ele>447.3999938964844</ele>
        <time>2019-03-26T19:08:47.220Z</time>
      </trkpt>
      <trkpt lat="42.996307807043195" lon="13.7639713101089">
        <ele>447.3999938964844</ele>
        <time>2019-03-26T19:08:49.639Z</time>
      </trkpt>
      <trkpt lat="42.99627536907792" lon="13.763901572674513">
        <ele>447.6000061035156</ele>
        <time>2019-03-26T19:08:52.060Z</time>
      </trkpt>
      <trkpt lat="42.996230190619826" lon="13.763782046735287">
        <ele>449.6000061035156</ele>
        <time>2019-03-26T19:08:54.483Z</time>
      </trkpt>
      <trkpt lat="42.996216863393784" lon="13.76374114304781">
        <ele>450.20001220703125</ele>
        <time>2019-03-26T19:08:56.907Z</time>
      </trkpt>
      <trkpt lat="42.99619649536908" lon="13.76370501704514">
        <ele>450.79998779296875</ele>
        <time>2019-03-26T19:08:59.332Z</time>
      </trkpt>
      <trkpt lat="42.99618291668594" lon="13.76366201788187">
        <ele>451.6000061035156</ele>
        <time>2019-03-26T19:09:01.757Z</time>
      </trkpt>
      <trkpt lat="42.99615567550063" lon="13.763628406450152">
        <ele>452.20001220703125</ele>
        <time>2019-03-26T19:09:04.183Z</time>
      </trkpt>
      <trkpt lat="42.996150059625506" lon="13.763610552996397">
        <ele>452.3999938964844</ele>
        <time>2019-03-26T19:09:06.610Z</time>
      </trkpt>
      <trkpt lat="42.99612390808761" lon="13.763575265184045">
        <ele>453.0</ele>
        <time>2019-03-26T19:09:09.037Z</time>
      </trkpt>
      <trkpt lat="42.996066994965076" lon="13.763492619618773">
        <ele>454.20001220703125</ele>
        <time>2019-03-26T19:09:11.466Z</time>
      </trkpt>
      <trkpt lat="42.996058110147715" lon="13.76349052414298">
        <ele>454.20001220703125</ele>
        <time>2019-03-26T19:09:13.896Z</time>
      </trkpt>
      <trkpt lat="42.99602357670665" lon="13.76345431432128">
        <ele>454.6000061035156</ele>
        <time>2019-03-26T19:09:16.327Z</time>
      </trkpt>
      <trkpt lat="42.99599348567426" lon="13.763362867757678">
        <ele>455.0</ele>
        <time>2019-03-26T19:09:18.759Z</time>
      </trkpt>
      <trkpt lat="42.9960105009377" lon="13.763310899958014">
        <ele>455.20001220703125</ele>
        <time>2019-03-26T19:09:21.192Z</time>
      </trkpt>
      <trkpt lat="42.99601603299379" lon="13.763312827795744">
        <ele>455.20001220703125</ele>
        <time>2019-03-26T19:09:23.625Z</time>
      </trkpt>
      <trkpt lat="42.9960710182786" lon="13.763333950191736">
        <ele>454.6000061035156</ele>
        <time>2019-03-26T19:09:26.060Z</time>
      </trkpt>
      <trkpt lat="42.9961952380836" lon="13.76339371316135">
        <ele>453.6000061035156</ele>
        <time>2019-03-26T19:09:28.498Z</time>
      </trkpt>
      <trkpt lat="42.99638785421848" lon="13.76345532014966">
        <ele>452.0</ele>
        <time>2019-03-26T19:09:30.940Z</time>
      </trkpt>
      <trkpt lat="42.9965113196522" lon="13.763568475842476">
        <ele>450.3999938964844</ele>
        <time>2019-03-26T19:09:33.386Z</time>
      </trkpt>
      <trkpt lat="42.99655498936772" lon="13.763622622936964">
        <ele>449.3999938964844</ele>
        <time>2019-03-26T19:09:35.833Z</time>
      </trkpt>
      <trkpt lat="42.99680267460644" lon="13.76390291377902">
        <ele>443.6000061035156</ele>
        <time>2019-03-26T19:09:38.288Z</time>
      </trkpt>
      <trkpt lat="42.99703820608556" lon="13.764049932360649">
        <ele>438.79998779296875</ele>
        <time>2019-03-26T19:09:40.749Z</time>
      </trkpt>
      <trkpt lat="42.99708531238139" lon="13.764076670631766">
        <ele>438.0</ele>
        <time>2019-03-26T19:09:43.211Z</time>
      </trkpt>
      <trkpt lat="42.99716862849891" lon="13.764117741957307">
        <ele>436.3999938964844</ele>
        <time>2019-03-26T19:09:45.675Z</time>
      </trkpt>
      <trkpt lat="42.99726728349924" lon="13.764144061133265">
        <ele>434.79998779296875</ele>
        <time>2019-03-26T19:09:48.142Z</time>
      </trkpt>
      <trkpt lat="42.99731371924281" lon="13.764149593189359">
        <ele>434.20001220703125</ele>
        <time>2019-03-26T19:09:50.610Z</time>
      </trkpt>
      <trkpt lat="42.99746316857636" lon="13.764177924022079">
        <ele>433.3999938964844</ele>
        <time>2019-03-26T19:09:53.081Z</time>
      </trkpt>
      <trkpt lat="42.99749485217035" lon="13.764178846031427">
        <ele>433.6000061035156</ele>
        <time>2019-03-26T19:09:55.553Z</time>
      </trkpt>
      <trkpt lat="42.997646145522594" lon="13.76411103643477">
        <ele>436.20001220703125</ele>
        <time>2019-03-26T19:09:58.029Z</time>
      </trkpt>
      <trkpt lat="42.99783322960138" lon="13.763892771676183">
        <ele>443.20001220703125</ele>
        <time>2019-03-26T19:10:00.510Z</time>
      </trkpt>
      <trkpt lat="42.99804034642875" lon="13.763580545783043">
        <ele>449.0</ele>
        <time>2019-03-26T19:10:02.999Z</time>
      </trkpt>
      <trkpt lat="42.99819943495095" lon="13.763377536088228">
        <ele>451.79998779296875</ele>
        <time>2019-03-26T19:10:05.493Z</time>
      </trkpt>
      <trkpt lat="42.99828224815428" lon="13.763262117281556">
        <ele>452.0</ele>
        <time>2019-03-26T19:10:07.989Z</time>
      </trkpt>
      <trkpt lat="42.99827478826046" lon="13.763116858899593">
        <ele>453.3999938964844</ele>
        <time>2019-03-26T19:10:10.488Z</time>
      </trkpt>
      <trkpt lat="42.99825852736831" lon="13.762933379039168">
        <ele>455.6000061035156</ele>
        <time>2019-03-26T19:10:12.990Z</time>
      </trkpt>
      <trkpt lat="42.99825810827315" lon="13.762645879760385">
        <ele>458.3999938964844</ele>
        <time>2019-03-26T19:10:15.497Z</time>
      </trkpt>
      <trkpt lat="42.99826598726213" lon="13.762487964704633">
        <ele>460.20001220703125</ele>
        <time>2019-03-26T19:10:18.007Z</time>
      </trkpt>
      <trkpt lat="42.99826322123408" lon="13.76231286674738">
        <ele>462.3999938964844</ele>
        <time>2019-03-26T19:10:20.520Z</time>
      </trkpt>
      <trkpt lat="42.998232040554285" lon="13.762204824015498">
        <ele>464.3999938964844</ele>
        <time>2019-03-26T19:10:23.035Z</time>
      </trkpt>
      <trkpt lat="42.99818241968751" lon="13.762041041627526">
        <ele>467.20001220703125</ele>
        <time>2019-03-26T19:10:25.553Z</time>
      </trkpt>
      <trkpt lat="42.99814076162875" lon="13.761909864842892">
        <ele>469.6000061035156</ele>
        <time>2019-03-26T19:10:28.073Z</time>
      </trkpt>
      <trkpt lat="42.99810086376965" lon="13.761820765212178">
        <ele>470.79998779296875</ele>
        <time>2019-03-26T19:10:30.595Z</time>
      </trkpt>
      <trkpt lat="42.99806113354862" lon="13.761754464358091">
        <ele>471.79998779296875</ele>
        <time>2019-03-26T19:10:33.119Z</time>
      </trkpt>
      <trkpt lat="42.99803431145847" lon="13.761722361668944">
        <ele>472.20001220703125</ele>
        <time>2019-03-26T19:10:35.643Z</time>
      </trkpt>
      <trkpt lat="42.998016122728586" lon="13.761705430224538">
        <ele>472.6000061035156</ele>
        <time>2019-03-26T19:10:38.168Z</time>
      </trkpt>
      <trkpt lat="42.99798594787717" lon="13.761654049158096">
        <ele>473.20001220703125</ele>
        <time>2019-03-26T19:10:40.694Z</time>
      </trkpt>
      <trkpt lat="42.997964825481176" lon="13.761630160734057">
        <ele>473.6000061035156</ele>
        <time>2019-03-26T19:10:43.221Z</time>
      </trkpt>
      <trkpt lat="42.99791939556599" lon="13.761570900678635">
        <ele>474.6000061035156</ele>
        <time>2019-03-26T19:10:45.749Z</time>
      </trkpt>
      <trkpt lat="42.99790782853961" lon="13.761544078588486">
        <ele>475.0</ele>
        <time>2019-03-26T19:10:48.278Z</time>
      </trkpt>
      <trkpt lat="42.99788838252425" lon="13.761509880423546">
        <ele>475.3999938964844</ele>
        <time>2019-03-26T19:10:50.807Z</time>
      </trkpt>
      <trkpt lat="42.99784194678068" lon="13.761437041684985">
        <ele>476.3999938964844</ele>
        <time>2019-03-26T19:10:53.338Z</time>
      </trkpt>
      <trkpt lat="42.99782736226916" lon="13.761391025036573">
        <ele>476.79998779296875</ele>
        <time>2019-03-26T19:10:55.870Z</time>
      </trkpt>
      <trkpt lat="42.99781294539571" lon="13.761350037530065">
        <ele>477.20001220703125</ele>
        <time>2019-03-26T19:10:58.403Z</time>
      </trkpt>
      <trkpt lat="42.997784446924925" lon="13.761293543502688">
        <ele>478.0</ele>
        <time>2019-03-26T19:11:00.937Z</time>
      </trkpt>
      <trkpt lat="42.99776273779571" lon="13.761259261518717">
        <ele>478.3999938964844</ele>
        <time>2019-03-26T19:11:03.472Z</time>
      </trkpt>
      <trkpt lat="42.997749745845795" lon="13.76123646274209">
        <ele>478.6000061035156</ele>
        <time>2019-03-26T19:11:06.007Z</time>
      </trkpt>
      <trkpt lat="42.997740944847465" lon="13.761228080838919">
        <ele>478.79998779296875</ele>
        <time>2019-03-26T19:11:08.542Z</time>
      </trkpt>
      <trkpt lat="42.99773884937167" lon="13.761215005069971">
        <ele>479.0</ele>
        <time>2019-03-26T19:11:11.078Z</time>
      </trkpt>
      <trkpt lat="42.99771336838603" lon="13.761175274848938">
        <ele>479.3999938964844</ele>
        <time>2019-03-26T19:11:13.615Z</time>
      </trkpt>
      <trkpt lat="42.997688641771674" lon="13.76111425459385">
        <ele>480.6000061035156</ele>
        <time>2019-03-26T19:11:16.153Z</time>
      </trkpt>
      <trkpt lat="42.99767028540373" lon="13.761038230732083">
        <ele>482.0</ele>
        <time>2019-03-26T19:11:18.692Z</time>
      </trkpt>
      <trkpt lat="42.99766642972827" lon="13.761015012860298">
        <ele>482.3999938964844</ele>
        <time>2019-03-26T19:11:21.231Z</time>
      </trkpt>
      <trkpt lat="42.99765913747251" lon="13.76099263317883">
        <ele>482.79998779296875</ele>
        <time>2019-03-26T19:11:23.771Z</time>
      </trkpt>
      <trkpt lat="42.99766341224313" lon="13.76096623018384">
        <ele>483.20001220703125</ele>
        <time>2019-03-26T19:11:26.311Z</time>
      </trkpt>
      <trkpt lat="42.99770439974964" lon="13.760932870209217">
        <ele>483.79998779296875</ele>
        <time>2019-03-26T19:11:28.852Z</time>
      </trkpt>
      <trkpt lat="42.997757541015744" lon="13.760941419750452">
        <ele>483.6000061035156</ele>
        <time>2019-03-26T19:11:31.395Z</time>
      </trkpt>
      <trkpt lat="42.99780389294028" lon="13.760941587388515">
        <ele>483.6000061035156</ele>
        <time>2019-03-26T19:11:33.939Z</time>
      </trkpt>
      <trkpt lat="42.997911516577005" lon="13.760946532711387">
        <ele>483.6000061035156</ele>
        <time>2019-03-26T19:11:36.485Z</time>
      </trkpt>
      <trkpt lat="42.99794605001807" lon="13.760958854109049">
        <ele>483.3999938964844</ele>
        <time>2019-03-26T19:11:39.032Z</time>
      </trkpt>
      <trkpt lat="42.99804328009486" lon="13.761014929041266">
        <ele>482.3999938964844</ele>
        <time>2019-03-26T19:11:41.582Z</time>
      </trkpt>
      <trkpt lat="42.998255509883165" lon="13.761100759729743">
        <ele>481.0</ele>
        <time>2019-03-26T19:11:44.137Z</time>
      </trkpt>
      <trkpt lat="42.99842515960336" lon="13.761199163272977">
        <ele>479.20001220703125</ele>
        <time>2019-03-26T19:11:46.696Z</time>
      </trkpt>
      <trkpt lat="42.99850923009217" lon="13.761251969262958">
        <ele>479.79998779296875</ele>
        <time>2019-03-26T19:11:49.257Z</time>
      </trkpt>
      <trkpt lat="42.99863068386912" lon="13.761354396119714">
        <ele>480.3999938964844</ele>
        <time>2019-03-26T19:11:51.822Z</time>
      </trkpt>
      <trkpt lat="42.99868826754391" lon="13.761429749429226">
        <ele>480.20001220703125</ele>
        <time>2019-03-26T19:11:54.389Z</time>
      </trkpt>
      <trkpt lat="42.99888230860233" lon="13.761750608682632">
        <ele>478.0</ele>
        <time>2019-03-26T19:11:56.963Z</time>
      </trkpt>
      <trkpt lat="42.998906364664435" lon="13.76179494895041">
        <ele>477.6000061035156</ele>
        <time>2019-03-26T19:11:59.538Z</time>
      </trkpt>
      <trkpt lat="42.998953806236386" lon="13.76193668693304">
        <ele>476.3999938964844</ele>
        <time>2019-03-26T19:12:02.115Z</time>
      </trkpt>
      <trkpt lat="42.99897098913789" lon="13.761977842077613">
        <ele>476.3999938964844</ele>
        <time>2019-03-26T19:12:04.693Z</time>
      </trkpt>
      <trkpt lat="42.998990854248405" lon="13.762007765471935">
        <ele>476.6000061035156</ele>
        <time>2019-03-26T19:12:07.272Z</time>
      </trkpt>
      <trkpt lat="42.99902320839465" lon="13.76207641325891">
        <ele>476.6000061035156</ele>
        <time>2019-03-26T19:12:09.852Z</time>
      </trkpt>
      <trkpt lat="42.99907919950783" lon="13.762150509282947">
        <ele>477.20001220703125</ele>
        <time>2019-03-26T19:12:12.434Z</time>
      </trkpt>
      <trkpt lat="42.99909856170416" lon="13.762196945026517">
        <ele>477.20001220703125</ele>
        <time>2019-03-26T19:12:15.017Z</time>
      </trkpt>
      <trkpt lat="42.99914047122002" lon="13.762328876182437">
        <ele>477.0</ele>
        <time>2019-03-26T19:12:17.602Z</time>
      </trkpt>
      <trkpt lat="42.99917274154723" lon="13.762357290834188">
        <ele>477.3999938964844</ele>
        <time>2019-03-26T19:12:20.188Z</time>
      </trkpt>
      <trkpt lat="42.9991895891726" lon="13.76236466690898">
        <ele>477.6000061035156</ele>
        <time>2019-03-26T19:12:22.775Z</time>
      </trkpt>
      <trkpt lat="42.99925982952118" lon="13.762461058795452">
        <ele>478.20001220703125</ele>
        <time>2019-03-26T19:12:25.364Z</time>
      </trkpt>
      <trkpt lat="42.99928463995457" lon="13.762481175363064">
        <ele>478.6000061035156</ele>
        <time>2019-03-26T19:12:27.954Z</time>
      </trkpt>
      <trkpt lat="42.999363178387284" lon="13.762539513409138">
        <ele>479.6000061035156</ele>
        <time>2019-03-26T19:12:30.546Z</time>
      </trkpt>
      <trkpt lat="42.99945085309446" lon="13.762666750699282">
        <ele>480.20001220703125</ele>
        <time>2019-03-26T19:12:33.141Z</time>
      </trkpt>
      <trkpt lat="42.99948966130614" lon="13.762729614973068">
        <ele>480.3999938964844</ele>
        <time>2019-03-26T19:12:35.737Z</time>
      </trkpt>
      <trkpt lat="42.99950575456023" lon="13.762760628014803">
        <ele>480.20001220703125</ele>
        <time>2019-03-26T19:12:38.334Z</time>
      </trkpt>
      <trkpt lat="42.99953215755522" lon="13.762810584157705">
        <ele>480.0</ele>
        <time>2019-03-26T19:12:40.932Z</time>
      </trkpt>
      <trkpt lat="42.999557135626674" lon="13.76283086836338">
        <ele>480.3999938964844</ele>
        <time>2019-03-26T19:12:43.531Z</time>
      </trkpt>
      <trkpt lat="42.999666351825" lon="13.762942431494594">
        <ele>481.0</ele>
        <time>2019-03-26T19:12:46.133Z</time>
      </trkpt>
      <trkpt lat="42.99982049502432" lon="13.763098753988743">
        <ele>481.79998779296875</ele>
        <time>2019-03-26T19:12:48.739Z</time>
      </trkpt>
      <trkpt lat="42.99987321719527" lon="13.7632046174258">
        <ele>481.3999938964844</ele>
        <time>2019-03-26T19:12:51.347Z</time>
      </trkpt>
      <trkpt lat="42.999935410916805" lon="13.763309810310602">
        <ele>481.20001220703125</ele>
        <time>2019-03-26T19:12:53.958Z</time>
      </trkpt>
      <trkpt lat="43.00005342811346" lon="13.763436209410429">
        <ele>481.79998779296875</ele>
        <time>2019-03-26T19:12:56.572Z</time>
      </trkpt>
      <trkpt lat="43.00011243671179" lon="13.763478035107255">
        <ele>482.0</ele>
        <time>2019-03-26T19:12:59.188Z</time>
      </trkpt>
      <trkpt lat="43.00013925880194" lon="13.763505443930626">
        <ele>481.6000061035156</ele>
        <time>2019-03-26T19:13:01.805Z</time>
      </trkpt>
      <trkpt lat="43.0001965072006" lon="13.76358088105917">
        <ele>480.3999938964844</ele>
        <time>2019-03-26T19:13:04.423Z</time>
      </trkpt>
      <trkpt lat="43.00035065039992" lon="13.763639470562339">
        <ele>479.20001220703125</ele>
        <time>2019-03-26T19:13:07.045Z</time>
      </trkpt>
      <trkpt lat="43.000415274873376" lon="13.763643158599734">
        <ele>479.20001220703125</ele>
        <time>2019-03-26T19:13:09.669Z</time>
      </trkpt>
      <trkpt lat="43.000474870204926" lon="13.76363611780107">
        <ele>479.3999938964844</ele>
        <time>2019-03-26T19:13:12.294Z</time>
      </trkpt>
      <trkpt lat="43.000555001199245" lon="13.763623964041471">
        <ele>479.79998779296875</ele>
        <time>2019-03-26T19:13:14.921Z</time>
      </trkpt>
      <trkpt lat="43.00061417743564" lon="13.763550454750657">
        <ele>481.6000061035156</ele>
        <time>2019-03-26T19:13:17.550Z</time>
      </trkpt>
      <trkpt lat="43.00061786547303" lon="13.763496223837137">
        <ele>482.20001220703125</ele>
        <time>2019-03-26T19:13:20.180Z</time>
      </trkpt>
      <trkpt lat="43.00064468756318" lon="13.763446770608425">
        <ele>483.0</ele>
        <time>2019-03-26T19:13:22.811Z</time>
      </trkpt>
      <trkpt lat="43.00065876916051" lon="13.763438891619444">
        <ele>483.0</ele>
        <time>2019-03-26T19:13:25.442Z</time>
      </trkpt>
      <trkpt lat="43.00067452713847" lon="13.763420367613435">
        <ele>483.3999938964844</ele>
        <time>2019-03-26T19:13:28.074Z</time>
      </trkpt>
      <trkpt lat="43.00068927928805" lon="13.763395976275206">
        <ele>483.6000061035156</ele>
        <time>2019-03-26T19:13:30.706Z</time>
      </trkpt>
      <trkpt lat="43.0007523111999" lon="13.763315258547664">
        <ele>484.3999938964844</ele>
        <time>2019-03-26T19:13:33.340Z</time>
      </trkpt>
      <trkpt lat="43.00077603198588" lon="13.763290783390403">
        <ele>484.6000061035156</ele>
        <time>2019-03-26T19:13:35.975Z</time>
      </trkpt>
      <trkpt lat="43.000918524339795" lon="13.763108141720295">
        <ele>485.20001220703125</ele>
        <time>2019-03-26T19:13:38.615Z</time>
      </trkpt>
      <trkpt lat="43.00100712105632" lon="13.763042343780398">
        <ele>485.79998779296875</ele>
        <time>2019-03-26T19:13:41.257Z</time>
      </trkpt>
      <trkpt lat="43.001040229573846" lon="13.763031950220466">
        <ele>485.79998779296875</ele>
        <time>2019-03-26T19:13:43.900Z</time>
      </trkpt>
      <trkpt lat="43.0012082029134" lon="13.76302876509726">
        <ele>486.0</ele>
        <time>2019-03-26T19:13:46.547Z</time>
      </trkpt>
      <trkpt lat="43.001348515972495" lon="13.763030357658863">
        <ele>484.3999938964844</ele>
        <time>2019-03-26T19:13:49.197Z</time>
      </trkpt>
      <trkpt lat="43.00139629282057" lon="13.762984089553356">
        <ele>483.20001220703125</ele>
        <time>2019-03-26T19:13:51.848Z</time>
      </trkpt>
      <trkpt lat="43.001451613381505" lon="13.763063298538327">
        <ele>483.0</ele>
        <time>2019-03-26T19:13:54.501Z</time>
      </trkpt>
      <trkpt lat="43.00159905105829" lon="13.763241916894913">
        <ele>482.3999938964844</ele>
        <time>2019-03-26T19:13:57.159Z</time>
      </trkpt>
      <trkpt lat="43.00178864970803" lon="13.763408130034804">
        <ele>481.0</ele>
        <time>2019-03-26T19:13:59.822Z</time>
      </trkpt>
      <trkpt lat="43.00182184204459" lon="13.763452302664518">
        <ele>480.79998779296875</ele>
        <time>2019-03-26T19:14:02.486Z</time>
      </trkpt>
      <trkpt lat="43.001969028264284" lon="13.763647181913257">
        <ele>480.20001220703125</ele>
        <time>2019-03-26T19:14:05.155Z</time>
      </trkpt>
      <trkpt lat="43.00200515426695" lon="13.763701245188713">
        <ele>480.3999938964844</ele>
        <time>2019-03-26T19:14:07.825Z</time>
      </trkpt>
      <trkpt lat="43.00203231163323" lon="13.763762097805738">
        <ele>480.79998779296875</ele>
        <time>2019-03-26T19:14:10.496Z</time>
      </trkpt>
      <trkpt lat="43.002134235575795" lon="13.763941135257483">
        <ele>481.0</ele>
        <time>2019-03-26T19:14:13.171Z</time>
      </trkpt>
      <trkpt lat="43.00229474902153" lon="13.764244811609387">
        <ele>478.0</ele>
        <time>2019-03-26T19:14:15.853Z</time>
      </trkpt>
      <trkpt lat="43.0023586191237" lon="13.764363499358296">
        <ele>476.79998779296875</ele>
        <time>2019-03-26T19:14:18.537Z</time>
      </trkpt>
      <trkpt lat="43.00250597298145" lon="13.764664493501186">
        <ele>475.79998779296875</ele>
        <time>2019-03-26T19:14:21.227Z</time>
      </trkpt>
      <trkpt lat="43.00257311202586" lon="13.764781672507524">
        <ele>475.3999938964844</ele>
        <time>2019-03-26T19:14:23.920Z</time>
      </trkpt>
      <trkpt lat="43.0026208050549" lon="13.764844285324216">
        <ele>474.20001220703125</ele>
        <time>2019-03-26T19:14:26.615Z</time>
      </trkpt>
      <trkpt lat="43.002743599936366" lon="13.764898013323545">
        <ele>470.3999938964844</ele>
        <time>2019-03-26T19:14:29.313Z</time>
      </trkpt>
      <trkpt lat="43.00294250249863" lon="13.764769770205021">
        <ele>466.20001220703125</ele>
        <time>2019-03-26T19:14:32.016Z</time>
      </trkpt>
      <trkpt lat="43.002984412014484" lon="13.764578243717551">
        <ele>467.79998779296875</ele>
        <time>2019-03-26T19:14:34.722Z</time>
      </trkpt>
      <trkpt lat="43.00289371982217" lon="13.764250008389354">
        <ele>470.3999938964844</ele>
        <time>2019-03-26T19:14:37.434Z</time>
      </trkpt>
      <trkpt lat="43.00282339565456" lon="13.764053033664823">
        <ele>469.20001220703125</ele>
        <time>2019-03-26T19:14:40.150Z</time>
      </trkpt>
      <trkpt lat="43.00278877839446" lon="13.763925964012742">
        <ele>468.0</ele>
        <time>2019-03-26T19:14:42.868Z</time>
      </trkpt>
      <trkpt lat="43.002784587442875" lon="13.763875002041459">
        <ele>467.3999938964844</ele>
        <time>2019-03-26T19:14:45.587Z</time>
      </trkpt>
      <trkpt lat="43.002806548029184" lon="13.76378707587719">
        <ele>465.6000061035156</ele>
        <time>2019-03-26T19:14:48.308Z</time>
      </trkpt>
      <trkpt lat="43.00277452915907" lon="13.763625640422106">
        <ele>464.20001220703125</ele>
        <time>2019-03-26T19:14:51.032Z</time>
      </trkpt>
      <trkpt lat="43.00266992300749" lon="13.763457164168358">
        <ele>462.79998779296875</ele>
        <time>2019-03-26T19:14:53.759Z</time>
      </trkpt>
      <trkpt lat="43.00252743065357" lon="13.763320371508598">
        <ele>463.0</ele>
        <time>2019-03-26T19:14:56.490Z</time>
      </trkpt>
      <trkpt lat="43.002253007143736" lon="13.763091545552015">
        <ele>466.79998779296875</ele>
        <time>2019-03-26T19:14:59.229Z</time>
      </trkpt>
      <trkpt lat="43.0020060762763" lon="13.762875627726316">
        <ele>470.0</ele>
        <time>2019-03-26T19:15:01.975Z</time>
      </trkpt>
      <trkpt lat="43.00172612071037" lon="13.76262467354536">
        <ele>472.6000061035156</ele>
        <time>2019-03-26T19:15:04.729Z</time>
      </trkpt>
      <trkpt lat="43.0015052575618" lon="13.762428285554051">
        <ele>472.3999938964844</ele>
        <time>2019-03-26T19:15:07.489Z</time>
      </trkpt>
      <trkpt lat="43.00134147517383" lon="13.762294761836529">
        <ele>472.79998779296875</ele>
        <time>2019-03-26T19:15:10.253Z</time>
      </trkpt>
      <trkpt lat="43.00112538971007" lon="13.762090913951397">
        <ele>472.20001220703125</ele>
        <time>2019-03-26T19:15:13.023Z</time>
      </trkpt>
      <trkpt lat="43.00089589320123" lon="13.761931071057916">
        <ele>472.6000061035156</ele>
        <time>2019-03-26T19:15:15.799Z</time>
      </trkpt>
      <trkpt lat="43.00068232230842" lon="13.761878432705998">
        <ele>475.6000061035156</ele>
        <time>2019-03-26T19:15:18.580Z</time>
      </trkpt>
      <trkpt lat="43.00040798261762" lon="13.761797798797488">
        <ele>477.79998779296875</ele>
        <time>2019-03-26T19:15:21.368Z</time>
      </trkpt>
      <trkpt lat="43.0002760514617" lon="13.761731078848243">
        <ele>477.79998779296875</ele>
        <time>2019-03-26T19:15:24.159Z</time>
      </trkpt>
      <trkpt lat="43.00010078586638" lon="13.761596465483308">
        <ele>476.20001220703125</ele>
        <time>2019-03-26T19:15:26.955Z</time>
      </trkpt>
      <trkpt lat="42.999893333762884" lon="13.761311899870634">
        <ele>471.6000061035156</ele>
        <time>2019-03-26T19:15:29.758Z</time>
      </trkpt>
      <trkpt lat="42.99985217861831" lon="13.7612066231668">
        <ele>469.0</ele>
        <time>2019-03-26T19:15:32.563Z</time>
      </trkpt>
      <trkpt lat="42.99983407370746" lon="13.761158427223563">
        <ele>467.79998779296875</ele>
        <time>2019-03-26T19:15:35.369Z</time>
      </trkpt>
      <trkpt lat="42.999831307679415" lon="13.761149626225233">
        <ele>467.6000061035156</ele>
        <time>2019-03-26T19:15:38.175Z</time>
      </trkpt>
      <trkpt lat="42.99981295131147" lon="13.761140825226903">
        <ele>467.79998779296875</ele>
        <time>2019-03-26T19:15:40.982Z</time>
      </trkpt>
      <trkpt lat="42.999802054837346" lon="13.761153565719724">
        <ele>468.6000061035156</ele>
        <time>2019-03-26T19:15:43.789Z</time>
      </trkpt>
      <trkpt lat="42.99982384778559" lon="13.761238139122725">
        <ele>471.0</ele>
        <time>2019-03-26T19:15:46.597Z</time>
      </trkpt>
      <trkpt lat="42.999886963516474" lon="13.761358167976141">
        <ele>473.6000061035156</ele>
        <time>2019-03-26T19:15:49.408Z</time>
      </trkpt>
      <trkpt lat="42.99991110339761" lon="13.761407621204853">
        <ele>474.79998779296875</ele>
        <time>2019-03-26T19:15:52.220Z</time>
      </trkpt>
      <trkpt lat="43.0000598821789" lon="13.761615827679634">
        <ele>478.0</ele>
        <time>2019-03-26T19:15:55.037Z</time>
      </trkpt>
      <trkpt lat="43.0002861097455" lon="13.761814814060926">
        <ele>480.79998779296875</ele>
        <time>2019-03-26T19:15:57.860Z</time>
      </trkpt>
      <trkpt lat="43.00033388659358" lon="13.76186041161418">
        <ele>481.6000061035156</ele>
        <time>2019-03-26T19:16:00.685Z</time>
      </trkpt>
      <trkpt lat="43.000331120565534" lon="13.76190098002553">
        <ele>482.79998779296875</ele>
        <time>2019-03-26T19:16:03.510Z</time>
      </trkpt>
      <trkpt lat="43.00027630291879" lon="13.761883964762092">
        <ele>483.3999938964844</ele>
        <time>2019-03-26T19:16:06.337Z</time>
      </trkpt>
      <trkpt lat="43.0002570245415" lon="13.761868458241224">
        <ele>483.3999938964844</ele>
        <time>2019-03-26T19:16:09.164Z</time>
      </trkpt>
      <trkpt lat="43.00008796155453" lon="13.761725798249245">
        <ele>481.20001220703125</ele>
        <time>2019-03-26T19:16:11.996Z</time>
      </trkpt>
      <trkpt lat="42.99986131489277" lon="13.76143679022789">
        <ele>477.20001220703125</ele>
        <time>2019-03-26T19:16:14.835Z</time>
      </trkpt>
      <trkpt lat="42.999682780355215" lon="13.761112662032247">
        <ele>470.6000061035156</ele>
        <time>2019-03-26T19:16:17.681Z</time>
      </trkpt>
      <trkpt lat="42.99966090358794" lon="13.76107377000153">
        <ele>469.79998779296875</ele>
        <time>2019-03-26T19:16:20.528Z</time>
      </trkpt>
      <trkpt lat="42.99957943148911" lon="13.760964637622237">
        <ele>468.6000061035156</ele>
        <time>2019-03-26T19:16:23.377Z</time>
      </trkpt>
      <trkpt lat="42.99953936599195" lon="13.760946281254292">
        <ele>469.20001220703125</ele>
        <time>2019-03-26T19:16:26.227Z</time>
      </trkpt>
      <trkpt lat="42.999418415129185" lon="13.760977210476995">
        <ele>473.79998779296875</ele>
        <time>2019-03-26T19:16:29.080Z</time>
      </trkpt>
      <trkpt lat="42.999295787885785" lon="13.761105872690678">
        <ele>481.3999938964844</ele>
        <time>2019-03-26T19:16:31.937Z</time>
      </trkpt>
      <trkpt lat="42.99917860887945" lon="13.761178040876985">
        <ele>481.3999938964844</ele>
        <time>2019-03-26T19:16:34.797Z</time>
      </trkpt>
      <trkpt lat="42.999086659401655" lon="13.761092126369476">
        <ele>481.3999938964844</ele>
        <time>2019-03-26T19:16:37.660Z</time>
      </trkpt>
      <trkpt lat="42.99904692918062" lon="13.761056251823902">
        <ele>481.20001220703125</ele>
        <time>2019-03-26T19:16:40.524Z</time>
      </trkpt>
      <trkpt lat="42.998792538419366" lon="13.760863719508052">
        <ele>481.6000061035156</ele>
        <time>2019-03-26T19:16:43.394Z</time>
      </trkpt>
      <trkpt lat="42.99869111739099" lon="13.760740673169494">
        <ele>481.6000061035156</ele>
        <time>2019-03-26T19:16:46.268Z</time>
      </trkpt>
      <trkpt lat="42.998690865933895" lon="13.76071854494512">
        <ele>481.6000061035156</ele>
        <time>2019-03-26T19:16:49.142Z</time>
      </trkpt>
      <trkpt lat="42.998689860105515" lon="13.760708570480347">
        <ele>481.6000061035156</ele>
        <time>2019-03-26T19:16:52.016Z</time>
      </trkpt>
      <trkpt lat="42.99871198832989" lon="13.76057873480022">
        <ele>481.6000061035156</ele>
        <time>2019-03-26T19:16:54.893Z</time>
      </trkpt>
      <trkpt lat="42.99871299415827" lon="13.760527102276683">
        <ele>481.6000061035156</ele>
        <time>2019-03-26T19:16:57.770Z</time>
      </trkpt>
      <trkpt lat="42.998683573678136" lon="13.760382933542132">
        <ele>478.79998779296875</ele>
        <time>2019-03-26T19:17:00.650Z</time>
      </trkpt>
      <trkpt lat="42.99866714514792" lon="13.760157795622945">
        <ele>472.6000061035156</ele>
        <time>2019-03-26T19:17:03.534Z</time>
      </trkpt>
      <trkpt lat="42.998656164854765" lon="13.760109515860677">
        <ele>471.79998779296875</ele>
        <time>2019-03-26T19:17:06.419Z</time>
      </trkpt>
      <trkpt lat="42.99863738939166" lon="13.760018404573202">
        <ele>470.20001220703125</ele>
        <time>2019-03-26T19:17:09.305Z</time>
      </trkpt>
      <trkpt lat="42.998565807938576" lon="13.759917235001922">
        <ele>470.20001220703125</ele>
        <time>2019-03-26T19:17:12.194Z</time>
      </trkpt>
      <trkpt lat="42.99853513017297" lon="13.759886054322124">
        <ele>470.3999938964844</ele>
        <time>2019-03-26T19:17:15.084Z</time>
      </trkpt>
      <trkpt lat="42.998375706374645" lon="13.759703077375889">
        <ele>471.3999938964844</ele>
        <time>2019-03-26T19:17:17.979Z</time>
      </trkpt>
      <trkpt lat="42.99824209883809" lon="13.759550275281072">
        <ele>473.0</ele>
        <time>2019-03-26T19:17:20.878Z</time>
      </trkpt>
      <trkpt lat="42.99819256179035" lon="13.759481459856033">
        <ele>473.3999938964844</ele>
        <time>2019-03-26T19:17:23.778Z</time>
      </trkpt>
      <trkpt lat="42.998142102733254" lon="13.759410297498107">
        <ele>473.6000061035156</ele>
        <time>2019-03-26T19:17:26.680Z</time>
      </trkpt>
      <trkpt lat="42.99802500754595" lon="13.759226817637682">
        <ele>471.79998779296875</ele>
        <time>2019-03-26T19:17:29.586Z</time>
      </trkpt>
      <trkpt lat="42.99788838252425" lon="13.758999835699797">
        <ele>468.3999938964844</ele>
        <time>2019-03-26T19:17:32.497Z</time>
      </trkpt>
      <trkpt lat="42.99768880940974" lon="13.758757682517171">
        <ele>467.0</ele>
        <time>2019-03-26T19:17:35.414Z</time>
      </trkpt>
      <trkpt lat="42.997401310130954" lon="13.758567245677114">
        <ele>461.0</ele>
        <time>2019-03-26T19:17:38.339Z</time>
      </trkpt>
      <trkpt lat="42.997161420062184" lon="13.75856515020132">
        <ele>457.20001220703125</ele>
        <time>2019-03-26T19:17:41.269Z</time>
      </trkpt>
      <trkpt lat="42.99696587026119" lon="13.758721640333533">
        <ele>460.20001220703125</ele>
        <time>2019-03-26T19:17:44.205Z</time>
      </trkpt>
      <trkpt lat="42.996779792010784" lon="13.75905130058527">
        <ele>470.0</ele>
        <time>2019-03-26T19:17:47.148Z</time>
      </trkpt>
      <trkpt lat="42.996751544997096" lon="13.759097401052713">
        <ele>471.3999938964844</ele>
        <time>2019-03-26T19:17:50.092Z</time>
      </trkpt>
      <trkpt lat="42.99659304320812" lon="13.759242994710803">
        <ele>470.79998779296875</ele>
        <time>2019-03-26T19:17:53.040Z</time>
      </trkpt>
      <trkpt lat="42.99629783257842" lon="13.759498726576567">
        <ele>464.0</ele>
        <time>2019-03-26T19:17:55.997Z</time>
      </trkpt>
      <trkpt lat="42.99611351452768" lon="13.759740628302097">
        <ele>462.20001220703125</ele>
        <time>2019-03-26T19:17:58.960Z</time>
      </trkpt>
      <trkpt lat="42.996031790971756" lon="13.759897788986564">
        <ele>464.6000061035156</ele>
        <time>2019-03-26T19:18:01.926Z</time>
      </trkpt>
      <trkpt lat="42.995769856497645" lon="13.760422496125102">
        <ele>466.3999938964844</ele>
        <time>2019-03-26T19:18:04.903Z</time>
      </trkpt>
      <trkpt lat="42.99558101221919" lon="13.76100822351873">
        <ele>468.0</ele>
        <time>2019-03-26T19:18:07.891Z</time>
      </trkpt>
      <trkpt lat="42.9955427069217" lon="13.761118445545435">
        <ele>466.6000061035156</ele>
        <time>2019-03-26T19:18:10.881Z</time>
      </trkpt>
      <trkpt lat="42.99543256871402" lon="13.761375853791833">
        <ele>459.6000061035156</ele>
        <time>2019-03-26T19:18:13.876Z</time>
      </trkpt>
      <trkpt lat="42.995213717222214" lon="13.761682212352753">
        <ele>460.79998779296875</ele>
        <time>2019-03-26T19:18:16.878Z</time>
      </trkpt>
      <trkpt lat="42.995134675875306" lon="13.761770809069276">
        <ele>461.0</ele>
        <time>2019-03-26T19:18:19.883Z</time>
      </trkpt>
      <trkpt lat="42.994854217395186" lon="13.762113880366087">
        <ele>453.20001220703125</ele>
        <time>2019-03-26T19:18:22.896Z</time>
      </trkpt>
      <trkpt lat="42.994798980653286" lon="13.762208595871925">
        <ele>451.0</ele>
        <time>2019-03-26T19:18:25.912Z</time>
      </trkpt>
      <trkpt lat="42.99467568285763" lon="13.762525012716651">
        <ele>447.20001220703125</ele>
        <time>2019-03-26T19:18:28.934Z</time>
      </trkpt>
      <trkpt lat="42.99459722824395" lon="13.76285475678742">
        <ele>446.3999938964844</ele>
        <time>2019-03-26T19:18:31.962Z</time>
      </trkpt>
      <trkpt lat="42.99457048997283" lon="13.762968583032489">
        <ele>446.3999938964844</ele>
        <time>2019-03-26T19:18:34.992Z</time>
      </trkpt>
      <trkpt lat="42.99438592046499" lon="13.763759080320597">
        <ele>445.79998779296875</ele>
        <time>2019-03-26T19:18:38.036Z</time>
      </trkpt>
      <trkpt lat="42.99424594268203" lon="13.764536501839757">
        <ele>453.20001220703125</ele>
        <time>2019-03-26T19:18:41.094Z</time>
      </trkpt>
      <trkpt lat="42.99420495517552" lon="13.764888038858771">
        <ele>456.3999938964844</ele>
        <time>2019-03-26T19:18:44.158Z</time>
      </trkpt>
      <trkpt lat="42.99423194490373" lon="13.765147542580962">
        <ele>461.3999938964844</ele>
        <time>2019-03-26T19:18:47.226Z</time>
      </trkpt>
      <trkpt lat="42.99429682083428" lon="13.765395227819681">
        <ele>463.79998779296875</ele>
        <time>2019-03-26T19:18:50.299Z</time>
      </trkpt>
      <trkpt lat="42.994384579360485" lon="13.765649618580937">
        <ele>464.6000061035156</ele>
        <time>2019-03-26T19:18:53.377Z</time>
      </trkpt>
      <trkpt lat="42.99450360238552" lon="13.766016075387597">
        <ele>465.79998779296875</ele>
        <time>2019-03-26T19:18:56.461Z</time>
      </trkpt>
      <trkpt lat="42.994541404768825" lon="13.766150185838342">
        <ele>464.3999938964844</ele>
        <time>2019-03-26T19:18:59.548Z</time>
      </trkpt>
      <trkpt lat="42.99458079971373" lon="13.766264598816633">
        <ele>462.3999938964844</ele>
        <time>2019-03-26T19:19:02.637Z</time>
      </trkpt>
      <trkpt lat="42.99468666315079" lon="13.766591241583228">
        <ele>459.20001220703125</ele>
        <time>2019-03-26T19:19:05.732Z</time>
      </trkpt>
      <trkpt lat="42.99477324821055" lon="13.766961386427283">
        <ele>458.20001220703125</ele>
        <time>2019-03-26T19:19:08.834Z</time>
      </trkpt>
      <trkpt lat="42.994792023673654" lon="13.767091305926442">
        <ele>457.6000061035156</ele>
        <time>2019-03-26T19:19:11.938Z</time>
      </trkpt>
      <trkpt lat="42.99475908279419" lon="13.767472011968493">
        <ele>458.20001220703125</ele>
        <time>2019-03-26T19:19:15.049Z</time>
      </trkpt>
      <trkpt lat="42.99459085799754" lon="13.76778356730938">
        <ele>462.79998779296875</ele>
        <time>2019-03-26T19:19:18.166Z</time>
      </trkpt>
      <trkpt lat="42.994133373722434" lon="13.768357811495662">
        <ele>460.0</ele>
        <time>2019-03-26T19:19:21.298Z</time>
      </trkpt>
      <trkpt lat="42.99371008761227" lon="13.768640449270606">
        <ele>456.79998779296875</ele>
        <time>2019-03-26T19:19:24.441Z</time>
      </trkpt>
      <trkpt lat="42.99313844181597" lon="13.768856870010495">
        <ele>447.6000061035156</ele>
        <time>2019-03-26T19:19:27.598Z</time>
      </trkpt>
      <trkpt lat="42.9930145572871" lon="13.76887514255941">
        <ele>444.79998779296875</ele>
        <time>2019-03-26T19:19:30.758Z</time>
      </trkpt>
      <trkpt lat="42.99266058951616" lon="13.76878822222352">
        <ele>441.0</ele>
        <time>2019-03-26T19:19:33.926Z</time>
      </trkpt>
      <trkpt lat="42.9925446677953" lon="13.768737763166428">
        <ele>440.0</ele>
        <time>2019-03-26T19:19:37.097Z</time>
      </trkpt>
      <trkpt lat="42.99207754433155" lon="13.768548499792814">
        <ele>434.20001220703125</ele>
        <time>2019-03-26T19:19:40.279Z</time>
      </trkpt>
      <trkpt lat="42.99174721352756" lon="13.76859032548964">
        <ele>428.20001220703125</ele>
        <time>2019-03-26T19:19:43.469Z</time>
      </trkpt>
      <trkpt lat="42.991650737822056" lon="13.768621506169438">
        <ele>426.20001220703125</ele>
        <time>2019-03-26T19:19:46.661Z</time>
      </trkpt>
      <trkpt lat="42.99146977253258" lon="13.768702140077949">
        <ele>422.6000061035156</ele>
        <time>2019-03-26T19:19:49.858Z</time>
      </trkpt>
      <trkpt lat="42.991386288776994" lon="13.768766596913338">
        <ele>421.0</ele>
        <time>2019-03-26T19:19:53.057Z</time>
      </trkpt>
      <trkpt lat="42.991242203861475" lon="13.769035991281271">
        <ele>423.0</ele>
        <time>2019-03-26T19:19:56.262Z</time>
      </trkpt>
      <trkpt lat="42.991207083687186" lon="13.769235480576754">
        <ele>428.3999938964844</ele>
        <time>2019-03-26T19:19:59.470Z</time>
      </trkpt>
      <trkpt lat="42.991180596873164" lon="13.769425665959716">
        <ele>432.20001220703125</ele>
        <time>2019-03-26T19:20:02.682Z</time>
      </trkpt>
      <trkpt lat="42.991126868873835" lon="13.769932268187404">
        <ele>435.20001220703125</ele>
        <time>2019-03-26T19:20:05.902Z</time>
      </trkpt>
      <trkpt lat="42.99109895713627" lon="13.77015933394432">
        <ele>437.79998779296875</ele>
        <time>2019-03-26T19:20:09.126Z</time>
      </trkpt>
      <trkpt lat="42.9910683631897" lon="13.770373156294227">
        <ele>439.6000061035156</ele>
        <time>2019-03-26T19:20:12.354Z</time>
      </trkpt>
      <trkpt lat="42.99100348725915" lon="13.770781606435776">
        <ele>437.3999938964844</ele>
        <time>2019-03-26T19:20:15.589Z</time>
      </trkpt>
      <trkpt lat="42.99092436209321" lon="13.771294495090842">
        <ele>435.20001220703125</ele>
        <time>2019-03-26T19:20:18.833Z</time>
      </trkpt>
      <trkpt lat="42.99090625718236" lon="13.771776286885142">
        <ele>433.0</ele>
        <time>2019-03-26T19:20:22.086Z</time>
      </trkpt>
      <trkpt lat="42.99099904485047" lon="13.772247014567256">
        <ele>431.0</ele>
        <time>2019-03-26T19:20:25.347Z</time>
      </trkpt>
      <trkpt lat="42.99117984250188" lon="13.772737020626664">
        <ele>431.3999938964844</ele>
        <time>2019-03-26T19:20:28.617Z</time>
      </trkpt>
      <trkpt lat="42.99146130681038" lon="13.773281257599592">
        <ele>440.79998779296875</ele>
        <time>2019-03-26T19:20:31.899Z</time>
      </trkpt>
      <trkpt lat="42.99175760708749" lon="13.773629358038306">
        <ele>450.0</ele>
        <time>2019-03-26T19:20:35.190Z</time>
      </trkpt>
      <trkpt lat="42.99187235534191" lon="13.773944852873683">
        <ele>443.3999938964844</ele>
        <time>2019-03-26T19:20:38.487Z</time>
      </trkpt>
      <trkpt lat="42.9918572679162" lon="13.774177702143788">
        <ele>437.3999938964844</ele>
        <time>2019-03-26T19:20:41.788Z</time>
      </trkpt>
      <trkpt lat="42.991730868816376" lon="13.77451054751873">
        <ele>430.0</ele>
        <time>2019-03-26T19:20:45.095Z</time>
      </trkpt>
      <trkpt lat="42.99167864955962" lon="13.774617835879326">
        <ele>427.20001220703125</ele>
        <time>2019-03-26T19:20:48.405Z</time>
      </trkpt>
      <trkpt lat="42.99152291379869" lon="13.77493760548532">
        <ele>418.79998779296875</ele>
        <time>2019-03-26T19:20:51.721Z</time>
      </trkpt>
      <trkpt lat="42.99149743281305" lon="13.775058640167117">
        <ele>417.3999938964844</ele>
        <time>2019-03-26T19:20:55.039Z</time>
      </trkpt>
      <trkpt lat="42.99152534455061" lon="13.77530942671001">
        <ele>417.79998779296875</ele>
        <time>2019-03-26T19:20:58.362Z</time>
      </trkpt>
      <trkpt lat="42.991714272648096" lon="13.775629866868258">
        <ele>425.6000061035156</ele>
        <time>2019-03-26T19:21:01.692Z</time>
      </trkpt>
      <trkpt lat="42.99177495762706" lon="13.775740172713995">
        <ele>427.0</ele>
        <time>2019-03-26T19:21:05.024Z</time>
      </trkpt>
      <trkpt lat="42.99184503033757" lon="13.776015685871243">
        <ele>426.20001220703125</ele>
        <time>2019-03-26T19:21:08.361Z</time>
      </trkpt>
      <trkpt lat="42.99180697649717" lon="13.776304107159376">
        <ele>424.79998779296875</ele>
        <time>2019-03-26T19:21:11.703Z</time>
      </trkpt>
      <trkpt lat="42.99163766205311" lon="13.776684226468205">
        <ele>419.20001220703125</ele>
        <time>2019-03-26T19:21:15.053Z</time>
      </trkpt>
      <trkpt lat="42.99128159880638" lon="13.777312533929944">
        <ele>409.6000061035156</ele>
        <time>2019-03-26T19:21:18.416Z</time>
      </trkpt>
      <trkpt lat="42.991216303780675" lon="13.777442201972008">
        <ele>410.20001220703125</ele>
        <time>2019-03-26T19:21:21.782Z</time>
      </trkpt>
      <trkpt lat="42.99093576148152" lon="13.778145024552941">
        <ele>407.79998779296875</ele>
        <time>2019-03-26T19:21:25.162Z</time>
      </trkpt>
      <trkpt lat="42.99067332409322" lon="13.778850361704826">
        <ele>404.6000061035156</ele>
        <time>2019-03-26T19:21:28.555Z</time>
      </trkpt>
      <trkpt lat="42.99060291610658" lon="13.779131323099136">
        <ele>404.0</ele>
        <time>2019-03-26T19:21:31.954Z</time>
      </trkpt>
      <trkpt lat="42.99062009900808" lon="13.779530888423324">
        <ele>407.20001220703125</ele>
        <time>2019-03-26T19:21:35.359Z</time>
      </trkpt>
      <trkpt lat="42.9907382838428" lon="13.779836744070053">
        <ele>409.79998779296875</ele>
        <time>2019-03-26T19:21:38.770Z</time>
      </trkpt>
      <trkpt lat="42.99078941345215" lon="13.779930956661701">
        <ele>410.6000061035156</ele>
        <time>2019-03-26T19:21:42.183Z</time>
      </trkpt>
      <trkpt lat="42.991008600220084" lon="13.780334210023284">
        <ele>411.79998779296875</ele>
        <time>2019-03-26T19:21:45.605Z</time>
      </trkpt>
      <trkpt lat="42.991081941872835" lon="13.780508888885379">
        <ele>410.79998779296875</ele>
        <time>2019-03-26T19:21:49.030Z</time>
      </trkpt>
      <trkpt lat="42.99111161381006" lon="13.780693374574184">
        <ele>410.3999938964844</ele>
        <time>2019-03-26T19:21:52.459Z</time>
      </trkpt>
      <trkpt lat="42.99106660299003" lon="13.781064273789525">
        <ele>410.20001220703125</ele>
        <time>2019-03-26T19:21:55.894Z</time>
      </trkpt>
      <trkpt lat="42.990959230810404" lon="13.781506922096014">
        <ele>411.79998779296875</ele>
        <time>2019-03-26T19:21:59.337Z</time>
      </trkpt>
      <trkpt lat="42.99085437320173" lon="13.781984187662601">
        <ele>411.20001220703125</ele>
        <time>2019-03-26T19:22:02.789Z</time>
      </trkpt>
      <trkpt lat="42.99083299934864" lon="13.782221311703324">
        <ele>410.0</ele>
        <time>2019-03-26T19:22:06.245Z</time>
      </trkpt>
      <trkpt lat="42.990854792296886" lon="13.782374113798141">
        <ele>410.20001220703125</ele>
        <time>2019-03-26T19:22:09.703Z</time>
      </trkpt>
      <trkpt lat="42.99092059023678" lon="13.782550217583776">
        <ele>411.3999938964844</ele>
        <time>2019-03-26T19:22:13.165Z</time>
      </trkpt>
      <trkpt lat="42.990945652127266" lon="13.782597240060568">
        <ele>410.79998779296875</ele>
        <time>2019-03-26T19:22:16.628Z</time>
      </trkpt>
      <trkpt lat="42.99099527299404" lon="13.78267795778811">
        <ele>409.79998779296875</ele>
        <time>2019-03-26T19:22:20.093Z</time>
      </trkpt>
      <trkpt lat="42.99107884056866" lon="13.782811230048537">
        <ele>410.0</ele>
        <time>2019-03-26T19:22:23.561Z</time>
      </trkpt>
      <trkpt lat="42.991294004023075" lon="13.783045671880245">
        <ele>410.6000061035156</ele>
        <time>2019-03-26T19:22:27.035Z</time>
      </trkpt>
      <trkpt lat="42.99162467010319" lon="13.7833449896425">
        <ele>410.6000061035156</ele>
        <time>2019-03-26T19:22:30.518Z</time>
      </trkpt>
      <trkpt lat="42.99200780689716" lon="13.783609354868531">
        <ele>410.3999938964844</ele>
        <time>2019-03-26T19:22:34.011Z</time>
      </trkpt>
      <trkpt lat="42.99233268946409" lon="13.783808927983046">
        <ele>409.0</ele>
        <time>2019-03-26T19:22:37.513Z</time>
      </trkpt>
      <trkpt lat="42.99270979128778" lon="13.784087123349309">
        <ele>407.6000061035156</ele>
        <time>2019-03-26T19:22:41.025Z</time>
      </trkpt>
      <trkpt lat="42.99320021644235" lon="13.784444443881512">
        <ele>405.79998779296875</ele>
        <time>2019-03-26T19:22:44.550Z</time>
      </trkpt>
      <trkpt lat="42.99327112734318" lon="13.784494316205382">
        <ele>405.6000061035156</ele>
        <time>2019-03-26T19:22:48.077Z</time>
      </trkpt>
      <trkpt lat="42.99376775510609" lon="13.784911399707198">
        <ele>403.20001220703125</ele>
        <time>2019-03-26T19:22:51.617Z</time>
      </trkpt>
      <trkpt lat="42.994130440056324" lon="13.785320604220033">
        <ele>400.6000061035156</ele>
        <time>2019-03-26T19:22:55.168Z</time>
      </trkpt>
      <trkpt lat="42.9946444183588" lon="13.785907002165914">
        <ele>393.3999938964844</ele>
        <time>2019-03-26T19:22:58.735Z</time>
      </trkpt>
      <trkpt lat="42.995088659226894" lon="13.786373538896441">
        <ele>387.6000061035156</ele>
        <time>2019-03-26T19:23:02.315Z</time>
      </trkpt>
      <trkpt lat="42.99517197534442" lon="13.786459034308791">
        <ele>387.6000061035156</ele>
        <time>2019-03-26T19:23:05.897Z</time>
      </trkpt>
      <trkpt lat="42.99551982432604" lon="13.786830939352512">
        <ele>387.6000061035156</ele>
        <time>2019-03-26T19:23:09.490Z</time>
      </trkpt>
      <trkpt lat="42.99580682069063" lon="13.787110643461347">
        <ele>387.6000061035156</ele>
        <time>2019-03-26T19:23:13.091Z</time>
      </trkpt>
      <trkpt lat="42.996175456792116" lon="13.787414655089378">
        <ele>387.3999938964844</ele>
        <time>2019-03-26T19:23:16.702Z</time>
      </trkpt>
      <trkpt lat="42.99650000408292" lon="13.787737777456641">
        <ele>386.6000061035156</ele>
        <time>2019-03-26T19:23:20.322Z</time>
      </trkpt>
      <trkpt lat="42.99669018946588" lon="13.787925783544779">
        <ele>386.0</ele>
        <time>2019-03-26T19:23:23.948Z</time>
      </trkpt>
      <trkpt lat="42.99673235043883" lon="13.787992084398866">
        <ele>385.6000061035156</ele>
        <time>2019-03-26T19:23:27.575Z</time>
      </trkpt>
      <trkpt lat="42.99683477729559" lon="13.788110688328743">
        <ele>384.3999938964844</ele>
        <time>2019-03-26T19:23:31.206Z</time>
      </trkpt>
      <trkpt lat="42.9968979768455" lon="13.788152178749442">
        <ele>383.79998779296875</ele>
        <time>2019-03-26T19:23:34.838Z</time>
      </trkpt>
      <trkpt lat="42.997192768380046" lon="13.788207164034247">
        <ele>382.20001220703125</ele>
        <time>2019-03-26T19:23:38.477Z</time>
      </trkpt>
      <trkpt lat="42.997280694544315" lon="13.78820188343525">
        <ele>381.79998779296875</ele>
        <time>2019-03-26T19:23:42.118Z</time>
      </trkpt>
      <trkpt lat="42.99757565371692" lon="13.78817941993475">
        <ele>380.20001220703125</ele>
        <time>2019-03-26T19:23:45.766Z</time>
      </trkpt>
      <trkpt lat="42.998213432729244" lon="13.78818679600954">
        <ele>373.6000061035156</ele>
        <time>2019-03-26T19:23:49.429Z</time>
      </trkpt>
      <trkpt lat="42.99882891587913" lon="13.788266591727734">
        <ele>371.0</ele>
        <time>2019-03-26T19:23:53.107Z</time>
      </trkpt>
      <trkpt lat="42.99892572686076" lon="13.78828888759017">
        <ele>370.79998779296875</ele>
        <time>2019-03-26T19:23:56.787Z</time>
      </trkpt>
      <trkpt lat="42.99941916950047" lon="13.788394667208195">
        <ele>367.6000061035156</ele>
        <time>2019-03-26T19:24:00.479Z</time>
      </trkpt>
      <trkpt lat="42.99984119832516" lon="13.788415873423219">
        <ele>366.79998779296875</ele>
        <time>2019-03-26T19:24:04.180Z</time>
      </trkpt>
      <trkpt lat="42.99998628906906" lon="13.788472954183817">
        <ele>366.79998779296875</ele>
        <time>2019-03-26T19:24:07.885Z</time>
      </trkpt>
      <trkpt lat="43.000017553567886" lon="13.788500865921378">
        <ele>366.79998779296875</ele>
        <time>2019-03-26T19:24:11.591Z</time>
      </trkpt>
      <trkpt lat="43.00020388327539" lon="13.788769422098994">
        <ele>366.79998779296875</ele>
        <time>2019-03-26T19:24:15.303Z</time>
      </trkpt>
      <trkpt lat="43.000387363135815" lon="13.788991207256913">
        <ele>366.3999938964844</ele>
        <time>2019-03-26T19:24:19.021Z</time>
      </trkpt>
      <trkpt lat="43.00064904615283" lon="13.789048371836543">
        <ele>364.79998779296875</ele>
        <time>2019-03-26T19:24:22.745Z</time>
      </trkpt>
      <trkpt lat="43.00072724930942" lon="13.789032781496644">
        <ele>363.20001220703125</ele>
        <time>2019-03-26T19:24:26.471Z</time>
      </trkpt>
      <trkpt lat="43.000874519348145" lon="13.78901551477611">
        <ele>360.3999938964844</ele>
        <time>2019-03-26T19:24:30.200Z</time>
      </trkpt>
      <trkpt lat="43.0009441729635" lon="13.78902523778379">
        <ele>359.6000061035156</ele>
        <time>2019-03-26T19:24:33.931Z</time>
      </trkpt>
      <trkpt lat="43.00131104886532" lon="13.789143841713667">
        <ele>358.79998779296875</ele>
        <time>2019-03-26T19:24:37.671Z</time>
      </trkpt>
      <trkpt lat="43.00144859589636" lon="13.789205197244883">
        <ele>358.6000061035156</ele>
        <time>2019-03-26T19:24:41.414Z</time>
      </trkpt>
      <trkpt lat="43.00164490006864" lon="13.78935364075005">
        <ele>359.3999938964844</ele>
        <time>2019-03-26T19:24:45.162Z</time>
      </trkpt>
      <trkpt lat="43.00178378820419" lon="13.789598643779755">
        <ele>358.20001220703125</ele>
        <time>2019-03-26T19:24:48.916Z</time>
      </trkpt>
      <trkpt lat="43.001853274181485" lon="13.789891339838505">
        <ele>356.79998779296875</ele>
        <time>2019-03-26T19:24:52.675Z</time>
      </trkpt>
      <trkpt lat="43.00187909044325" lon="13.790007345378399">
        <ele>356.20001220703125</ele>
        <time>2019-03-26T19:24:56.436Z</time>
      </trkpt>
      <trkpt lat="43.001911947503686" lon="13.79011488519609">
        <ele>355.6000061035156</ele>
        <time>2019-03-26T19:25:00.199Z</time>
      </trkpt>
      <trkpt lat="43.00201387144625" lon="13.790475307032466">
        <ele>355.20001220703125</ele>
        <time>2019-03-26T19:25:03.969Z</time>
      </trkpt>
      <trkpt lat="43.00206650979817" lon="13.790686530992389">
        <ele>353.0</ele>
        <time>2019-03-26T19:25:07.743Z</time>
      </trkpt>
      <trkpt lat="43.002115627750754" lon="13.790778899565339">
        <ele>351.79998779296875</ele>
        <time>2019-03-26T19:25:11.519Z</time>
      </trkpt>
      <trkpt lat="43.00233573652804" lon="13.790932120755315">
        <ele>349.3999938964844</ele>
        <time>2019-03-26T19:25:15.300Z</time>
      </trkpt>
      <trkpt lat="43.00241536460817" lon="13.79096464253962">
        <ele>348.6000061035156</ele>
        <time>2019-03-26T19:25:19.083Z</time>
      </trkpt>
      <trkpt lat="43.002573531121016" lon="13.791058855131269">
        <ele>347.0</ele>
        <time>2019-03-26T19:25:22.870Z</time>
      </trkpt>
      <trkpt lat="43.0026416759938" lon="13.791133873164654">
        <ele>346.20001220703125</ele>
        <time>2019-03-26T19:25:26.659Z</time>
      </trkpt>
      <trkpt lat="43.00279112532735" lon="13.791461270302534">
        <ele>343.0</ele>
        <time>2019-03-26T19:25:30.455Z</time>
      </trkpt>
      <trkpt lat="43.002828089520335" lon="13.791578700765967">
        <ele>342.0</ele>
        <time>2019-03-26T19:25:34.253Z</time>
      </trkpt>
      <trkpt lat="43.00303738564253" lon="13.792177084833384">
        <ele>339.0</ele>
        <time>2019-03-26T19:25:38.062Z</time>
      </trkpt>
      <trkpt lat="43.00328087992966" lon="13.792559718713164">
        <ele>339.0</ele>
        <time>2019-03-26T19:25:41.880Z</time>
      </trkpt>
      <trkpt lat="43.00372151657939" lon="13.79311359487474">
        <ele>337.0</ele>
        <time>2019-03-26T19:25:45.712Z</time>
      </trkpt>
      <trkpt lat="43.00401454791427" lon="13.793431436643004">
        <ele>335.3999938964844</ele>
        <time>2019-03-26T19:25:49.553Z</time>
      </trkpt>
      <trkpt lat="43.00409627147019" lon="13.793479548767209">
        <ele>335.20001220703125</ele>
        <time>2019-03-26T19:25:53.396Z</time>
      </trkpt>
      <trkpt lat="43.00440866500139" lon="13.793599996715784">
        <ele>332.3999938964844</ele>
        <time>2019-03-26T19:25:57.247Z</time>
      </trkpt>
      <trkpt lat="43.004476223140955" lon="13.793638553470373">
        <ele>331.3999938964844</ele>
        <time>2019-03-26T19:26:01.099Z</time>
      </trkpt>
      <trkpt lat="43.004592983052135" lon="13.793753804638982">
        <ele>330.0</ele>
        <time>2019-03-26T19:26:04.955Z</time>
      </trkpt>
      <trkpt lat="43.004865143448114" lon="13.794179689139128">
        <ele>327.6000061035156</ele>
        <time>2019-03-26T19:26:08.820Z</time>
      </trkpt>
      <trkpt lat="43.005010820925236" lon="13.794603813439608">
        <ele>326.6000061035156</ele>
        <time>2019-03-26T19:26:12.693Z</time>
      </trkpt>
      <trkpt lat="43.00515993498266" lon="13.795132543891668">
        <ele>326.20001220703125</ele>
        <time>2019-03-26T19:26:16.576Z</time>
      </trkpt>
      <trkpt lat="43.0051941331476" lon="13.795202365145087">
        <ele>326.20001220703125</ele>
        <time>2019-03-26T19:26:20.461Z</time>
      </trkpt>
      <trkpt lat="43.005286417901516" lon="13.795306133106351">
        <ele>325.79998779296875</ele>
        <time>2019-03-26T19:26:24.348Z</time>
      </trkpt>
      <trkpt lat="43.00546302460134" lon="13.795335972681642">
        <ele>324.6000061035156</ele>
        <time>2019-03-26T19:26:28.240Z</time>
      </trkpt>
      <trkpt lat="43.00574893131852" lon="13.795216027647257">
        <ele>322.20001220703125</ele>
        <time>2019-03-26T19:26:32.139Z</time>
      </trkpt>
      <trkpt lat="43.00585839897394" lon="13.79516246728599">
        <ele>321.20001220703125</ele>
        <time>2019-03-26T19:26:36.040Z</time>
      </trkpt>
      <trkpt lat="43.00597121939063" lon="13.79516975954175">
        <ele>319.6000061035156</ele>
        <time>2019-03-26T19:26:39.944Z</time>
      </trkpt>
      <trkpt lat="43.006108766421676" lon="13.795357178896666">
        <ele>320.20001220703125</ele>
        <time>2019-03-26T19:26:43.852Z</time>
      </trkpt>
      <trkpt lat="43.006146401166916" lon="13.795445021241903">
        <ele>320.79998779296875</ele>
        <time>2019-03-26T19:26:47.762Z</time>
      </trkpt>
      <trkpt lat="43.00619484856725" lon="13.795522972941399">
        <ele>320.79998779296875</ele>
        <time>2019-03-26T19:26:51.674Z</time>
      </trkpt>
      <trkpt lat="43.006250420585275" lon="13.79558558575809">
        <ele>320.6000061035156</ele>
        <time>2019-03-26T19:26:55.588Z</time>
      </trkpt>
      <trkpt lat="43.00645695067942" lon="13.795658592134714">
        <ele>319.3999938964844</ele>
        <time>2019-03-26T19:26:59.507Z</time>
      </trkpt>
      <trkpt lat="43.00652098841965" lon="13.795657334849238">
        <ele>318.6000061035156</ele>
        <time>2019-03-26T19:27:03.427Z</time>
      </trkpt>
      <trkpt lat="43.00676087848842" lon="13.795683570206165">
        <ele>316.0</ele>
        <time>2019-03-26T19:27:07.353Z</time>
      </trkpt>
      <trkpt lat="43.00709204748273" lon="13.795790942385793">
        <ele>314.79998779296875</ele>
        <time>2019-03-26T19:27:11.287Z</time>
      </trkpt>
      <trkpt lat="43.007526732981205" lon="13.79596528597176">
        <ele>313.20001220703125</ele>
        <time>2019-03-26T19:27:15.231Z</time>
      </trkpt>
      <trkpt lat="43.00790961831808" lon="13.7960996478796">
        <ele>308.0</ele>
        <time>2019-03-26T19:27:19.184Z</time>
      </trkpt>
      <trkpt lat="43.007969381287694" lon="13.796126721426845">
        <ele>307.0</ele>
        <time>2019-03-26T19:27:23.139Z</time>
      </trkpt>
      <trkpt lat="43.00813785754144" lon="13.796288073062897">
        <ele>305.6000061035156</ele>
        <time>2019-03-26T19:27:27.099Z</time>
      </trkpt>
      <trkpt lat="43.00818622112274" lon="13.796359235420823">
        <ele>305.3999938964844</ele>
        <time>2019-03-26T19:27:31.060Z</time>
      </trkpt>
      <trkpt lat="43.00823827274144" lon="13.796425117179751">
        <ele>305.20001220703125</ele>
        <time>2019-03-26T19:27:35.023Z</time>
      </trkpt>
      <trkpt lat="43.00841479562223" lon="13.79665176384151">
        <ele>304.20001220703125</ele>
        <time>2019-03-26T19:27:38.992Z</time>
      </trkpt>
      <trkpt lat="43.00863582640886" lon="13.79697086289525">
        <ele>302.6000061035156</ele>
        <time>2019-03-26T19:27:42.968Z</time>
      </trkpt>
      <trkpt lat="43.00881025381386" lon="13.797213602811098">
        <ele>301.3999938964844</ele>
        <time>2019-03-26T19:27:46.950Z</time>
      </trkpt>
      <trkpt lat="43.008958362042904" lon="13.79735006019473">
        <ele>299.3999938964844</ele>
        <time>2019-03-26T19:27:50.936Z</time>
      </trkpt>
      <trkpt lat="43.00938223488629" lon="13.797744428738952">
        <ele>294.6000061035156</ele>
        <time>2019-03-26T19:27:54.934Z</time>
      </trkpt>
      <trkpt lat="43.00971449352801" lon="13.79820073954761">
        <ele>295.20001220703125</ele>
        <time>2019-03-26T19:27:58.943Z</time>
      </trkpt>
      <trkpt lat="43.00994776189327" lon="13.798520592972636">
        <ele>293.3999938964844</ele>
        <time>2019-03-26T19:28:02.960Z</time>
      </trkpt>
      <trkpt lat="43.00999260507524" lon="13.798574320971966">
        <ele>293.3999938964844</ele>
        <time>2019-03-26T19:28:06.978Z</time>
      </trkpt>
      <trkpt lat="43.01026459783316" lon="13.798896102234721">
        <ele>292.6000061035156</ele>
        <time>2019-03-26T19:28:11.005Z</time>
      </trkpt>
      <trkpt lat="43.0103659350425" lon="13.799038846045732">
        <ele>291.79998779296875</ele>
        <time>2019-03-26T19:28:15.035Z</time>
      </trkpt>
      <trkpt lat="43.01043181680143" lon="13.799197180196643">
        <ele>291.20001220703125</ele>
        <time>2019-03-26T19:28:19.068Z</time>
      </trkpt>
      <trkpt lat="43.01061940379441" lon="13.799776872619987">
        <ele>292.20001220703125</ele>
        <time>2019-03-26T19:28:23.112Z</time>
      </trkpt>
      <trkpt lat="43.01078754477203" lon="13.800466284155846">
        <ele>291.0</ele>
        <time>2019-03-26T19:28:27.169Z</time>
      </trkpt>
      <trkpt lat="43.01090581342578" lon="13.801050754263997">
        <ele>290.79998779296875</ele>
        <time>2019-03-26T19:28:31.236Z</time>
      </trkpt>
      <trkpt lat="43.0109462980181" lon="13.801458198577166">
        <ele>291.20001220703125</ele>
        <time>2019-03-26T19:28:35.310Z</time>
      </trkpt>
      <trkpt lat="43.011010587215424" lon="13.801856506615877">
        <ele>291.6000061035156</ele>
        <time>2019-03-26T19:28:39.391Z</time>
      </trkpt>
      <trkpt lat="43.01110521890223" lon="13.802318265661597">
        <ele>291.3999938964844</ele>
        <time>2019-03-26T19:28:43.480Z</time>
      </trkpt>
      <trkpt lat="43.01121870987117" lon="13.802728643640876">
        <ele>291.6000061035156</ele>
        <time>2019-03-26T19:28:47.577Z</time>
      </trkpt>
      <trkpt lat="43.01141551695764" lon="13.803104236721992">
        <ele>289.3999938964844</ele>
        <time>2019-03-26T19:28:51.682Z</time>
      </trkpt>
      <trkpt lat="43.01158466376364" lon="13.803357621654868">
        <ele>288.0</ele>
        <time>2019-03-26T19:28:55.793Z</time>
      </trkpt>
      <trkpt lat="43.0116334464401" lon="13.803460216149688">
        <ele>287.3999938964844</ele>
        <time>2019-03-26T19:28:59.906Z</time>
      </trkpt>
      <trkpt lat="43.01173310726881" lon="13.803819380700588">
        <ele>285.20001220703125</ele>
        <time>2019-03-26T19:29:04.025Z</time>
      </trkpt>
      <trkpt lat="43.011754900217056" lon="13.803942929953337">
        <ele>284.6000061035156</ele>
        <time>2019-03-26T19:29:08.147Z</time>
      </trkpt>
      <trkpt lat="43.011778285726905" lon="13.804202852770686">
        <ele>283.0</ele>
        <time>2019-03-26T19:29:12.273Z</time>
      </trkpt>
      <trkpt lat="43.01176990382373" lon="13.80445221439004">
        <ele>281.79998779296875</ele>
        <time>2019-03-26T19:29:16.403Z</time>
      </trkpt>
      <trkpt lat="43.01176160573959" lon="13.805150175467134">
        <ele>279.20001220703125</ele>
        <time>2019-03-26T19:29:20.545Z</time>
      </trkpt>
      <trkpt lat="43.01174274645746" lon="13.805360812693834">
        <ele>278.0</ele>
        <time>2019-03-26T19:29:24.691Z</time>
      </trkpt>
      <trkpt lat="43.01167208701372" lon="13.805521577596664">
        <ele>275.20001220703125</ele>
        <time>2019-03-26T19:29:28.840Z</time>
      </trkpt>
      <trkpt lat="43.01160343922675" lon="13.805735483765602">
        <ele>272.3999938964844</ele>
        <time>2019-03-26T19:29:32.993Z</time>
      </trkpt>
      <trkpt lat="43.01159589551389" lon="13.805814608931541">
        <ele>271.6000061035156</ele>
        <time>2019-03-26T19:29:37.148Z</time>
      </trkpt>
      <trkpt lat="43.01158365793526" lon="13.806212246418">
        <ele>270.20001220703125</ele>
        <time>2019-03-26T19:29:41.309Z</time>
      </trkpt>
      <trkpt lat="43.01160511560738" lon="13.806391451507807">
        <ele>269.3999938964844</ele>
        <time>2019-03-26T19:29:45.474Z</time>
      </trkpt>
      <trkpt lat="43.01164509728551" lon="13.806568058207631">
        <ele>269.20001220703125</ele>
        <time>2019-03-26T19:29:49.642Z</time>
      </trkpt>
      <trkpt lat="43.01162699237466" lon="13.806858826428652">
        <ele>267.20001220703125</ele>
        <time>2019-03-26T19:29:53.815Z</time>
      </trkpt>
      <trkpt lat="43.01168046891689" lon="13.807172728702426">
        <ele>266.20001220703125</ele>
        <time>2019-03-26T19:29:57.993Z</time>
      </trkpt>
      <trkpt lat="43.0117129907012" lon="13.807273395359516">
        <ele>266.20001220703125</ele>
        <time>2019-03-26T19:30:02.173Z</time>
      </trkpt>
      <trkpt lat="43.01188850775361" lon="13.807703386992216">
        <ele>263.20001220703125</ele>
        <time>2019-03-26T19:30:06.362Z</time>
      </trkpt>
      <trkpt lat="43.012082716450095" lon="13.808219293132424">
        <ele>258.3999938964844</ele>
        <time>2019-03-26T19:30:10.560Z</time>
      </trkpt>
      <trkpt lat="43.01205673255026" lon="13.808378046378493">
        <ele>258.3999938964844</ele>
        <time>2019-03-26T19:30:14.761Z</time>
      </trkpt>
      <trkpt lat="43.01196520216763" lon="13.808514336124063">
        <ele>259.20001220703125</ele>
        <time>2019-03-26T19:30:18.965Z</time>
      </trkpt>
      <trkpt lat="43.01193720661104" lon="13.808549623936415">
        <ele>259.6000061035156</ele>
        <time>2019-03-26T19:30:23.170Z</time>
      </trkpt>
      <trkpt lat="43.011719612404704" lon="13.808819688856602">
        <ele>260.3999938964844</ele>
        <time>2019-03-26T19:30:27.382Z</time>
      </trkpt>
      <trkpt lat="43.01169656217098" lon="13.808863023295999">
        <ele>260.0</ele>
        <time>2019-03-26T19:30:31.595Z</time>
      </trkpt>
      <trkpt lat="43.01163864322007" lon="13.809019681066275">
        <ele>258.3999938964844</ele>
        <time>2019-03-26T19:30:35.811Z</time>
      </trkpt>
      <trkpt lat="43.011591117829084" lon="13.809139123186469">
        <ele>257.20001220703125</ele>
        <time>2019-03-26T19:30:40.029Z</time>
      </trkpt>
      <trkpt lat="43.01156354136765" lon="13.809282286092639">
        <ele>256.0</ele>
        <time>2019-03-26T19:30:44.250Z</time>
      </trkpt>
      <trkpt lat="43.01154828630388" lon="13.809344731271267">
        <ele>255.60000610351562</ele>
        <time>2019-03-26T19:30:48.472Z</time>
      </trkpt>
      <trkpt lat="43.011475866660476" lon="13.80942846648395">
        <ele>253.60000610351562</ele>
        <time>2019-03-26T19:30:52.696Z</time>
      </trkpt>
      <trkpt lat="43.01126874983311" lon="13.809524858370423">
        <ele>249.0</ele>
        <time>2019-03-26T19:30:56.925Z</time>
      </trkpt>
      <trkpt lat="43.011160707101226" lon="13.809707751497626">
        <ele>246.0</ele>
        <time>2019-03-26T19:31:01.158Z</time>
      </trkpt>
      <trkpt lat="43.011128352954984" lon="13.81005291827023">
        <ele>245.8000030517578</ele>
        <time>2019-03-26T19:31:05.397Z</time>
      </trkpt>
      <trkpt lat="43.011177303269506" lon="13.810317534953356">
        <ele>245.39999389648438</ele>
        <time>2019-03-26T19:31:09.641Z</time>
      </trkpt>
      <trkpt lat="43.011223739013076" lon="13.810506127774715">
        <ele>244.1999969482422</ele>
        <time>2019-03-26T19:31:13.889Z</time>
      </trkpt>
      <trkpt lat="43.01137536764145" lon="13.811031505465508">
        <ele>240.60000610351562</ele>
        <time>2019-03-26T19:31:18.146Z</time>
      </trkpt>
      <trkpt lat="43.011541832238436" lon="13.811623435467482">
        <ele>236.39999389648438</ele>
        <time>2019-03-26T19:31:22.414Z</time>
      </trkpt>
      <trkpt lat="43.011740148067474" lon="13.812392307445407">
        <ele>231.39999389648438</ele>
        <time>2019-03-26T19:31:26.696Z</time>
      </trkpt>
      <trkpt lat="43.01178549416363" lon="13.812522310763597">
        <ele>230.60000610351562</ele>
        <time>2019-03-26T19:31:30.981Z</time>
      </trkpt>
      <trkpt lat="43.01189521327615" lon="13.812742084264755">
        <ele>228.39999389648438</ele>
        <time>2019-03-26T19:31:35.270Z</time>
      </trkpt>
      <trkpt lat="43.012246415019035" lon="13.81339612416923">
        <ele>223.39999389648438</ele>
        <time>2019-03-26T19:31:39.573Z</time>
      </trkpt>
      <trkpt lat="43.01246493123472" lon="13.813760569319129">
        <ele>221.0</ele>
        <time>2019-03-26T19:31:43.884Z</time>
      </trkpt>
      <trkpt lat="43.012638771906495" lon="13.814085368067026">
        <ele>218.60000610351562</ele>
        <time>2019-03-26T19:31:48.202Z</time>
      </trkpt>
      <trkpt lat="43.01266475580633" lon="13.814188549295068">
        <ele>217.39999389648438</ele>
        <time>2019-03-26T19:31:52.522Z</time>
      </trkpt>
      <trkpt lat="43.012774055823684" lon="13.814477222040296">
        <ele>214.0</ele>
        <time>2019-03-26T19:31:56.847Z</time>
      </trkpt>
      <trkpt lat="43.012996930629015" lon="13.81489522755146">
        <ele>208.1999969482422</ele>
        <time>2019-03-26T19:32:01.181Z</time>
      </trkpt>
      <trkpt lat="43.01315442658961" lon="13.815141320228577">
        <ele>204.0</ele>
        <time>2019-03-26T19:32:05.521Z</time>
      </trkpt>
      <trkpt lat="43.013245705515146" lon="13.815224636346102">
        <ele>203.0</ele>
        <time>2019-03-26T19:32:09.863Z</time>
      </trkpt>
      <trkpt lat="43.01346740685403" lon="13.815452205017209">
        <ele>198.60000610351562</ele>
        <time>2019-03-26T19:32:14.212Z</time>
      </trkpt>
      <trkpt lat="43.01361023448408" lon="13.815632499754429">
        <ele>194.0</ele>
        <time>2019-03-26T19:32:18.565Z</time>
      </trkpt>
      <trkpt lat="43.013645354658365" lon="13.815668541938066">
        <ele>193.1999969482422</ele>
        <time>2019-03-26T19:32:22.920Z</time>
      </trkpt>
      <trkpt lat="43.01384584978223" lon="13.8158636726439">
        <ele>188.1999969482422</ele>
        <time>2019-03-26T19:32:27.280Z</time>
      </trkpt>
      <trkpt lat="43.01388457417488" lon="13.815891249105334">
        <ele>187.60000610351562</ele>
        <time>2019-03-26T19:32:31.641Z</time>
      </trkpt>
      <trkpt lat="43.013924388214946" lon="13.815924860537052">
        <ele>186.8000030517578</ele>
        <time>2019-03-26T19:32:36.003Z</time>
      </trkpt>
      <trkpt lat="43.01406470127404" lon="13.815999291837215">
        <ele>185.0</ele>
        <time>2019-03-26T19:32:40.369Z</time>
      </trkpt>
      <trkpt lat="43.014156399294734" lon="13.815894685685635">
        <ele>187.1999969482422</ele>
        <time>2019-03-26T19:32:44.738Z</time>
      </trkpt>
      <trkpt lat="43.014166709035635" lon="13.815778009593487">
        <ele>188.60000610351562</ele>
        <time>2019-03-26T19:32:49.109Z</time>
      </trkpt>
      <trkpt lat="43.014165200293064" lon="13.815718749538064">
        <ele>189.39999389648438</ele>
        <time>2019-03-26T19:32:53.481Z</time>
      </trkpt>
      <trkpt lat="43.014239463955164" lon="13.81555387750268">
        <ele>190.8000030517578</ele>
        <time>2019-03-26T19:32:57.856Z</time>
      </trkpt>
      <trkpt lat="43.01432152278721" lon="13.815624117851257">
        <ele>190.39999389648438</ele>
        <time>2019-03-26T19:33:02.233Z</time>
      </trkpt>
      <trkpt lat="43.014424284920096" lon="13.815899547189474">
        <ele>187.60000610351562</ele>
        <time>2019-03-26T19:33:06.616Z</time>
      </trkpt>
      <trkpt lat="43.01446074619889" lon="13.815977750346065">
        <ele>187.0</ele>
        <time>2019-03-26T19:33:11.000Z</time>
      </trkpt>
      <trkpt lat="43.014575745910406" lon="13.816063413396478">
        <ele>187.0</ele>
        <time>2019-03-26T19:33:15.387Z</time>
      </trkpt>
      <trkpt lat="43.01469418220222" lon="13.816141365095973">
        <ele>186.60000610351562</ele>
        <time>2019-03-26T19:33:19.777Z</time>
      </trkpt>
      <trkpt lat="43.01480918191373" lon="13.816241025924683">
        <ele>186.0</ele>
        <time>2019-03-26T19:33:24.171Z</time>
      </trkpt>
      <trkpt lat="43.01486064679921" lon="13.816295759752393">
        <ele>185.39999389648438</ele>
        <time>2019-03-26T19:33:28.566Z</time>
      </trkpt>
      <trkpt lat="43.01490096375346" lon="13.81635376252234">
        <ele>184.8000030517578</ele>
        <time>2019-03-26T19:33:32.962Z</time>
      </trkpt>
      <trkpt lat="43.01493566483259" lon="13.81651938892901">
        <ele>182.1999969482422</ele>
        <time>2019-03-26T19:33:37.361Z</time>
      </trkpt>
      <trkpt lat="43.01498386077583" lon="13.817075779661536">
        <ele>173.1999969482422</ele>
        <time>2019-03-26T19:33:41.770Z</time>
      </trkpt>
      <trkpt lat="43.01499676890671" lon="13.817277699708939">
        <ele>170.60000610351562</ele>
        <time>2019-03-26T19:33:46.182Z</time>
      </trkpt>
      <trkpt lat="43.01498545333743" lon="13.817474506795406">
        <ele>168.0</ele>
        <time>2019-03-26T19:33:50.598Z</time>
      </trkpt>
      <trkpt lat="43.01500406116247" lon="13.81789980456233">
        <ele>160.8000030517578</ele>
        <time>2019-03-26T19:33:55.021Z</time>
      </trkpt>
      <trkpt lat="43.015132220461965" lon="13.818143215030432">
        <ele>159.60000610351562</ele>
        <time>2019-03-26T19:33:59.449Z</time>
      </trkpt>
      <trkpt lat="43.01526473835111" lon="13.818289395421743">
        <ele>160.39999389648438</ele>
        <time>2019-03-26T19:34:03.881Z</time>
      </trkpt>
      <trkpt lat="43.01540605723858" lon="13.818446807563305">
        <ele>161.39999389648438</ele>
        <time>2019-03-26T19:34:08.318Z</time>
      </trkpt>
      <trkpt lat="43.015714259818196" lon="13.818848384544253">
        <ele>158.0</ele>
        <time>2019-03-26T19:34:12.765Z</time>
      </trkpt>
      <trkpt lat="43.01600678823888" lon="13.819180894643068">
        <ele>153.60000610351562</ele>
        <time>2019-03-26T19:34:17.220Z</time>
      </trkpt>
      <trkpt lat="43.016330832615495" lon="13.819532096385956">
        <ele>147.1999969482422</ele>
        <time>2019-03-26T19:34:21.685Z</time>
      </trkpt>
      <trkpt lat="43.01669578067958" lon="13.819691939279437">
        <ele>147.39999389648438</ele>
        <time>2019-03-26T19:34:26.159Z</time>
      </trkpt>
      <trkpt lat="43.01705427467823" lon="13.819700237363577">
        <ele>145.39999389648438</ele>
        <time>2019-03-26T19:34:30.641Z</time>
      </trkpt>
      <trkpt lat="43.01713725551963" lon="13.819679114967585">
        <ele>144.60000610351562</ele>
        <time>2019-03-26T19:34:35.125Z</time>
      </trkpt>
      <trkpt lat="43.01735484972596" lon="13.819640474393964">
        <ele>142.0</ele>
        <time>2019-03-26T19:34:39.615Z</time>
      </trkpt>
      <trkpt lat="43.01743975840509" lon="13.819645503535867">
        <ele>140.8000030517578</ele>
        <time>2019-03-26T19:34:44.107Z</time>
      </trkpt>
      <trkpt lat="43.0175153631717" lon="13.819631757214665">
        <ele>140.0</ele>
        <time>2019-03-26T19:34:48.600Z</time>
      </trkpt>
      <trkpt lat="43.0176551733166" lon="13.819584483280778">
        <ele>138.60000610351562</ele>
        <time>2019-03-26T19:34:53.097Z</time>
      </trkpt>
      <trkpt lat="43.01771694794297" lon="13.819556068629026">
        <ele>138.1999969482422</ele>
        <time>2019-03-26T19:34:57.595Z</time>
      </trkpt>
      <trkpt lat="43.01782867871225" lon="13.819443751126528">
        <ele>136.39999389648438</ele>
        <time>2019-03-26T19:35:02.096Z</time>
      </trkpt>
      <trkpt lat="43.01794560626149" lon="13.819264881312847">
        <ele>135.1999969482422</ele>
        <time>2019-03-26T19:35:06.602Z</time>
      </trkpt>
      <trkpt lat="43.01799254491925" lon="13.819176452234387">
        <ele>135.39999389648438</ele>
        <time>2019-03-26T19:35:11.109Z</time>
      </trkpt>
      <trkpt lat="43.01808239892125" lon="13.818977465853095">
        <ele>135.0</ele>
        <time>2019-03-26T19:35:15.620Z</time>
      </trkpt>
      <trkpt lat="43.018165212124586" lon="13.818814773112535">
        <ele>132.60000610351562</ele>
        <time>2019-03-26T19:35:20.135Z</time>
      </trkpt>
      <trkpt lat="43.01826495677233" lon="13.818816617131233">
        <ele>128.8000030517578</ele>
        <time>2019-03-26T19:35:24.652Z</time>
      </trkpt>
      <trkpt lat="43.01829890348017" lon="13.8189996778965">
        <ele>126.80000305175781</ele>
        <time>2019-03-26T19:35:29.172Z</time>
      </trkpt>
      <trkpt lat="43.01831491291523" lon="13.819057261571288">
        <ele>126.0</ele>
        <time>2019-03-26T19:35:33.693Z</time>
      </trkpt>
      <trkpt lat="43.018357157707214" lon="13.819218445569277">
        <ele>124.0</ele>
        <time>2019-03-26T19:35:38.217Z</time>
      </trkpt>
      <trkpt lat="43.01836243830621" lon="13.819286674261093">
        <ele>123.5999984741211</ele>
        <time>2019-03-26T19:35:42.743Z</time>
      </trkpt>
      <trkpt lat="43.018377777189016" lon="13.819697555154562">
        <ele>120.5999984741211</ele>
        <time>2019-03-26T19:35:47.276Z</time>
      </trkpt>
      <trkpt lat="43.018377274274826" lon="13.81978732533753">
        <ele>120.19999694824219</ele>
        <time>2019-03-26T19:35:51.810Z</time>
      </trkpt>
      <trkpt lat="43.018343076109886" lon="13.820046074688435">
        <ele>119.80000305175781</ele>
        <time>2019-03-26T19:35:56.349Z</time>
      </trkpt>
      <trkpt lat="43.01823863759637" lon="13.82075635716319">
        <ele>117.5999984741211</ele>
        <time>2019-03-26T19:36:00.900Z</time>
      </trkpt>
      <trkpt lat="43.01815481856465" lon="13.82138860411942">
        <ele>115.19999694824219</ele>
        <time>2019-03-26T19:36:05.462Z</time>
      </trkpt>
      <trkpt lat="43.018127577379346" lon="13.82149362936616">
        <ele>115.5999984741211</ele>
        <time>2019-03-26T19:36:10.026Z</time>
      </trkpt>
      <trkpt lat="43.017990197986364" lon="13.821745673194528">
        <ele>113.4000015258789</ele>
        <time>2019-03-26T19:36:14.595Z</time>
      </trkpt>
      <trkpt lat="43.01770420745015" lon="13.821947006508708">
        <ele>109.4000015258789</ele>
        <time>2019-03-26T19:36:19.172Z</time>
      </trkpt>
      <trkpt lat="43.01740363240242" lon="13.82211816497147">
        <ele>106.80000305175781</ele>
        <time>2019-03-26T19:36:23.757Z</time>
      </trkpt>
      <trkpt lat="43.01732090301812" lon="13.822194440290332">
        <ele>106.19999694824219</ele>
        <time>2019-03-26T19:36:28.344Z</time>
      </trkpt>
      <trkpt lat="43.01713231019676" lon="13.82246802560985">
        <ele>106.5999984741211</ele>
        <time>2019-03-26T19:36:32.937Z</time>
      </trkpt>
      <trkpt lat="43.01707933656871" lon="13.822561902925372">
        <ele>107.19999694824219</ele>
        <time>2019-03-26T19:36:37.532Z</time>
      </trkpt>
      <trkpt lat="43.01688856445253" lon="13.82296884432435">
        <ele>108.5999984741211</ele>
        <time>2019-03-26T19:36:42.136Z</time>
      </trkpt>
      <trkpt lat="43.01686459220946" lon="13.823078647255898">
        <ele>108.4000015258789</ele>
        <time>2019-03-26T19:36:46.742Z</time>
      </trkpt>
      <trkpt lat="43.0168588925153" lon="13.823454659432173">
        <ele>107.0</ele>
        <time>2019-03-26T19:36:51.354Z</time>
      </trkpt>
      <trkpt lat="43.01690683700144" lon="13.824223447591066">
        <ele>102.19999694824219</ele>
        <time>2019-03-26T19:36:55.979Z</time>
      </trkpt>
      <trkpt lat="43.0168451461941" lon="13.824690822511911">
        <ele>99.0</ele>
        <time>2019-03-26T19:37:00.612Z</time>
      </trkpt>
      <trkpt lat="43.01681974902749" lon="13.825199101120234">
        <ele>95.0</ele>
        <time>2019-03-26T19:37:05.254Z</time>
      </trkpt>
      <trkpt lat="43.016900550574064" lon="13.825691202655435">
        <ele>94.4000015258789</ele>
        <time>2019-03-26T19:37:09.905Z</time>
      </trkpt>
      <trkpt lat="43.016918655484915" lon="13.82580921985209">
        <ele>94.19999694824219</ele>
        <time>2019-03-26T19:37:14.558Z</time>
      </trkpt>
      <trkpt lat="43.01696676760912" lon="13.826530817896128">
        <ele>92.4000015258789</ele>
        <time>2019-03-26T19:37:19.223Z</time>
      </trkpt>
      <trkpt lat="43.01693592220545" lon="13.827199609950185">
        <ele>90.4000015258789</ele>
        <time>2019-03-26T19:37:23.900Z</time>
      </trkpt>
      <trkpt lat="43.016920667141676" lon="13.82778332568705">
        <ele>89.4000015258789</ele>
        <time>2019-03-26T19:37:28.587Z</time>
      </trkpt>
      <trkpt lat="43.01689837127924" lon="13.828340051695704">
        <ele>88.19999694824219</ele>
        <time>2019-03-26T19:37:33.283Z</time>
      </trkpt>
      <trkpt lat="43.016910944134" lon="13.828453123569489">
        <ele>88.0</ele>
        <time>2019-03-26T19:37:37.981Z</time>
      </trkpt>
      <trkpt lat="43.01698587834835" lon="13.828803487122059">
        <ele>87.19999694824219</ele>
        <time>2019-03-26T19:37:42.686Z</time>
      </trkpt>
      <trkpt lat="43.01705142483115" lon="13.829028457403183">
        <ele>87.19999694824219</ele>
        <time>2019-03-26T19:37:47.395Z</time>
      </trkpt>
      <trkpt lat="43.01728100515902" lon="13.829817278310657">
        <ele>84.5999984741211</ele>
        <time>2019-03-26T19:37:52.118Z</time>
      </trkpt>
      <trkpt lat="43.01731763407588" lon="13.829920124262571">
        <ele>84.19999694824219</ele>
        <time>2019-03-26T19:37:56.843Z</time>
      </trkpt>
      <trkpt lat="43.01743347197771" lon="13.830198822543025">
        <ele>82.80000305175781</ele>
        <time>2019-03-26T19:38:01.574Z</time>
      </trkpt>
      <trkpt lat="43.01745895296335" lon="13.830306613817811">
        <ele>82.19999694824219</ele>
        <time>2019-03-26T19:38:06.307Z</time>
      </trkpt>
      <trkpt lat="43.01746817305684" lon="13.830650439485908">
        <ele>80.5999984741211</ele>
        <time>2019-03-26T19:38:11.046Z</time>
      </trkpt>
      <trkpt lat="43.01745970733464" lon="13.831416293978691">
        <ele>78.0</ele>
        <time>2019-03-26T19:38:15.798Z</time>
      </trkpt>
      <trkpt lat="43.01745526492596" lon="13.831617962568998">
        <ele>77.4000015258789</ele>
        <time>2019-03-26T19:38:20.553Z</time>
      </trkpt>
      <trkpt lat="43.017448391765356" lon="13.832227913662791">
        <ele>75.5999984741211</ele>
        <time>2019-03-26T19:38:25.319Z</time>
      </trkpt>
      <trkpt lat="43.01743632182479" lon="13.832645080983639">
        <ele>74.0</ele>
        <time>2019-03-26T19:38:30.092Z</time>
      </trkpt>
      <trkpt lat="43.01743472926319" lon="13.832835434004664">
        <ele>73.80000305175781</ele>
        <time>2019-03-26T19:38:34.868Z</time>
      </trkpt>
      <trkpt lat="43.01743992604315" lon="13.833348322659731">
        <ele>72.5999984741211</ele>
        <time>2019-03-26T19:38:39.653Z</time>
      </trkpt>
      <trkpt lat="43.0175222363323" lon="13.833964392542839">
        <ele>70.4000015258789</ele>
        <time>2019-03-26T19:38:44.449Z</time>
      </trkpt>
      <trkpt lat="43.01753522828221" lon="13.83406212553382">
        <ele>70.0</ele>
        <time>2019-03-26T19:38:49.246Z</time>
      </trkpt>
      <trkpt lat="43.017572443932295" lon="13.834381559863687">
        <ele>69.0</ele>
        <time>2019-03-26T19:38:54.049Z</time>
      </trkpt>
      <trkpt lat="43.01759239286184" lon="13.834479292854667">
        <ele>68.5999984741211</ele>
        <time>2019-03-26T19:38:58.854Z</time>
      </trkpt>
      <trkpt lat="43.01775257103145" lon="13.835277669131756">
        <ele>66.4000015258789</ele>
        <time>2019-03-26T19:39:03.673Z</time>
      </trkpt>
      <trkpt lat="43.0177741125226" lon="13.835393590852618">
        <ele>66.19999694824219</ele>
        <time>2019-03-26T19:39:08.494Z</time>
      </trkpt>
      <trkpt lat="43.01783060654998" lon="13.835962722077966">
        <ele>65.4000015258789</ele>
        <time>2019-03-26T19:39:13.325Z</time>
      </trkpt>
      <trkpt lat="43.017858266830444" lon="13.836650038138032">
        <ele>62.20000076293945</ele>
        <time>2019-03-26T19:39:18.168Z</time>
      </trkpt>
      <trkpt lat="43.01785617135465" lon="13.837414048612118">
        <ele>60.400001525878906</ele>
        <time>2019-03-26T19:39:23.024Z</time>
      </trkpt>
      <trkpt lat="43.017808478325605" lon="13.838200438767672">
        <ele>57.79999923706055</ele>
        <time>2019-03-26T19:39:27.893Z</time>
      </trkpt>
      <trkpt lat="43.0178034491837" lon="13.838305799290538">
        <ele>57.400001525878906</ele>
        <time>2019-03-26T19:39:32.764Z</time>
      </trkpt>
      <trkpt lat="43.01776489242911" lon="13.83908229880035">
        <ele>55.599998474121094</ele>
        <time>2019-03-26T19:39:37.648Z</time>
      </trkpt>
      <trkpt lat="43.01775106228888" lon="13.839297043159604">
        <ele>55.400001525878906</ele>
        <time>2019-03-26T19:39:42.536Z</time>
      </trkpt>
      <trkpt lat="43.01771770231426" lon="13.840107657015324">
        <ele>53.0</ele>
        <time>2019-03-26T19:39:47.438Z</time>
      </trkpt>
      <trkpt lat="43.017714098095894" lon="13.840217795222998">
        <ele>52.599998474121094</ele>
        <time>2019-03-26T19:39:52.342Z</time>
      </trkpt>
      <trkpt lat="43.017730778083205" lon="13.841011393815279">
        <ele>50.79999923706055</ele>
        <time>2019-03-26T19:39:57.259Z</time>
      </trkpt>
      <trkpt lat="43.01774326711893" lon="13.841126561164856">
        <ele>50.400001525878906</ele>
        <time>2019-03-26T19:40:02.178Z</time>
      </trkpt>
      <trkpt lat="43.017853908240795" lon="13.841907503083348">
        <ele>48.599998474121094</ele>
        <time>2019-03-26T19:40:07.111Z</time>
      </trkpt>
      <trkpt lat="43.017974607646465" lon="13.842679308727384">
        <ele>48.400001525878906</ele>
        <time>2019-03-26T19:40:12.058Z</time>
      </trkpt>
      <trkpt lat="43.01816043443978" lon="13.843410713598132">
        <ele>46.400001525878906</ele>
        <time>2019-03-26T19:40:17.018Z</time>
      </trkpt>
      <trkpt lat="43.01819186657667" lon="13.843501657247543">
        <ele>46.400001525878906</ele>
        <time>2019-03-26T19:40:21.980Z</time>
      </trkpt>
      <trkpt lat="43.01845212467015" lon="13.844063244760036">
        <ele>43.20000076293945</ele>
        <time>2019-03-26T19:40:26.953Z</time>
      </trkpt>
      <trkpt lat="43.01882604137063" lon="13.844673279672861">
        <ele>41.20000076293945</ele>
        <time>2019-03-26T19:40:31.940Z</time>
      </trkpt>
      <trkpt lat="43.018936682492495" lon="13.844826500862837">
        <ele>40.79999923706055</ele>
        <time>2019-03-26T19:40:36.930Z</time>
      </trkpt>
      <trkpt lat="43.01934932358563" lon="13.845379455015063">
        <ele>39.79999923706055</ele>
        <time>2019-03-26T19:40:41.934Z</time>
      </trkpt>
      <trkpt lat="43.01978652365506" lon="13.84588890708983">
        <ele>38.79999923706055</ele>
        <time>2019-03-26T19:40:46.951Z</time>
      </trkpt>
      <trkpt lat="43.01983782090247" lon="13.84596610441804">
        <ele>38.599998474121094</ele>
        <time>2019-03-26T19:40:51.970Z</time>
      </trkpt>
      <trkpt lat="43.02020193077624" lon="13.84655786678195">
        <ele>37.400001525878906</ele>
        <time>2019-03-26T19:40:57.002Z</time>
      </trkpt>
      <trkpt lat="43.0202901083976" lon="13.846722235903144">
        <ele>37.20000076293945</ele>
        <time>2019-03-26T19:41:02.038Z</time>
      </trkpt>
      <trkpt lat="43.02062915638089" lon="13.84733336046338">
        <ele>36.0</ele>
        <time>2019-03-26T19:41:07.087Z</time>
      </trkpt>
      <trkpt lat="43.020967869088054" lon="13.847870975732803">
        <ele>35.400001525878906</ele>
        <time>2019-03-26T19:41:12.148Z</time>
      </trkpt>
      <trkpt lat="43.021032493561506" lon="13.847943227738142">
        <ele>35.0</ele>
        <time>2019-03-26T19:41:17.211Z</time>
      </trkpt>
      <trkpt lat="43.02132208831608" lon="13.8483477383852">
        <ele>34.400001525878906</ele>
        <time>2019-03-26T19:41:22.284Z</time>
      </trkpt>
      <trkpt lat="43.021730203181505" lon="13.84887294843793">
        <ele>31.200000762939453</ele>
        <time>2019-03-26T19:41:27.370Z</time>
      </trkpt>
      <trkpt lat="43.02212524227798" lon="13.849287098273635">
        <ele>31.0</ele>
        <time>2019-03-26T19:41:32.468Z</time>
      </trkpt>
      <trkpt lat="43.02259303629398" lon="13.84979353286326">
        <ele>30.0</ele>
        <time>2019-03-26T19:41:37.580Z</time>
      </trkpt>
      <trkpt lat="43.022905848920345" lon="13.85023484006524">
        <ele>29.0</ele>
        <time>2019-03-26T19:41:42.702Z</time>
      </trkpt>
      <trkpt lat="43.02310877479613" lon="13.850638680160046">
        <ele>27.600000381469727</ele>
        <time>2019-03-26T19:41:47.832Z</time>
      </trkpt>
      <trkpt lat="43.02316979505122" lon="13.850812269374728">
        <ele>27.0</ele>
        <time>2019-03-26T19:41:52.966Z</time>
      </trkpt>
      <trkpt lat="43.02320742979646" lon="13.850929196923971">
        <ele>26.799999237060547</ele>
        <time>2019-03-26T19:41:58.102Z</time>
      </trkpt>
      <trkpt lat="43.023211704567075" lon="13.85095995850861">
        <ele>26.799999237060547</ele>
        <time>2019-03-26T19:42:03.238Z</time>
      </trkpt>
      <trkpt lat="43.02320499904454" lon="13.85098879225552">
        <ele>26.799999237060547</ele>
        <time>2019-03-26T19:42:08.375Z</time>
      </trkpt>
      <trkpt lat="43.02318647503853" lon="13.850976470857859">
        <ele>26.799999237060547</ele>
        <time>2019-03-26T19:42:13.512Z</time>
      </trkpt>
      <trkpt lat="43.023169208317995" lon="13.850989378988743">
        <ele>27.0</ele>
        <time>2019-03-26T19:42:18.650Z</time>
      </trkpt>
      <trkpt lat="43.02316267043352" lon="13.85101955384016">
        <ele>27.0</ele>
        <time>2019-03-26T19:42:23.788Z</time>
      </trkpt>
      <trkpt lat="43.02319636568427" lon="13.851168332621455">
        <ele>26.600000381469727</ele>
        <time>2019-03-26T19:42:28.929Z</time>
      </trkpt>
      <trkpt lat="43.02321832627058" lon="13.85143244639039">
        <ele>26.200000762939453</ele>
        <time>2019-03-26T19:42:34.075Z</time>
      </trkpt>
      <trkpt lat="43.02327582612634" lon="13.851719107478857">
        <ele>25.799999237060547</ele>
        <time>2019-03-26T19:42:39.226Z</time>
      </trkpt>
      <trkpt lat="43.023317232728004" lon="13.851904850453138">
        <ele>25.600000381469727</ele>
        <time>2019-03-26T19:42:44.380Z</time>
      </trkpt>
      <trkpt lat="43.0233484134078" lon="13.852021442726254">
        <ele>25.200000762939453</ele>
        <time>2019-03-26T19:42:49.536Z</time>
      </trkpt>
      <trkpt lat="43.02336098626256" lon="13.852091012522578">
        <ele>25.200000762939453</ele>
        <time>2019-03-26T19:42:54.693Z</time>
      </trkpt>
      <trkpt lat="43.02341563627124" lon="13.852375159040093">
        <ele>24.399999618530273</ele>
        <time>2019-03-26T19:42:59.855Z</time>
      </trkpt>
      <trkpt lat="43.02347254939377" lon="13.852667352184653">
        <ele>24.0</ele>
        <time>2019-03-26T19:43:05.023Z</time>
      </trkpt>
      <trkpt lat="43.023477578535676" lon="13.852738095447421">
        <ele>24.0</ele>
        <time>2019-03-26T19:43:10.192Z</time>
      </trkpt>
      <trkpt lat="43.02351345308125" lon="13.852894501760602">
        <ele>23.600000381469727</ele>
        <time>2019-03-26T19:43:15.364Z</time>
      </trkpt>
      <trkpt lat="43.02364697679877" lon="13.853251654654741">
        <ele>23.200000762939453</ele>
        <time>2019-03-26T19:43:20.543Z</time>
      </trkpt>
      <trkpt lat="43.02385074086487" lon="13.85366253554821">
        <ele>22.200000762939453</ele>
        <time>2019-03-26T19:43:25.730Z</time>
      </trkpt>
      <trkpt lat="43.024148885160685" lon="13.854181542992592">
        <ele>19.799999237060547</ele>
        <time>2019-03-26T19:43:30.928Z</time>
      </trkpt>
      <trkpt lat="43.02430487237871" lon="13.854432245716453">
        <ele>19.0</ele>
        <time>2019-03-26T19:43:36.132Z</time>
      </trkpt>
      <trkpt lat="43.02438064478338" lon="13.854548167437315">
        <ele>18.799999237060547</ele>
        <time>2019-03-26T19:43:41.339Z</time>
      </trkpt>
      <trkpt lat="43.02462472580373" lon="13.854982517659664">
        <ele>17.799999237060547</ele>
        <time>2019-03-26T19:43:46.555Z</time>
      </trkpt>
      <trkpt lat="43.02476855926216" lon="13.85524956509471">
        <ele>17.200000762939453</ele>
        <time>2019-03-26T19:43:51.777Z</time>
      </trkpt>
      <trkpt lat="43.02483234554529" lon="13.85536096058786">
        <ele>16.799999237060547</ele>
        <time>2019-03-26T19:43:57.001Z</time>
      </trkpt>
      <trkpt lat="43.02503937855363" lon="13.85568207129836">
        <ele>15.600000381469727</ele>
        <time>2019-03-26T19:44:02.233Z</time>
      </trkpt>
      <trkpt lat="43.025309946388006" lon="13.856143662706017">
        <ele>14.0</ele>
        <time>2019-03-26T19:44:07.475Z</time>
      </trkpt>
      <trkpt lat="43.02540097385645" lon="13.856281042098999">
        <ele>13.600000381469727</ele>
        <time>2019-03-26T19:44:12.720Z</time>
      </trkpt>
      <trkpt lat="43.02545587532222" lon="13.856355221942067">
        <ele>13.399999618530273</ele>
        <time>2019-03-26T19:44:17.967Z</time>
      </trkpt>
      <trkpt lat="43.025498958304524" lon="13.856427893042564">
        <ele>13.199999809265137</ele>
        <time>2019-03-26T19:44:23.215Z</time>
      </trkpt>
      <trkpt lat="43.025517063215375" lon="13.856459073722363">
        <ele>13.0</ele>
        <time>2019-03-26T19:44:28.464Z</time>
      </trkpt>
      <trkpt lat="43.02557649090886" lon="13.856546664610505">
        <ele>12.800000190734863</ele>
        <time>2019-03-26T19:44:33.715Z</time>
      </trkpt>
      <trkpt lat="43.02565444260836" lon="13.856648420915008">
        <ele>12.600000381469727</ele>
        <time>2019-03-26T19:44:38.968Z</time>
      </trkpt>
      <trkpt lat="43.025757037103176" lon="13.856878755614161">
        <ele>12.600000381469727</ele>
        <time>2019-03-26T19:44:44.226Z</time>
      </trkpt>
      <trkpt lat="43.02598477341235" lon="13.857252420857549">
        <ele>12.0</ele>
        <time>2019-03-26T19:44:49.492Z</time>
      </trkpt>
      <trkpt lat="43.02616288885474" lon="13.857505386695266">
        <ele>11.800000190734863</ele>
        <time>2019-03-26T19:44:54.764Z</time>
      </trkpt>
      <trkpt lat="43.02623447030783" lon="13.857599180191755">
        <ele>11.600000381469727</ele>
        <time>2019-03-26T19:45:00.039Z</time>
      </trkpt>
      <trkpt lat="43.026415100321174" lon="13.857928169891238">
        <ele>10.600000381469727</ele>
        <time>2019-03-26T19:45:05.321Z</time>
      </trkpt>
      <trkpt lat="43.02656547166407" lon="13.858204772695899">
        <ele>9.600000381469727</ele>
        <time>2019-03-26T19:45:10.609Z</time>
      </trkpt>
      <trkpt lat="43.0266244802624" lon="13.858369309455156">
        <ele>8.800000190734863</ele>
        <time>2019-03-26T19:45:15.900Z</time>
      </trkpt>
      <trkpt lat="43.026642836630344" lon="13.858415745198727">
        <ele>8.600000381469727</ele>
        <time>2019-03-26T19:45:21.192Z</time>
      </trkpt>
      <trkpt lat="43.02673872560263" lon="13.85867876932025">
        <ele>7.800000190734863</ele>
        <time>2019-03-26T19:45:26.489Z</time>
      </trkpt>
      <trkpt lat="43.02687065675855" lon="13.859052769839764">
        <ele>7.0</ele>
        <time>2019-03-26T19:45:31.793Z</time>
      </trkpt>
      <trkpt lat="43.02697048522532" lon="13.859355859458447">
        <ele>6.599999904632568</ele>
        <time>2019-03-26T19:45:37.103Z</time>
      </trkpt>
      <trkpt lat="43.02698766812682" lon="13.85941218584776">
        <ele>6.400000095367432</ele>
        <time>2019-03-26T19:45:42.414Z</time>
      </trkpt>
      <trkpt lat="43.02708372473717" lon="13.859715443104506">
        <ele>4.800000190734863</ele>
        <time>2019-03-26T19:45:47.730Z</time>
      </trkpt>
      <trkpt lat="43.02710828371346" lon="13.85974838398397">
        <ele>4.800000190734863</ele>
        <time>2019-03-26T19:45:53.047Z</time>
      </trkpt>
      <trkpt lat="43.02718355320394" lon="13.859861539676785">
        <ele>4.400000095367432</ele>
        <time>2019-03-26T19:45:58.367Z</time>
      </trkpt>
      <trkpt lat="43.02720199339092" lon="13.859919626265764">
        <ele>4.199999809265137</ele>
        <time>2019-03-26T19:46:03.688Z</time>
      </trkpt>
      <trkpt lat="43.027329817414284" lon="13.860275354236364">
        <ele>3.200000047683716</ele>
        <time>2019-03-26T19:46:09.016Z</time>
      </trkpt>
      <trkpt lat="43.027345994487405" lon="13.86031617410481">
        <ele>3.0</ele>
        <time>2019-03-26T19:46:14.344Z</time>
      </trkpt>
      <trkpt lat="43.02737801335752" lon="13.860372249037027">
        <ele>2.799999952316284</ele>
        <time>2019-03-26T19:46:19.674Z</time>
      </trkpt>
      <trkpt lat="43.027392430230975" lon="13.860380798578262">
        <ele>2.5999999046325684</ele>
        <time>2019-03-26T19:46:25.004Z</time>
      </trkpt>
      <trkpt lat="43.02743065170944" lon="13.860402004793286">
        <ele>2.5999999046325684</ele>
        <time>2019-03-26T19:46:30.335Z</time>
      </trkpt>
      <trkpt lat="43.02745898254216" lon="13.86043444275856">
        <ele>2.4000000953674316</ele>
        <time>2019-03-26T19:46:35.667Z</time>
      </trkpt>
      <trkpt lat="43.0274670291692" lon="13.860449194908142">
        <ele>2.4000000953674316</ele>
        <time>2019-03-26T19:46:40.999Z</time>
      </trkpt>
    </trkseg>
  </trk>
</gpx>
